Provisional Data: West Branch Susquehanna River near Milton, PA


Please select a monitoring station.
Please select start date.
Please select start date.

Toggle Unit: C/F Toggle Unit: C/F
Sample Time Temperature (C) Temperature (F) Specific Conductivity (mS/cm) pH   Turbidity (NTU+) DO (mg/L)
12/23/2022 12:00:00 AM 1.47 34.646 0.175 7.7 24.63 14.79
12/23/2022 12:15:00 AM 1.48 34.664 0.175 7.7 19.71 14.78
12/23/2022 12:30:00 AM 1.49 34.682 0.175 7.7 15.86 14.78
12/23/2022 12:45:00 AM 1.5 34.7 0.176 7.7 13.71 14.76
12/23/2022 1:00:00 AM 1.51 34.718 0.176 7.7 11.85 14.76
12/23/2022 1:15:00 AM 1.52 34.736 0.178 7.7 11.54 14.76
12/23/2022 1:30:00 AM 1.54 34.772 0.179 7.71 10.78 14.74
12/23/2022 1:45:00 AM 1.56 34.808 0.182 7.71 10.67 14.73
12/23/2022 2:00:00 AM 1.58 34.844 0.184 7.71 11.33 14.71
12/23/2022 2:15:00 AM 1.6 34.88 0.189 7.72 14.23 14.7
12/23/2022 2:30:00 AM 1.61 34.898 0.192 7.73 17.88 14.7
12/23/2022 2:45:00 AM 1.61 34.898 0.191 7.74 19.73 14.69
12/23/2022 3:00:00 AM 1.61 34.898 0.191 7.74 16.69 14.68
12/23/2022 3:15:00 AM 1.63 34.934 0.193 7.75 24.27 14.64
12/23/2022 3:30:00 AM 1.67 35.006 0.196 7.76 25.45 14.62
12/23/2022 3:45:00 AM 1.74 35.132 0.202 7.78 28.18 14.52
12/23/2022 4:00:00 AM 1.79 35.222 0.206 7.79 32.86 14.44
12/23/2022 4:15:00 AM 1.76 35.168 0.209 7.79 55.8 14.41
12/23/2022 4:30:00 AM 1.68 35.024 0.206 7.79 70.32 14.4
12/23/2022 4:45:00 AM 1.6 34.88 0.2 7.79 80.17 14.38
12/23/2022 5:00:00 AM 1.51 34.718 0.19 7.78 95.17 14.4
12/23/2022 5:15:00 AM 1.44 34.592 0.182 7.77 132.6 14.42
12/23/2022 5:30:00 AM 1.4 34.52 0.176 7.76 119.02 14.43
12/23/2022 5:45:00 AM 1.36 34.448 0.17 7.74 125.09 14.42
12/23/2022 6:00:00 AM 1.34 34.412 0.168 7.73 114.95 14.41
12/23/2022 6:15:00 AM 1.33 34.394 0.165 7.73 124.55 14.4
12/23/2022 6:30:00 AM 1.33 34.394 0.164 7.71 140 14.38
12/23/2022 6:45:00 AM 1.33 34.394 0.163 7.7 121 14.35
12/23/2022 7:00:00 AM 1.35 34.43 0.162 7.69 116.91 14.33
12/23/2022 7:15:00 AM 1.36 34.448 0.161 7.68 115.71 14.33
12/23/2022 7:30:00 AM 1.38 34.484 0.16 7.67 108.67 14.32
12/23/2022 7:45:00 AM 1.4 34.52 0.159 7.67 106.74 14.32
12/23/2022 8:00:00 AM 1.43 34.574 0.158 7.66 90.48 14.32
12/23/2022 8:15:00 AM 1.46 34.628 0.157 7.65 91.98 14.3
12/23/2022 8:30:00 AM 1.48 34.664 0.157 7.65 77.63 14.3
12/23/2022 8:45:00 AM 1.51 34.718 0.157 7.65 74.26 14.3
12/23/2022 9:00:00 AM 1.54 34.772 0.157 7.65 64.02 14.3
12/23/2022 9:15:00 AM 1.56 34.808 0.157 7.64 66.28 14.28
12/23/2022 9:30:00 AM 1.59 34.862 0.157 7.64 56.19 14.27
12/23/2022 9:45:00 AM 1.62 34.916 0.157 7.65 51.72 14.29
12/23/2022 10:00:00 AM 1.66 34.988 0.157 7.65 46.27 14.28
12/23/2022 10:15:00 AM 1.7 35.06 0.158 7.64 49.72 14.27
12/23/2022 10:30:00 AM 1.73 35.114 0.16 7.64 42.01 14.25
12/23/2022 10:45:00 AM 1.77 35.186 0.161 7.65 43.52 14.23
12/23/2022 11:00:00 AM 1.8 35.24 0.164 7.65 41.67 14.22
12/23/2022 11:15:00 AM 1.82 35.276 0.167 7.65 40.53 14.19
12/23/2022 11:30:00 AM 1.84 35.312 0.169 7.65 42.56 14.17
12/23/2022 11:45:00 AM 1.85 35.33 0.17 7.65 44.15 14.16
12/23/2022 12:00:00 PM 1.86 35.348 0.17 7.65 49.11 14.15
12/23/2022 12:15:00 PM 1.87 35.366 0.17 7.64 45.8 14.12
12/23/2022 12:30:00 PM 1.89 35.402 0.169 7.64 49.74 14.09
12/23/2022 12:45:00 PM 1.9 35.42 0.167 7.62 50.06 14.07
12/23/2022 1:00:00 PM 1.92 35.456 0.166 7.63 44.88 14.05
12/23/2022 1:15:00 PM 1.94 35.492 0.164 7.62 40.07 14.03
12/23/2022 1:30:00 PM 1.96 35.528 0.162 7.62 44.27 14.01
12/23/2022 1:45:00 PM 1.98 35.564 0.16 7.62 43.98 13.98
12/23/2022 2:00:00 PM 1.99 35.582 0.158 7.61 43.1 13.96
12/23/2022 2:15:00 PM 2.01 35.618 0.155 7.61 49.01 13.94
12/23/2022 2:30:00 PM 2.03 35.654 0.152 7.61 45.25 13.92
12/23/2022 2:45:00 PM 2.05 35.69 0.149 7.61 58.27 13.88
12/23/2022 3:00:00 PM 2.05 35.69 0.145 7.61 55.08 13.89
12/23/2022 3:15:00 PM 2.06 35.708 0.142 7.6 59.25 13.85
12/23/2022 3:30:00 PM 2.08 35.744 0.139 7.59 55.65 13.84
12/23/2022 3:45:00 PM 2.09 35.762 0.137 7.59 58.3 13.83
12/23/2022 4:00:00 PM 2.08 35.744 0.135 7.58 52.15 13.83
12/23/2022 4:15:00 PM 2.07 35.726 0.133 7.58 64.41 13.83
12/23/2022 4:30:00 PM 2.07 35.726 0.13 7.58 60.34 13.81
12/23/2022 4:45:00 PM 2.06 35.708 0.128 7.57 62.65 13.82
12/23/2022 5:00:00 PM 2.05 35.69 0.126 7.57 72.91 13.84
12/23/2022 5:15:00 PM 2.03 35.654 0.125 7.56 70.58 13.83
12/23/2022 5:30:00 PM 2.02 35.636 0.122 7.56 75.1 13.84
12/23/2022 5:45:00 PM 2.01 35.618 0.121 7.55 64.46 13.83
12/23/2022 6:00:00 PM 2.01 35.618 0.12 7.55 62.25 13.82
12/23/2022 6:15:00 PM 2 35.6 0.12 7.55 63.74 13.83
12/23/2022 6:30:00 PM 1.99 35.582 0.119 7.54 59.12 13.84
12/23/2022 6:45:00 PM 1.97 35.546 0.12 7.54 54.49 13.84
12/23/2022 7:00:00 PM 1.76 35.168 0.149 7.53 43.93 14.38
12/23/2022 7:15:00 PM 1.63 34.934 0.156 7.5 27.21 14.45
12/23/2022 7:30:00 PM 1.85 35.33 0.122 7.54 55.48 14.01
12/23/2022 7:45:00 PM 1.89 35.402 0.116 7.53 63.52 13.88
12/23/2022 8:00:00 PM 1.88 35.384 0.116 7.53 46.78 13.84
12/23/2022 8:15:00 PM 1.86 35.348 0.115 7.52 60.74 13.87
12/23/2022 8:30:00 PM 1.83 35.294 0.114 7.52 56.73 13.87
12/23/2022 8:45:00 PM 1.81 35.258 0.113 7.52 52.61 13.88
12/23/2022 9:00:00 PM 1.78 35.204 0.111 7.52 60.89 13.88
12/23/2022 9:15:00 PM 1.75 35.15 0.11 7.51 59.44 13.87
12/23/2022 9:30:00 PM 1.7 35.06 0.11 7.51 62.06 13.9
12/23/2022 9:45:00 PM 1.66 34.988 0.108 7.51 61.7 13.91
12/23/2022 10:00:00 PM 1.63 34.934 0.107 7.5 51.53 13.92
12/23/2022 10:15:00 PM 1.58 34.844 0.106 7.5 51.15 13.93
12/23/2022 10:30:00 PM 1.54 34.772 0.105 7.49 56.43 13.95
12/23/2022 10:45:00 PM 1.5 34.7 0.106 7.49 48.59 13.98
12/23/2022 11:00:00 PM 1.45 34.61 0.103 7.49 50.12 13.98
12/23/2022 11:15:00 PM 1.39 34.502 0.102 7.48 58.28 14.01
12/23/2022 11:30:00 PM 1.34 34.412 0.102 7.48 47.94 14.03
12/23/2022 11:45:00 PM 1.28 34.304 0.101 7.48 41.36 14.06
12/24/2022 12:00:00 AM 1.22 34.196 0.101 7.48 42.45 14.07
12/24/2022 12:15:00 AM 1.16 34.088 0.1 7.47 42.91 14.1
12/24/2022 12:30:00 AM 1.1 33.98 0.1 7.47 46.91 14.11
12/24/2022 12:45:00 AM 1.06 33.908 0.101 7.48 41 14.15
12/24/2022 1:00:00 AM 0.99 33.782 0.1 7.47 52.69 14.16
12/24/2022 1:15:00 AM 0.94 33.692 0.1 7.47 42.22 14.19
12/24/2022 1:30:00 AM 0.88 33.584 0.099 7.46 40.68 14.2
12/24/2022 1:45:00 AM 0.84 33.512 0.101 7.46 41.11 14.22
12/24/2022 2:00:00 AM 0.78 33.404 0.101 7.46 49.72 14.25
12/24/2022 2:15:00 AM 0.73 33.314 0.099 7.46 42.05 14.28
12/24/2022 2:30:00 AM 0.68 33.224 0.101 7.46 40.14 14.3
12/24/2022 2:45:00 AM 0.64 33.152 0.1 7.46 41.32 14.31
12/24/2022 3:00:00 AM 0.6 33.08 0.101 7.46 36.4 14.31
12/24/2022 3:15:00 AM 0.55 32.99 0.103 7.45 43.18 14.36
12/24/2022 3:30:00 AM 0.51 32.918 0.1 7.46 38.65 14.36
12/24/2022 3:45:00 AM 0.47 32.846 0.1 7.45 37.67 14.37
12/24/2022 4:00:00 AM 0.43 32.774 0.1 7.46 33.83 14.38
12/24/2022 4:15:00 AM 0.38 32.684 0.1 7.45 43.28 14.41
12/24/2022 4:30:00 AM 0.34 32.612 0.1 7.46 36.36 14.43
12/24/2022 4:45:00 AM 0.29 32.522 0.1 7.46 35.61 14.47
12/24/2022 5:00:00 AM 0.25 32.45 0.101 7.45 37.79 14.48
12/24/2022 5:15:00 AM 0.21 32.378 0.101 7.45 34.87 14.51
12/24/2022 5:30:00 AM 0.17 32.306 0.103 7.45 31.22 14.53
12/24/2022 5:45:00 AM 0.13 32.234 0.102 7.46 33.05 14.54
12/24/2022 6:00:00 AM 0.11 32.198 0.106 7.46 33.69 14.55
12/24/2022 6:15:00 AM 0.07 32.126 0.104 7.46 37 14.56
12/24/2022 6:30:00 AM 0.03 32.054 0.104 7.46 30.29 14.58
12/24/2022 6:45:00 AM 0 32 0.105 7.46 29.96 14.63
12/24/2022 7:00:00 AM -0.01 31.982 0.106 7.46 30.36 14.61
12/24/2022 7:15:00 AM -0.02 31.964 0.106 7.46 26.89 14.65
12/24/2022 7:30:00 AM -0.03 31.946 0.107 7.46 28.39 14.68
12/24/2022 7:45:00 AM -0.03 31.946 0.108 7.46 31.91 14.68
12/24/2022 8:00:00 AM -0.03 31.946 0.108 7.47 28.89 14.73
12/24/2022 8:15:00 AM -0.03 31.946 0.11 7.47 29.4 14.72
12/24/2022 8:30:00 AM -0.03 31.946 0.11 7.47 27.45 14.74
12/24/2022 8:45:00 AM -0.03 31.946 0.11 7.47 28.71 14.76
12/24/2022 9:00:00 AM -0.03 31.946 0.111 7.47 27.85 14.76
12/24/2022 9:15:00 AM -0.03 31.946 0.112 7.47 28.07 14.8
12/24/2022 9:30:00 AM -0.03 31.946 0.112 7.47 28.44 14.81
12/24/2022 9:45:00 AM -0.03 31.946 0.113 7.48 27.36 14.82
12/24/2022 10:00:00 AM -0.03 31.946 0.113 7.48 25.7 14.83
12/24/2022 10:15:00 AM -0.03 31.946 0.114 7.48 26.88 14.84
12/24/2022 10:30:00 AM -0.03 31.946 0.114 7.48 25.11 14.85
12/24/2022 10:45:00 AM 0.21 32.378 0.131 7.48 25.34 14.87
12/24/2022 11:00:00 AM 0.43 32.774 0.145 7.46 16.62 15.21
12/24/2022 11:15:00 AM 0.29 32.522 0.129 7.45 18.35 14.97
12/24/2022 11:30:00 AM 0.07 32.126 0.12 7.48 22.4 14.89
12/24/2022 11:45:00 AM 0 32 0.12 7.48 24.32 14.9
12/24/2022 12:00:00 PM -0.01 31.982 0.119 7.49 23.04 14.9
12/24/2022 12:15:00 PM -0.01 31.982 0.12 7.49 22.28 14.92
12/24/2022 12:30:00 PM -0.02 31.964 0.121 7.49 22.69 14.93
12/24/2022 12:45:00 PM -0.02 31.964 0.121 7.49 22.53 14.94
12/24/2022 1:00:00 PM -0.02 31.964 0.121 7.49 20.83 14.93
12/24/2022 1:15:00 PM -0.02 31.964 0.122 7.5 24.33 14.93
12/24/2022 1:30:00 PM -0.02 31.964 0.122 7.5 21.58 14.95
12/24/2022 1:45:00 PM -0.02 31.964 0.123 7.5 20.7 14.96
12/24/2022 2:00:00 PM -0.02 31.964 0.122 7.5 20.61 14.96
12/24/2022 2:15:00 PM -0.03 31.946 0.122 7.5 23.85 14.96
12/24/2022 2:30:00 PM -0.03 31.946 0.123 7.51 22.49 14.97
12/24/2022 2:45:00 PM -0.03 31.946 0.122 7.51 20.88 14.97
12/24/2022 3:00:00 PM -0.03 31.946 0.122 7.51 20.6 14.99
12/24/2022 3:15:00 PM -0.02 31.964 0.122 7.51 19.99 14.99
12/24/2022 3:30:00 PM -0.03 31.946 0.122 7.51 20.83 14.98
12/24/2022 3:45:00 PM -0.03 31.946 0.122 7.51 19.33 14.97
12/24/2022 4:00:00 PM -0.03 31.946 0.121 7.51 21.68 14.98
12/24/2022 4:15:00 PM -0.03 31.946 0.122 7.51 20.09 14.99
12/24/2022 4:30:00 PM -0.03 31.946 0.121 7.51 20.79 14.99
12/24/2022 4:45:00 PM -0.03 31.946 0.121 7.51 18.57 15
12/24/2022 5:00:00 PM -0.03 31.946 0.121 7.51 20.87 15
12/24/2022 5:15:00 PM -0.03 31.946 0.121 7.51 20.46 15.01
12/24/2022 5:30:00 PM -0.04 31.928 0.121 7.51 19.01 15.02
12/24/2022 5:45:00 PM -0.04 31.928 0.121 7.51 18.89 15.02
12/24/2022 6:00:00 PM -0.04 31.928 0.122 7.51 19.34 15.02
12/24/2022 6:15:00 PM -0.04 31.928 0.121 7.51 21.38 15.03
12/24/2022 6:30:00 PM 0.19 32.342 0.13 7.51 19.59 15.08
12/24/2022 6:45:00 PM 0.32 32.576 0.141 7.45 13.5 15.31
12/24/2022 7:00:00 PM 0.22 32.396 0.129 7.43 15.16 15.14
12/24/2022 7:15:00 PM 0.03 32.054 0.121 7.47 17.87 15.05
12/24/2022 7:30:00 PM -0.02 31.964 0.12 7.49 17.04 15.04
12/24/2022 7:45:00 PM -0.03 31.946 0.12 7.49 19.14 15.02
12/24/2022 8:00:00 PM -0.03 31.946 0.12 7.49 17.61 15.05
12/24/2022 8:15:00 PM -0.03 31.946 0.12 7.5 16.82 15.04
12/24/2022 8:30:00 PM -0.04 31.928 0.118 7.5 18.88 15.04
12/24/2022 8:45:00 PM -0.04 31.928 0.118 7.5 17.51 15.05
12/24/2022 9:00:00 PM -0.04 31.928 0.118 7.5 19.18 15.05
12/24/2022 9:15:00 PM -0.04 31.928 0.118 7.5 17.77 15.04
12/24/2022 9:30:00 PM -0.04 31.928 0.117 7.5 17.79 15.05
12/24/2022 9:45:00 PM -0.04 31.928 0.117 7.5 19.31 15.03
12/24/2022 10:00:00 PM -0.04 31.928 0.116 7.5 18.06 15.04
12/24/2022 10:15:00 PM -0.04 31.928 0.117 7.5 19.63 15.05
12/24/2022 10:30:00 PM -0.04 31.928 0.116 7.5 17.24 15.05
12/24/2022 10:45:00 PM -0.05 31.91 0.116 7.5 18.74 15.06
12/24/2022 11:00:00 PM -0.05 31.91 0.116 7.5 18.62 15.05
12/24/2022 11:15:00 PM -0.05 31.91 0.117 7.49 19.15 15.05
12/24/2022 11:30:00 PM -0.05 31.91 0.116 7.49 18.84 15.06
12/24/2022 11:45:00 PM -0.05 31.91 0.116 7.49 19.1 15.05
12/25/2022 12:00:00 AM -0.04 31.928 0.117 7.49 19.74 15.06
12/25/2022 12:15:00 AM -0.05 31.91 0.116 7.49 18.64 15.06
12/25/2022 12:30:00 AM -0.05 31.91 0.116 7.49 20.86 15.08
12/25/2022 12:45:00 AM -0.04 31.928 0.117 7.49 19.09 15.06
12/25/2022 1:00:00 AM -0.05 31.91 0.116 7.49 19.04 15.07
12/25/2022 1:15:00 AM -0.04 31.928 0.117 7.49 18.39 15.08
12/25/2022 1:30:00 AM -0.04 31.928 0.118 7.49 17.69 15.08
12/25/2022 1:45:00 AM -0.04 31.928 0.117 7.49 19.62 15.09
12/25/2022 2:00:00 AM -0.03 31.946 0.118 7.49 19.8 15.09
12/25/2022 2:15:00 AM -0.03 31.946 0.117 7.49 17.51 15.1
12/25/2022 2:30:00 AM -0.03 31.946 0.117 7.49 17.91 15.1
12/25/2022 2:45:00 AM -0.03 31.946 0.117 7.49 19.07 15.1
12/25/2022 3:00:00 AM -0.03 31.946 0.118 7.49 19.45 15.1
12/25/2022 3:15:00 AM -0.03 31.946 0.118 7.49 17.74 15.1
12/25/2022 3:30:00 AM -0.03 31.946 0.118 7.49 17.45 15.12
12/25/2022 3:45:00 AM -0.03 31.946 0.117 7.49 18.63 15.12
12/25/2022 4:00:00 AM -0.03 31.946 0.118 7.49 19.13 15.12
12/25/2022 4:15:00 AM -0.03 31.946 0.118 7.49 17.93 15.12
12/25/2022 4:30:00 AM -0.03 31.946 0.118 7.49 18.54 15.13
12/25/2022 4:45:00 AM -0.03 31.946 0.118 7.49 18.65 15.13
12/25/2022 5:00:00 AM -0.03 31.946 0.118 7.49 18.57 15.14
12/25/2022 5:15:00 AM -0.03 31.946 0.117 7.49 19.6 15.13
12/25/2022 5:30:00 AM -0.03 31.946 0.117 7.49 21.04 15.15
12/25/2022 5:45:00 AM -0.03 31.946 0.117 7.49 17.99 15.14
12/25/2022 6:00:00 AM -0.03 31.946 0.117 7.48 17.94 15.13
12/25/2022 6:15:00 AM -0.03 31.946 0.117 7.48 18.59 15.16
12/25/2022 6:30:00 AM -0.03 31.946 0.117 7.48 16.75 15.17
12/25/2022 6:45:00 AM -0.03 31.946 0.118 7.48 17.97 15.16
12/25/2022 7:00:00 AM -0.03 31.946 0.117 7.48 17.34 15.15
12/25/2022 7:15:00 AM -0.03 31.946 0.116 7.47 18.53 15.16
12/25/2022 7:30:00 AM -0.03 31.946 0.117 7.47 17.81 15.17
12/25/2022 7:45:00 AM -0.03 31.946 0.116 7.47 16.87 15.18
12/25/2022 8:00:00 AM -0.04 31.928 0.117 7.47 17.01 15.17
12/25/2022 8:15:00 AM -0.04 31.928 0.116 7.47 16.58 15.17
12/25/2022 8:30:00 AM -0.04 31.928 0.117 7.47 16.07 15.17
12/25/2022 8:45:00 AM -0.04 31.928 0.116 7.47 17.53 15.2
12/25/2022 9:00:00 AM -0.04 31.928 0.117 7.47 15.7 15.18
12/25/2022 9:15:00 AM -0.03 31.946 0.116 7.47 16.6 15.19
12/25/2022 9:30:00 AM -0.03 31.946 0.117 7.47 16.71 15.21
12/25/2022 9:45:00 AM -0.03 31.946 0.116 7.47 17.08 15.21
12/25/2022 10:00:00 AM -0.03 31.946 0.117 7.47 16.5 15.2
12/25/2022 10:15:00 AM -0.03 31.946 0.117 7.46 15.65 15.21
12/25/2022 10:30:00 AM -0.03 31.946 0.117 7.46 15.95 15.21
12/25/2022 10:45:00 AM -0.02 31.964 0.117 7.46 16.37 15.21
12/25/2022 11:00:00 AM -0.02 31.964 0.117 7.46 15.6 15.21
12/25/2022 11:15:00 AM -0.02 31.964 0.117 7.46 16.1 15.21
12/25/2022 11:30:00 AM -0.02 31.964 0.117 7.46 16.93 15.21
12/25/2022 11:45:00 AM -0.02 31.964 0.118 7.46 15.79 15.21
12/25/2022 12:00:00 PM -0.02 31.964 0.118 7.46 15.74 15.2
12/25/2022 12:15:00 PM -0.01 31.982 0.118 7.46 15.08 15.18
12/25/2022 12:30:00 PM -0.01 31.982 0.118 7.46 16.55 15.2
12/25/2022 12:45:00 PM -0.01 31.982 0.118 7.46 15.45 15.19
12/25/2022 1:00:00 PM -0.02 31.964 0.118 7.46 15.98 15.21
12/25/2022 1:15:00 PM -0.02 31.964 0.117 7.46 16.8 15.21
12/25/2022 1:30:00 PM -0.01 31.982 0.118 7.46 16.28 15.17
12/25/2022 1:45:00 PM -0.01 31.982 0.118 7.46 16.31 15.19
12/25/2022 2:00:00 PM -0.02 31.964 0.117 7.46 16.09 15.18
12/25/2022 2:15:00 PM -0.02 31.964 0.118 7.46 15.37 15.19
12/25/2022 2:30:00 PM -0.02 31.964 0.118 7.46 14.94 15.15
12/25/2022 2:45:00 PM -0.02 31.964 0.117 7.46 15.37 15.17
12/25/2022 3:00:00 PM -0.02 31.964 0.117 7.46 15.33 15.17
12/25/2022 3:15:00 PM -0.02 31.964 0.118 7.46 15.83 15.17
12/25/2022 3:30:00 PM -0.02 31.964 0.117 7.47 15.73 15.17
12/25/2022 3:45:00 PM -0.02 31.964 0.118 7.47 14.65 15.16
12/25/2022 4:00:00 PM -0.02 31.964 0.118 7.47 16.18 15.17
12/25/2022 4:15:00 PM -0.02 31.964 0.118 7.47 14.68 15.17
12/25/2022 4:30:00 PM -0.03 31.946 0.117 7.47 14.88 15.19
12/25/2022 4:45:00 PM -0.03 31.946 0.117 7.47 16.48 15.17
12/25/2022 5:00:00 PM -0.03 31.946 0.118 7.47 15.32 15.21
12/25/2022 5:15:00 PM -0.03 31.946 0.117 7.47 15.09 15.23
12/25/2022 5:30:00 PM -0.03 31.946 0.117 7.47 15.81 15.23
12/25/2022 5:45:00 PM -0.03 31.946 0.117 7.47 15.96 15.23
12/25/2022 6:00:00 PM -0.03 31.946 0.118 7.47 14.94 15.22
12/25/2022 6:15:00 PM -0.03 31.946 0.118 7.47 14.77 15.24
12/25/2022 6:30:00 PM -0.03 31.946 0.118 7.47 15.72 15.22
12/25/2022 6:45:00 PM 0.24 32.432 0.139 7.44 12.87 15.56
12/25/2022 7:00:00 PM 0.24 32.432 0.136 7.35 10.5 15.49
12/25/2022 7:15:00 PM 0.11 32.198 0.124 7.41 13.15 15.32
12/25/2022 7:30:00 PM 0.01 32.018 0.119 7.45 14.46 15.25
12/25/2022 7:45:00 PM -0.01 31.982 0.118 7.46 14.03 15.25
12/25/2022 8:00:00 PM -0.02 31.964 0.118 7.47 15.32 15.25
12/25/2022 8:15:00 PM -0.03 31.946 0.118 7.48 14.2 15.2
12/25/2022 8:30:00 PM -0.03 31.946 0.118 7.48 14.27 15.19
12/25/2022 8:45:00 PM -0.03 31.946 0.118 7.48 15.34 15.21
12/25/2022 9:00:00 PM -0.03 31.946 0.118 7.48 14.1 15.2
12/25/2022 9:15:00 PM -0.04 31.928 0.118 7.48 14.58 15.17
12/25/2022 9:30:00 PM -0.04 31.928 0.118 7.49 14.85 15.25
12/25/2022 9:45:00 PM -0.04 31.928 0.118 7.49 14.71 15.27
12/25/2022 10:00:00 PM -0.04 31.928 0.118 7.49 14.88 15.29
12/25/2022 10:15:00 PM -0.04 31.928 0.118 7.49 14.67 15.29
12/25/2022 10:30:00 PM -0.04 31.928 0.118 7.49 14.3 15.28
12/25/2022 10:45:00 PM -0.04 31.928 0.118 7.49 14.91 15.29
12/25/2022 11:00:00 PM -0.04 31.928 0.118 7.49 14.11 15.28
12/25/2022 11:15:00 PM -0.04 31.928 0.118 7.49 14.87 15.28
12/25/2022 11:30:00 PM -0.04 31.928 0.118 7.49 14.88 15.3
12/25/2022 11:45:00 PM -0.04 31.928 0.119 7.5 14.84 15.3
12/26/2022 12:00:00 AM -0.04 31.928 0.119 7.5 14.23 15.29
12/26/2022 12:15:00 AM -0.04 31.928 0.119 7.5 14.31 15.3
12/26/2022 12:30:00 AM -0.04 31.928 0.119 7.5 14.14 15.29
12/26/2022 12:45:00 AM -0.04 31.928 0.119 7.5 14.44 15.3
12/26/2022 1:00:00 AM -0.04 31.928 0.119 7.5 14.09 15.28
12/26/2022 1:15:00 AM -0.04 31.928 0.119 7.5 14.35 15.29
12/26/2022 1:30:00 AM -0.04 31.928 0.119 7.5 14.89 15.3
12/26/2022 1:45:00 AM -0.04 31.928 0.119 7.5 14.94 15.29
12/26/2022 2:00:00 AM -0.04 31.928 0.119 7.5 14.33 15.29
12/26/2022 2:15:00 AM -0.04 31.928 0.119 7.5 14.78 15.31
12/26/2022 2:30:00 AM -0.04 31.928 0.12 7.5 14.84 15.31
12/26/2022 2:45:00 AM -0.04 31.928 0.12 7.5 14.54 15.3
12/26/2022 3:00:00 AM -0.04 31.928 0.12 7.5 13.86 15.31
12/26/2022 3:15:00 AM -0.04 31.928 0.12 7.5 14.12 15.28
12/26/2022 3:30:00 AM -0.04 31.928 0.12 7.5 13.66 15.3
12/26/2022 3:45:00 AM -0.03 31.946 0.12 7.5 13.55 15.29
12/26/2022 4:00:00 AM -0.03 31.946 0.12 7.5 13.73 15.29
12/26/2022 4:15:00 AM -0.03 31.946 0.12 7.5 14.56 15.3
12/26/2022 4:30:00 AM -0.03 31.946 0.12 7.5 13.89 15.3
12/26/2022 4:45:00 AM -0.03 31.946 0.12 7.5 14.58 15.29
12/26/2022 5:00:00 AM -0.03 31.946 0.12 7.5 13.78 15.31
12/26/2022 5:15:00 AM -0.03 31.946 0.12 7.5 14.1 15.3
12/26/2022 5:30:00 AM -0.03 31.946 0.12 7.5 13.61 15.3
12/26/2022 5:45:00 AM -0.03 31.946 0.12 7.5 13.58 15.3
12/26/2022 6:00:00 AM -0.03 31.946 0.12 7.5 13.88 15.29
12/26/2022 6:15:00 AM -0.03 31.946 0.12 7.5 14.11 15.3
12/26/2022 6:30:00 AM -0.03 31.946 0.12 7.5 13.38 15.3
12/26/2022 6:45:00 AM -0.03 31.946 0.12 7.5 13.54 15.3
12/26/2022 7:00:00 AM -0.03 31.946 0.12 7.5 14.18 15.29
12/26/2022 7:15:00 AM -0.03 31.946 0.12 7.5 14.49 15.3
12/26/2022 7:30:00 AM -0.03 31.946 0.12 7.5 13.34 15.29
12/26/2022 7:45:00 AM -0.03 31.946 0.12 7.5 13.33 15.31
12/26/2022 8:00:00 AM -0.03 31.946 0.12 7.5 13.36 15.31
12/26/2022 8:15:00 AM -0.03 31.946 0.12 7.5 13.57 15.3
12/26/2022 8:30:00 AM -0.03 31.946 0.12 7.5 13.88 15.32
12/26/2022 8:45:00 AM -0.03 31.946 0.12 7.5 13.18 15.31
12/26/2022 9:00:00 AM -0.03 31.946 0.12 7.5 13.32 15.29
12/26/2022 9:15:00 AM -0.03 31.946 0.12 7.5 13.73 15.3
12/26/2022 9:30:00 AM -0.02 31.964 0.12 7.5 13.38 15.3
12/26/2022 9:45:00 AM -0.02 31.964 0.121 7.5 13.27 15.3
12/26/2022 10:00:00 AM -0.02 31.964 0.121 7.5 13.1 15.32
12/26/2022 10:15:00 AM -0.02 31.964 0.121 7.5 14.15 15.32
12/26/2022 10:30:00 AM -0.01 31.982 0.121 7.5 13.28 15.31
12/26/2022 10:45:00 AM -0.01 31.982 0.121 7.5 13.44 15.3
12/26/2022 11:00:00 AM -0.01 31.982 0.121 7.5 13.65 15.3
12/26/2022 11:15:00 AM 0 32 0.121 7.5 13.18 15.32
12/26/2022 11:30:00 AM 0 32 0.121 7.5 14.17 15.32
12/26/2022 11:45:00 AM 0 32 0.121 7.5 13.08 15.33
12/26/2022 12:00:00 PM 0 32 0.121 7.5 14.11 15.34
12/26/2022 12:15:00 PM 0 32 0.121 7.5 14.28 15.33
12/26/2022 12:30:00 PM 0 32 0.121 7.5 13.87 15.31
12/26/2022 12:45:00 PM -0.01 31.982 0.121 7.5 13.75 15.31
12/26/2022 1:00:00 PM -0.01 31.982 0.121 7.51 14.18 15.34
12/26/2022 1:15:00 PM -0.01 31.982 0.122 7.51 15.29 15.33
12/26/2022 1:30:00 PM 0.05 32.09 0.123 7.51 14.24 15.3
12/26/2022 1:45:00 PM 0.18 32.324 0.135 7.45 11.28 15.59
12/26/2022 2:00:00 PM 0.15 32.27 0.128 7.42 11.98 15.39
12/26/2022 2:15:00 PM 0.03 32.054 0.123 7.47 13.42 15.34
12/26/2022 2:30:00 PM 0 32 0.123 7.5 13.89 15.3
12/26/2022 2:45:00 PM -0.01 31.982 0.123 7.5 13.82 15.31
12/26/2022 3:00:00 PM -0.01 31.982 0.123 7.51 14.49 15.32
12/26/2022 3:15:00 PM -0.02 31.964 0.123 7.51 14.76 15.31
12/26/2022 3:30:00 PM -0.02 31.964 0.123 7.51 14.07 15.3
12/26/2022 3:45:00 PM -0.03 31.946 0.123 7.51 13.71 15.31
12/26/2022 4:00:00 PM -0.03 31.946 0.124 7.51 15.61 15.31
12/26/2022 4:15:00 PM -0.04 31.928 0.124 7.51 13.9 15.31
12/26/2022 4:30:00 PM -0.04 31.928 0.124 7.51 14.66 15.29
12/26/2022 4:45:00 PM -0.04 31.928 0.125 7.5 14.66 15.28
12/26/2022 5:00:00 PM -0.04 31.928 0.125 7.51 14.81 15.31
12/26/2022 5:15:00 PM -0.04 31.928 0.125 7.51 14.79 15.3
12/26/2022 5:30:00 PM -0.04 31.928 0.125 7.51 13.54 15.29
12/26/2022 5:45:00 PM -0.04 31.928 0.126 7.51 15.11 15.32
12/26/2022 6:00:00 PM -0.04 31.928 0.126 7.51 13.31 15.31
12/26/2022 6:15:00 PM -0.04 31.928 0.126 7.52 15.17 15.32
12/26/2022 6:30:00 PM -0.04 31.928 0.126 7.52 15.79 15.33
12/26/2022 6:45:00 PM -0.05 31.91 0.127 7.52 16.1 15.33
12/26/2022 7:00:00 PM -0.05 31.91 0.127 7.52 14.48 15.34
12/26/2022 7:15:00 PM -0.05 31.91 0.127 7.52 14.98 15.32
12/26/2022 7:30:00 PM -0.05 31.91 0.128 7.52 15.01 15.33
12/26/2022 7:45:00 PM -0.05 31.91 0.128 7.52 13.64 15.34
12/26/2022 8:00:00 PM -0.05 31.91 0.128 7.52 13.59 15.29
12/26/2022 8:15:00 PM -0.04 31.928 0.128 7.52 13.86 15.35
12/26/2022 8:30:00 PM 0.12 32.216 0.135 7.48 13.02 15.58
12/26/2022 8:45:00 PM 0.1 32.18 0.133 7.44 12.04 15.51
12/26/2022 9:00:00 PM 0.01 32.018 0.13 7.48 13.08 15.38
12/26/2022 9:15:00 PM -0.05 31.91 0.13 7.51 13.9 15.35
12/26/2022 9:30:00 PM -0.04 31.928 0.13 7.52 14.38 15.33
12/26/2022 9:45:00 PM -0.05 31.91 0.13 7.52 15.32 15.37
12/26/2022 10:00:00 PM -0.05 31.91 0.13 7.52 14.73 15.37
12/26/2022 10:15:00 PM -0.05 31.91 0.13 7.53 14.7 15.36
12/26/2022 10:30:00 PM -0.05 31.91 0.131 7.53 15.13 15.37
12/26/2022 10:45:00 PM -0.05 31.91 0.131 7.53 14.23 15.37
12/26/2022 11:00:00 PM -0.05 31.91 0.131 7.53 14.65 15.36
12/26/2022 11:15:00 PM -0.05 31.91 0.131 7.53 14.9 15.36
12/26/2022 11:30:00 PM -0.05 31.91 0.131 7.53 17.8 15.36
12/26/2022 11:45:00 PM -0.05 31.91 0.131 7.53 14.07 15.35
12/27/2022 12:00:00 AM -0.05 31.91 0.131 7.54 14.04 15.35
12/27/2022 12:15:00 AM -0.05 31.91 0.131 7.54 13.35 15.36
12/27/2022 12:30:00 AM -0.05 31.91 0.131 7.54 13.69 15.35
12/27/2022 12:45:00 AM -0.05 31.91 0.131 7.54 13.71 15.36
12/27/2022 1:00:00 AM -0.04 31.928 0.131 7.54 13.26 15.36
12/27/2022 1:15:00 AM -0.04 31.928 0.132 7.54 13.32 15.35
12/27/2022 1:30:00 AM -0.04 31.928 0.132 7.54 13.34 15.37
12/27/2022 1:45:00 AM -0.04 31.928 0.132 7.54 14.99 15.35
12/27/2022 2:00:00 AM -0.04 31.928 0.132 7.54 14.17 15.35
12/27/2022 2:15:00 AM -0.04 31.928 0.132 7.54 13.45 15.33
12/27/2022 2:30:00 AM -0.05 31.91 0.132 7.54 13.77 15.35
12/27/2022 2:45:00 AM -0.04 31.928 0.132 7.54 13.01 15.34
12/27/2022 3:00:00 AM -0.04 31.928 0.132 7.54 13.14 15.34
12/27/2022 3:15:00 AM -0.04 31.928 0.132 7.54 13.54 15.33
12/27/2022 3:30:00 AM -0.04 31.928 0.133 7.54 13.06 15.32
12/27/2022 3:45:00 AM -0.04 31.928 0.133 7.54 13.2 15.32
12/27/2022 4:00:00 AM -0.04 31.928 0.133 7.54 13.38 15.33
12/27/2022 4:15:00 AM -0.04 31.928 0.133 7.54 13.65 15.32
12/27/2022 4:30:00 AM -0.04 31.928 0.133 7.54 13.58 15.34
12/27/2022 4:45:00 AM -0.04 31.928 0.133 7.54 13.31 15.34
12/27/2022 5:00:00 AM -0.04 31.928 0.133 7.54 13.41 15.32
12/27/2022 5:15:00 AM -0.04 31.928 0.133 7.53 12.96 15.32
12/27/2022 5:30:00 AM -0.04 31.928 0.133 7.54 14.88 15.31
12/27/2022 5:45:00 AM -0.04 31.928 0.133 7.54 13 15.31
12/27/2022 6:00:00 AM -0.04 31.928 0.133 7.54 13.25 15.32
12/27/2022 6:15:00 AM -0.04 31.928 0.133 7.54 13.11 15.32
12/27/2022 6:30:00 AM -0.04 31.928 0.133 7.54 13 15.31
12/27/2022 6:45:00 AM -0.04 31.928 0.133 7.54 13.07 15.31
12/27/2022 7:00:00 AM -0.04 31.928 0.133 7.54 13.16 15.32
12/27/2022 7:15:00 AM -0.04 31.928 0.134 7.53 12.77 15.31
12/27/2022 7:30:00 AM -0.04 31.928 0.134 7.53 13.04 15.32
12/27/2022 7:45:00 AM -0.04 31.928 0.134 7.53 12.84 15.31
12/27/2022 8:00:00 AM -0.04 31.928 0.134 7.53 12.93 15.31
12/27/2022 8:15:00 AM -0.03 31.946 0.134 7.53 13.13 15.3
12/27/2022 8:30:00 AM -0.03 31.946 0.134 7.53 12.97 15.31
12/27/2022 8:45:00 AM -0.03 31.946 0.133 7.53 12.73 15.32
12/27/2022 9:00:00 AM -0.03 31.946 0.133 7.53 13.03 15.31
12/27/2022 9:15:00 AM -0.03 31.946 0.133 7.53 12.81 15.31
12/27/2022 9:30:00 AM -0.03 31.946 0.133 7.53 12.8 15.32
12/27/2022 9:45:00 AM -0.03 31.946 0.133 7.53 13.5 15.31
12/27/2022 10:00:00 AM -0.03 31.946 0.133 7.53 13.22 15.32
12/27/2022 10:15:00 AM -0.03 31.946 0.133 7.53 13.74 15.31
12/27/2022 10:30:00 AM -0.03 31.946 0.133 7.53 13.32 15.32
12/27/2022 10:45:00 AM -0.02 31.964 0.133 7.54 13.12 15.32
12/27/2022 11:00:00 AM -0.02 31.964 0.132 7.53 13.19 15.33
12/27/2022 11:15:00 AM -0.02 31.964 0.132 7.54 13.25 15.3
12/27/2022 11:30:00 AM -0.02 31.964 0.132 7.54 13.18 15.31
12/27/2022 11:45:00 AM -0.02 31.964 0.132 7.54 12.78 15.32
12/27/2022 12:00:00 PM -0.01 31.982 0.132 7.54 12.77 15.3
12/27/2022 12:15:00 PM 0.14 32.252 0.139 7.44 11.7 15.58
12/27/2022 12:30:00 PM 0.13 32.234 0.138 7.42 11.58 15.51
12/27/2022 12:45:00 PM 0.02 32.036 0.132 7.49 12.85 15.4
12/27/2022 1:00:00 PM 0 32 0.132 7.53 13.62 15.34
12/27/2022 1:15:00 PM -0.01 31.982 0.132 7.54 13.04 15.33
12/27/2022 1:30:00 PM -0.01 31.982 0.132 7.54 13.42 15.33
12/27/2022 1:45:00 PM -0.01 31.982 0.132 7.55 14.83 15.33
12/27/2022 2:00:00 PM -0.01 31.982 0.132 7.55 13.91 15.33
12/27/2022 2:15:00 PM -0.01 31.982 0.132 7.55 13.1 15.31
12/27/2022 2:30:00 PM -0.01 31.982 0.132 7.55 13.44 15.34
12/27/2022 2:45:00 PM -0.01 31.982 0.131 7.55 12.64 15.33
12/27/2022 3:00:00 PM -0.01 31.982 0.132 7.55 13.06 15.34
12/27/2022 3:15:00 PM -0.01 31.982 0.131 7.56 12.76 15.33
12/27/2022 3:30:00 PM -0.01 31.982 0.131 7.56 13.13 15.33
12/27/2022 3:45:00 PM -0.01 31.982 0.131 7.56 13.68 15.32
12/27/2022 4:00:00 PM -0.01 31.982 0.131 7.56 13.86 15.33
12/27/2022 4:15:00 PM -0.02 31.964 0.132 7.56 13.33 15.32
12/27/2022 4:30:00 PM -0.02 31.964 0.132 7.56 13.55 15.33
12/27/2022 4:45:00 PM -0.02 31.964 0.132 7.56 13.6 15.33
12/27/2022 5:00:00 PM -0.03 31.946 0.132 7.56 14.93 15.33
12/27/2022 5:15:00 PM -0.03 31.946 0.133 7.56 14.22 15.31
12/27/2022 5:30:00 PM -0.03 31.946 0.132 7.56 14.41 15.32
12/27/2022 5:45:00 PM -0.03 31.946 0.132 7.56 14.45 15.32
12/27/2022 6:00:00 PM -0.03 31.946 0.131 7.56 15.89 15.32
12/27/2022 6:15:00 PM -0.03 31.946 0.134 7.56 16.25 15.33
12/27/2022 6:30:00 PM -0.03 31.946 0.134 7.56 13.21 15.32
12/27/2022 6:45:00 PM -0.03 31.946 0.134 7.57 13.98 15.33
12/27/2022 7:00:00 PM -0.03 31.946 0.134 7.57 13.41 15.32
12/27/2022 7:15:00 PM -0.03 31.946 0.134 7.57 14.78 15.34
12/27/2022 7:30:00 PM -0.03 31.946 0.134 7.57 13.4 15.33
12/27/2022 7:45:00 PM -0.03 31.946 0.134 7.57 14.18 15.35
12/27/2022 8:00:00 PM -0.03 31.946 0.134 7.57 13.89 15.33
12/27/2022 8:15:00 PM -0.03 31.946 0.134 7.57 13.97 15.34
12/27/2022 8:30:00 PM -0.03 31.946 0.134 7.58 14.56 15.35
12/27/2022 8:45:00 PM -0.03 31.946 0.134 7.58 13.51 15.34
12/27/2022 9:00:00 PM -0.03 31.946 0.135 7.58 13.8 15.35
12/27/2022 9:15:00 PM -0.03 31.946 0.135 7.58 14.02 15.36
12/27/2022 9:30:00 PM -0.02 31.964 0.135 7.58 13.78 15.34
12/27/2022 9:45:00 PM -0.02 31.964 0.135 7.58 13.97 15.36
12/27/2022 10:00:00 PM -0.02 31.964 0.135 7.58 14.14 15.34
12/27/2022 10:15:00 PM -0.02 31.964 0.135 7.58 16.6 15.35
12/27/2022 10:30:00 PM -0.02 31.964 0.133 7.58 12.97 15.36
12/27/2022 10:45:00 PM -0.02 31.964 0.132 7.58 13.02 15.36
12/27/2022 11:00:00 PM -0.02 31.964 0.132 7.58 13.22 15.36
12/27/2022 11:15:00 PM -0.01 31.982 0.132 7.58 13.63 15.35
12/27/2022 11:30:00 PM -0.01 31.982 0.132 7.58 13.1 15.35
12/27/2022 11:45:00 PM -0.01 31.982 0.132 7.58 13.14 15.35
12/28/2022 12:00:00 AM -0.02 31.964 0.132 7.57 14.16 15.34
12/28/2022 12:15:00 AM -0.02 31.964 0.132 7.57 13.43 15.36
12/28/2022 12:30:00 AM -0.02 31.964 0.132 7.57 13.46 15.34
12/28/2022 12:45:00 AM -0.02 31.964 0.132 7.57 13.24 15.34
12/28/2022 1:00:00 AM -0.02 31.964 0.132 7.57 13.73 15.34
12/28/2022 1:15:00 AM -0.02 31.964 0.132 7.57 12.8 15.33
12/28/2022 1:30:00 AM -0.01 31.982 0.132 7.57 13.67 15.29
12/28/2022 1:45:00 AM -0.02 31.964 0.132 7.57 13.28 15.32
12/28/2022 2:00:00 AM -0.02 31.964 0.132 7.57 12.72 15.31
12/28/2022 2:15:00 AM -0.02 31.964 0.133 7.57 12.55 15.28
12/28/2022 2:30:00 AM -0.02 31.964 0.133 7.57 12.49 15.29
12/28/2022 2:45:00 AM -0.01 31.982 0.132 7.57 12.43 15.3
12/28/2022 3:00:00 AM -0.01 31.982 0.132 7.57 12.52 15.29
12/28/2022 3:15:00 AM -0.01 31.982 0.132 7.57 12.18 15.29
12/28/2022 3:30:00 AM -0.01 31.982 0.132 7.57 12.64 15.27
12/28/2022 3:45:00 AM -0.01 31.982 0.132 7.57 12.24 15.26
12/28/2022 4:00:00 AM -0.01 31.982 0.132 7.57 12.62 15.28
12/28/2022 4:15:00 AM -0.01 31.982 0.132 7.57 12.79 15.26
12/28/2022 4:30:00 AM -0.01 31.982 0.132 7.57 12.54 15.26
12/28/2022 4:45:00 AM -0.01 31.982 0.132 7.57 12.6 15.26
12/28/2022 5:00:00 AM -0.01 31.982 0.132 7.57 12.65 15.25
12/28/2022 5:15:00 AM -0.02 31.964 0.132 7.57 12.66 15.25
12/28/2022 5:30:00 AM -0.02 31.964 0.133 7.56 12.46 15.25
12/28/2022 5:45:00 AM -0.02 31.964 0.133 7.57 12.79 15.23
12/28/2022 6:00:00 AM -0.02 31.964 0.133 7.57 12.23 15.23
12/28/2022 6:15:00 AM -0.02 31.964 0.132 7.56 12.48 15.24
12/28/2022 6:30:00 AM -0.02 31.964 0.132 7.57 12.18 15.25
12/28/2022 6:45:00 AM -0.02 31.964 0.132 7.56 12.74 15.23
12/28/2022 7:00:00 AM -0.02 31.964 0.132 7.56 12.14 15.22
12/28/2022 7:15:00 AM -0.02 31.964 0.133 7.56 12.18 15.23
12/28/2022 7:30:00 AM -0.03 31.946 0.134 7.56 12.19 15.23
12/28/2022 7:45:00 AM -0.03 31.946 0.134 7.56 12.54 15.23
12/28/2022 8:00:00 AM -0.03 31.946 0.134 7.57 12.75 15.23
12/28/2022 8:15:00 AM -0.03 31.946 0.134 7.56 13.97 15.23
12/28/2022 8:30:00 AM -0.04 31.928 0.134 7.57 13.11 15.22
12/28/2022 8:45:00 AM -0.04 31.928 0.133 7.56 13.51 15.22
12/28/2022 9:00:00 AM -0.04 31.928 0.133 7.57 13.92 15.23
12/28/2022 9:15:00 AM -0.03 31.946 0.133 7.56 13.21 15.24
12/28/2022 9:30:00 AM -0.03 31.946 0.132 7.56 13.69 15.25
12/28/2022 9:45:00 AM -0.03 31.946 0.134 7.56 13.1 15.24
12/28/2022 10:00:00 AM -0.01 31.982 0.134 7.56 13.32 15.24
12/28/2022 10:15:00 AM -0.01 31.982 0.134 7.57 14.17 15.25
12/28/2022 10:30:00 AM 0 32 0.134 7.57 13.56 15.23
12/28/2022 10:45:00 AM 0.01 32.018 0.133 7.57 13.97 15.24
12/28/2022 11:00:00 AM 0.18 32.324 0.135 7.56 16.33 15.29
12/28/2022 11:15:00 AM 0.15 32.27 0.139 7.45 16.79 15.56
12/28/2022 11:30:00 AM 0.11 32.198 0.133 7.47 14.4 15.46
12/28/2022 11:45:00 AM 0.09 32.162 0.132 7.54 14.19 15.27
12/28/2022 12:00:00 PM 0.11 32.198 0.132 7.56 13.23 15.25
12/28/2022 12:15:00 PM 0.14 32.252 0.132 7.56 12.94 15.25
12/28/2022 12:30:00 PM 0.17 32.306 0.132 7.57 13.4 15.25
12/28/2022 12:45:00 PM 0.19 32.342 0.132 7.57 14.27 15.26
12/28/2022 1:00:00 PM 0.22 32.396 0.132 7.57 13.49 15.25
12/28/2022 1:15:00 PM 0.26 32.468 0.132 7.57 14.04 15.25
12/28/2022 1:30:00 PM 0.28 32.504 0.132 7.58 13.22 15.25
12/28/2022 1:45:00 PM 0.3 32.54 0.132 7.58 12.84 15.25
12/28/2022 2:00:00 PM 0.32 32.576 0.132 7.58 12.81 15.25
12/28/2022 2:15:00 PM 0.32 32.576 0.132 7.58 12.94 15.24
12/28/2022 2:30:00 PM 0.31 32.558 0.132 7.58 13.17 15.25
12/28/2022 2:45:00 PM 0.31 32.558 0.132 7.58 13.7 15.25
12/28/2022 3:00:00 PM 0.32 32.576 0.131 7.59 13.22 15.24
12/28/2022 3:15:00 PM 0.32 32.576 0.132 7.59 13.17 15.23
12/28/2022 3:30:00 PM 0.33 32.594 0.132 7.59 12.95 15.22
12/28/2022 3:45:00 PM 0.33 32.594 0.133 7.57 13.92 15.21
12/28/2022 4:00:00 PM 0.35 32.63 0.133 7.59 14.05 15.22
12/28/2022 4:15:00 PM 0.34 32.612 0.134 7.59 13.91 15.23
12/28/2022 4:30:00 PM 0.34 32.612 0.134 7.59 13.65 15.22
12/28/2022 4:45:00 PM 0.35 32.63 0.134 7.6 16.18 15.22
12/28/2022 5:00:00 PM 0.35 32.63 0.134 7.6 13.92 15.2
12/28/2022 5:15:00 PM 0.35 32.63 0.134 7.6 14.04 15.22
12/28/2022 5:30:00 PM 0.35 32.63 0.134 7.6 13.75 15.23
12/28/2022 5:45:00 PM 0.4 32.72 0.141 7.57 16.88 15.39
12/28/2022 6:00:00 PM 0.37 32.666 0.14 7.48 16.22 15.4
12/28/2022 6:15:00 PM 0.35 32.63 0.137 7.52 15.26 15.3
12/28/2022 6:30:00 PM 0.32 32.576 0.133 7.58 15.13 15.22
12/28/2022 6:45:00 PM 0.3 32.54 0.133 7.59 14.52 15.24
12/28/2022 7:00:00 PM 0.29 32.522 0.134 7.59 13.95 15.23
12/28/2022 7:15:00 PM 0.28 32.504 0.134 7.6 13.39 15.22
12/28/2022 7:30:00 PM 0.28 32.504 0.133 7.6 13.34 15.24
12/28/2022 7:45:00 PM 0.26 32.468 0.132 7.6 13.42 15.24
12/28/2022 8:00:00 PM 0.25 32.45 0.132 7.6 13.85 15.24
12/28/2022 8:15:00 PM 0.24 32.432 0.132 7.6 13.79 15.25
12/28/2022 8:30:00 PM 0.23 32.414 0.132 7.6 13.71 15.24
12/28/2022 8:45:00 PM 0.23 32.414 0.133 7.6 13.73 15.25
12/28/2022 9:00:00 PM 0.22 32.396 0.132 7.6 13.75 15.26
12/28/2022 9:15:00 PM 0.22 32.396 0.132 7.6 13.78 15.24
12/28/2022 9:30:00 PM 0.22 32.396 0.132 7.6 13.05 15.25
12/28/2022 9:45:00 PM 0.23 32.414 0.133 7.6 13.46 15.26
12/28/2022 10:00:00 PM 0.23 32.414 0.133 7.6 13.55 15.24
12/28/2022 10:15:00 PM 0.24 32.432 0.133 7.6 13.25 15.25
12/28/2022 10:30:00 PM 0.25 32.45 0.133 7.6 13.83 15.25
12/28/2022 10:45:00 PM 0.26 32.468 0.133 7.61 12.94 15.25
12/28/2022 11:00:00 PM 0.27 32.486 0.133 7.61 12.96 15.25
12/28/2022 11:15:00 PM 0.28 32.504 0.133 7.61 12.93 15.26
12/28/2022 11:30:00 PM 0.29 32.522 0.133 7.61 13.39 15.23
12/28/2022 11:45:00 PM 0.29 32.522 0.133 7.61 13.32 15.23
12/29/2022 12:00:00 AM 0.3 32.54 0.133 7.61 13.41 15.23
12/29/2022 12:15:00 AM 0.3 32.54 0.133 7.61 13.62 15.22
12/29/2022 12:30:00 AM 0.3 32.54 0.133 7.61 14 15.23
12/29/2022 12:45:00 AM 0.29 32.522 0.134 7.61 13.31 15.23
12/29/2022 1:00:00 AM 0.29 32.522 0.133 7.61 13.84 15.22
12/29/2022 1:15:00 AM 0.29 32.522 0.134 7.61 14.51 15.22
12/29/2022 1:30:00 AM 0.29 32.522 0.135 7.61 13.87 15.22
12/29/2022 1:45:00 AM 0.35 32.63 0.142 7.52 13.91 15.48
12/29/2022 2:00:00 AM 0.36 32.648 0.14 7.48 12.65 15.36
12/29/2022 2:15:00 AM 0.31 32.558 0.136 7.56 14.32 15.23
12/29/2022 2:30:00 AM 0.29 32.522 0.136 7.59 13.69 15.2
12/29/2022 2:45:00 AM 0.29 32.522 0.135 7.6 14.11 15.2
12/29/2022 3:00:00 AM 0.29 32.522 0.135 7.6 13.65 15.19
12/29/2022 3:15:00 AM 0.29 32.522 0.135 7.6 14.48 15.18
12/29/2022 3:30:00 AM 0.29 32.522 0.135 7.6 14.7 15.17
12/29/2022 3:45:00 AM 0.29 32.522 0.136 7.61 13.72 15.16
12/29/2022 4:00:00 AM 0.29 32.522 0.136 7.61 13.8 15.15
12/29/2022 4:15:00 AM 0.29 32.522 0.136 7.6 14.23 15.17
12/29/2022 4:30:00 AM 0.28 32.504 0.136 7.6 14.62 15.15
12/29/2022 4:45:00 AM 0.28 32.504 0.138 7.61 14.55 15.14
12/29/2022 5:00:00 AM 0.27 32.486 0.137 7.61 14.45 15.14
12/29/2022 5:15:00 AM 0.26 32.468 0.137 7.61 14.88 15.13
12/29/2022 5:30:00 AM 0.26 32.468 0.137 7.61 13.89 15.15
12/29/2022 5:45:00 AM 0.25 32.45 0.137 7.61 14.69 15.13
12/29/2022 6:00:00 AM 0.25 32.45 0.137 7.6 14.28 15.12
12/29/2022 6:15:00 AM 0.24 32.432 0.137 7.6 14.06 15.11
12/29/2022 6:30:00 AM 0.23 32.414 0.137 7.6 13.59 15.12
12/29/2022 6:45:00 AM 0.23 32.414 0.137 7.6 13.8 15.11
12/29/2022 7:00:00 AM 0.22 32.396 0.137 7.6 13.8 15.11
12/29/2022 7:15:00 AM 0.22 32.396 0.137 7.6 13.13 15.11
12/29/2022 7:30:00 AM 0.22 32.396 0.137 7.6 12.81 15.1
12/29/2022 2:00:00 PM 0.45 32.81 0.14 7.51 13.04 15.23
12/29/2022 2:15:00 PM 0.89 33.602 0.145 7.41 14.07 15.28
12/29/2022 2:30:00 PM 0.87 33.566 0.145 7.4 13.38 15.31
12/29/2022 2:45:00 PM 0.9 33.62 0.145 7.39 12.96 15.32
12/29/2022 3:00:00 PM 0.84 33.512 0.145 7.37 13.71 15.31
12/29/2022 3:15:00 PM 0.81 33.458 0.145 7.38 12.76 15.33
12/29/2022 3:30:00 PM 0.87 33.566 0.143 7.41 12.17 15.24
12/29/2022 3:45:00 PM 0.86 33.548 0.144 7.43 14.3 15.27
12/29/2022 4:00:00 PM 0.86 33.548 0.142 7.45 13.67 15.31
12/29/2022 4:15:00 PM 0.98 33.764 0.136 7.55 13.22 15.23
12/29/2022 4:30:00 PM 1 33.8 0.135 7.57 13.14 15.18
12/29/2022 4:45:00 PM 1 33.8 0.135 7.58 13.97 15.19
12/29/2022 5:00:00 PM 1 33.8 0.135 7.58 13.34 15.17
12/29/2022 5:15:00 PM 0.99 33.782 0.135 7.57 12.95 15.16
12/29/2022 5:30:00 PM 0.99 33.782 0.135 7.57 13.12 15.17
12/29/2022 5:45:00 PM 0.99 33.782 0.135 7.59 12.75 15.17
12/29/2022 6:00:00 PM 0.97 33.746 0.134 7.59 12.71 15.17
12/29/2022 6:15:00 PM 0.94 33.692 0.134 7.6 13.32 15.17
12/29/2022 6:30:00 PM 0.92 33.656 0.133 7.6 13.95 15.17
12/29/2022 6:45:00 PM 0.91 33.638 0.133 7.6 13.73 15.17
12/29/2022 7:00:00 PM 0.9 33.62 0.133 7.6 13.54 15.17
12/29/2022 7:15:00 PM 0.88 33.584 0.134 7.6 13.22 15.17
12/29/2022 7:30:00 PM 0.87 33.566 0.135 7.61 13.14 15.17
12/29/2022 7:45:00 PM 0.86 33.548 0.135 7.61 13.26 15.16
12/29/2022 8:00:00 PM 0.86 33.548 0.135 7.61 13.13 15.17
12/29/2022 8:15:00 PM 0.85 33.53 0.135 7.61 13.19 15.18
12/29/2022 8:30:00 PM 0.75 33.35 0.141 7.57 15.79 15.34
12/29/2022 8:45:00 PM 0.72 33.296 0.143 7.45 20.6 15.47
12/29/2022 9:00:00 PM 0.81 33.458 0.139 7.46 19.95 15.36
12/29/2022 9:15:00 PM 0.86 33.548 0.136 7.55 16.81 15.22
12/29/2022 9:30:00 PM 0.87 33.566 0.136 7.58 14.43 15.18
12/29/2022 9:45:00 PM 0.89 33.602 0.136 7.59 13.66 15.17
12/29/2022 10:00:00 PM 0.9 33.62 0.136 7.6 13.87 15.16
12/29/2022 10:15:00 PM 0.91 33.638 0.136 7.6 13.85 15.16
12/29/2022 10:30:00 PM 0.93 33.674 0.136 7.6 13.68 15.15
12/29/2022 10:45:00 PM 0.95 33.71 0.136 7.61 13.78 15.16
12/29/2022 11:00:00 PM 0.97 33.746 0.136 7.6 13.37 15.16
12/29/2022 11:15:00 PM 0.99 33.782 0.135 7.61 13.4 15.14
12/29/2022 11:30:00 PM 1.01 33.818 0.134 7.61 13.85 15.15
12/29/2022 11:45:00 PM 1.03 33.854 0.134 7.61 13.91 15.14
12/30/2022 12:00:00 AM 1.05 33.89 0.134 7.6 13.45 15.14
12/30/2022 12:15:00 AM 1.07 33.926 0.134 7.6 13.23 15.14
12/30/2022 12:30:00 AM 1.09 33.962 0.134 7.6 13.19 15.13
12/30/2022 12:45:00 AM 1.11 33.998 0.134 7.6 14.3 15.12
12/30/2022 1:00:00 AM 1.13 34.034 0.134 7.6 14.47 15.13
12/30/2022 1:15:00 AM 1.14 34.052 0.135 7.6 13.93 15.11
12/30/2022 1:30:00 AM 1.15 34.07 0.135 7.61 13.46 15.1
12/30/2022 1:45:00 AM 1.16 34.088 0.135 7.61 13.87 15.1
12/30/2022 2:00:00 AM 1.17 34.106 0.135 7.6 14.45 15.09
12/30/2022 2:15:00 AM 1.18 34.124 0.135 7.6 14.45 15.08
12/30/2022 2:30:00 AM 1.18 34.124 0.135 7.61 13.99 15.07
12/30/2022 2:45:00 AM 1.19 34.142 0.137 7.6 13.6 15.07
12/30/2022 3:00:00 AM 1.2 34.16 0.138 7.6 13.61 15.07
12/30/2022 3:15:00 AM 1.2 34.16 0.138 7.61 13.56 15.06
12/30/2022 3:30:00 AM 1.21 34.178 0.138 7.61 13.56 15.05
12/30/2022 3:45:00 AM 1.22 34.196 0.138 7.61 14.21 15.03
12/30/2022 4:00:00 AM 1.22 34.196 0.138 7.61 14.08 15.03
12/30/2022 4:15:00 AM 1.22 34.196 0.138 7.61 13.82 15.02
12/30/2022 4:30:00 AM 1.23 34.214 0.138 7.61 13.68 15
12/30/2022 4:45:00 AM 1.24 34.232 0.138 7.61 13.86 14.99
12/30/2022 5:00:00 AM 1.25 34.25 0.138 7.61 13.82 15
12/30/2022 5:15:00 AM 1.25 34.25 0.138 7.6 13.69 14.98
12/30/2022 5:30:00 AM 1.26 34.268 0.138 7.6 13.96 14.97
12/30/2022 5:45:00 AM 1.26 34.268 0.139 7.6 14.03 14.97
12/30/2022 6:00:00 AM 1.27 34.286 0.139 7.6 13.78 14.95
12/30/2022 6:15:00 AM 1.27 34.286 0.139 7.6 13.76 14.94
12/30/2022 6:30:00 AM 1.27 34.286 0.139 7.6 13.95 14.93
12/30/2022 6:45:00 AM 1.27 34.286 0.139 7.6 14.02 14.93
12/30/2022 7:00:00 AM 1.27 34.286 0.139 7.6 14.14 14.91
12/30/2022 7:15:00 AM 1.27 34.286 0.139 7.6 14.3 14.92
12/30/2022 7:30:00 AM 1.27 34.286 0.139 7.59 13.95 14.91
12/30/2022 7:45:00 AM 1.28 34.304 0.139 7.59 13.75 14.91
12/30/2022 8:00:00 AM 1.28 34.304 0.139 7.59 13.64 14.89
12/30/2022 8:15:00 AM 1.28 34.304 0.139 7.59 13.94 14.89
12/30/2022 8:30:00 AM 1.28 34.304 0.139 7.59 13.54 14.89
12/30/2022 8:45:00 AM 1.29 34.322 0.139 7.59 14.06 14.88
12/30/2022 9:00:00 AM 1.29 34.322 0.14 7.59 13.65 14.88
12/30/2022 9:15:00 AM 1.3 34.34 0.14 7.59 13.97 14.89
12/30/2022 9:30:00 AM 1.31 34.358 0.14 7.59 13.99 14.87
12/30/2022 9:45:00 AM 1.31 34.358 0.14 7.59 13.88 14.87
12/30/2022 10:00:00 AM 1.32 34.376 0.14 7.59 13.7 14.86
12/30/2022 10:15:00 AM 1.33 34.394 0.139 7.59 13.66 14.88
12/30/2022 10:30:00 AM 1.34 34.412 0.14 7.59 13.58 14.87
12/30/2022 10:45:00 AM 1.35 34.43 0.139 7.59 13.38 14.87
12/30/2022 11:00:00 AM 1.36 34.448 0.139 7.59 13.64 14.87
12/30/2022 11:15:00 AM 1.38 34.484 0.139 7.59 13.54 14.87
12/30/2022 11:30:00 AM 1.4 34.52 0.139 7.59 13.73 14.88
12/30/2022 11:45:00 AM 1.42 34.556 0.138 7.59 13.67 14.87
12/30/2022 12:00:00 PM 1.44 34.592 0.137 7.59 13.81 14.88
12/30/2022 12:15:00 PM 1.47 34.646 0.137 7.59 14.32 14.88
12/30/2022 12:30:00 PM 1.5 34.7 0.137 7.58 13.52 14.87
12/30/2022 12:45:00 PM 1.52 34.736 0.137 7.58 13.82 14.87
12/30/2022 1:00:00 PM 1.55 34.79 0.137 7.58 13.73 14.89
12/30/2022 1:15:00 PM 1.59 34.862 0.138 7.59 13.55 14.9
12/30/2022 1:30:00 PM 1.63 34.934 0.138 7.59 13.64 14.89
12/30/2022 1:45:00 PM 1.66 34.988 0.139 7.59 13.7 14.89
12/30/2022 2:00:00 PM 1.69 35.042 0.139 7.59 13.86 14.9
12/30/2022 2:15:00 PM 1.73 35.114 0.139 7.59 13.71 14.9
12/30/2022 2:30:00 PM 1.76 35.168 0.14 7.6 13.67 14.9
12/30/2022 2:45:00 PM 1.79 35.222 0.14 7.6 14.08 14.9
12/30/2022 3:00:00 PM 1.81 35.258 0.14 7.6 14.19 14.91
12/30/2022 3:15:00 PM 1.82 35.276 0.14 7.6 13.71 14.89
12/30/2022 3:30:00 PM 1.84 35.312 0.14 7.61 14.08 14.92
12/30/2022 3:45:00 PM 1.85 35.33 0.14 7.61 13.98 14.91
12/30/2022 4:00:00 PM 1.86 35.348 0.14 7.61 14.44 14.91
12/30/2022 4:15:00 PM 1.87 35.366 0.14 7.61 14.32 14.91
12/30/2022 4:30:00 PM 1.88 35.384 0.14 7.61 14.64 14.9
12/30/2022 4:45:00 PM 1.89 35.402 0.14 7.61 14.06 14.9
12/30/2022 5:00:00 PM 1.9 35.42 0.14 7.61 14.74 14.91
12/30/2022 5:15:00 PM 1.91 35.438 0.14 7.61 14.43 14.9
12/30/2022 5:30:00 PM 1.91 35.438 0.141 7.62 14.2 14.89
12/30/2022 5:45:00 PM 1.91 35.438 0.141 7.62 13.93 14.89
12/30/2022 6:00:00 PM 1.9 35.42 0.142 7.62 14.4 14.89
12/30/2022 6:15:00 PM 1.89 35.402 0.142 7.62 14.18 14.88
12/30/2022 6:30:00 PM 1.88 35.384 0.142 7.62 14.08 14.88
12/30/2022 6:45:00 PM 1.88 35.384 0.142 7.62 14.26 14.89
12/30/2022 7:00:00 PM 1.45 34.61 0.146 7.56 16.73 15.2
12/30/2022 7:15:00 PM 1.56 34.808 0.146 7.47 16.08 15.06
12/30/2022 7:30:00 PM 1.79 35.222 0.142 7.54 14.62 14.96
12/30/2022 7:45:00 PM 1.82 35.276 0.142 7.59 14.72 14.89
12/30/2022 8:00:00 PM 1.81 35.258 0.142 7.6 14.86 14.87
12/30/2022 8:15:00 PM 1.81 35.258 0.142 7.6 14.15 14.86
12/30/2022 8:30:00 PM 1.8 35.24 0.142 7.61 14.32 14.86
12/30/2022 8:45:00 PM 1.79 35.222 0.142 7.61 14.14 14.86
12/30/2022 9:00:00 PM 1.78 35.204 0.142 7.61 14.06 14.85
12/30/2022 9:15:00 PM 1.77 35.186 0.142 7.61 14.04 14.86
12/30/2022 9:30:00 PM 1.76 35.168 0.142 7.61 14.58 14.86
12/30/2022 9:45:00 PM 1.76 35.168 0.142 7.61 14.36 14.86
12/30/2022 10:00:00 PM 1.74 35.132 0.142 7.61 14.78 14.85
12/30/2022 10:15:00 PM 1.74 35.132 0.142 7.62 14.67 14.87
12/30/2022 10:30:00 PM 1.73 35.114 0.142 7.62 14.35 14.86
12/30/2022 10:45:00 PM 1.73 35.114 0.142 7.62 14.08 14.86
12/30/2022 11:00:00 PM 1.72 35.096 0.142 7.61 14.5 14.85
12/30/2022 11:15:00 PM 1.72 35.096 0.141 7.61 14.48 14.86
12/30/2022 11:30:00 PM 1.72 35.096 0.141 7.61 14 14.86
12/30/2022 11:45:00 PM 1.72 35.096 0.142 7.61 13.94 14.85
12/31/2022 12:00:00 AM 1.72 35.096 0.142 7.61 14.41 14.85
12/31/2022 12:15:00 AM 1.73 35.114 0.142 7.61 13.95 14.84
12/31/2022 12:30:00 AM 1.73 35.114 0.143 7.61 14.24 14.85
12/31/2022 12:45:00 AM 1.73 35.114 0.143 7.61 14.28 14.85
12/31/2022 1:00:00 AM 1.74 35.132 0.143 7.62 14.26 14.85
12/31/2022 1:15:00 AM 1.74 35.132 0.143 7.62 14.15 14.83
12/31/2022 1:30:00 AM 1.75 35.15 0.143 7.62 14.08 14.83
12/31/2022 1:45:00 AM 1.75 35.15 0.143 7.62 14.2 14.83
12/31/2022 2:00:00 AM 1.75 35.15 0.143 7.62 14.13 14.82
12/31/2022 2:15:00 AM 1.75 35.15 0.143 7.62 13.88 14.82
12/31/2022 2:30:00 AM 1.75 35.15 0.143 7.62 14.05 14.81
12/31/2022 2:45:00 AM 1.46 34.628 0.149 7.56 15.93 15.06
12/31/2022 3:00:00 AM 1.62 34.916 0.148 7.49 16.25 14.99
12/31/2022 3:15:00 AM 1.72 35.096 0.145 7.51 14.56 14.89
12/31/2022 3:30:00 AM 1.75 35.15 0.144 7.58 14.68 14.81
12/31/2022 3:45:00 AM 1.75 35.15 0.144 7.59 14.27 14.79
12/31/2022 4:00:00 AM 1.75 35.15 0.144 7.6 13.96 14.78
12/31/2022 4:15:00 AM 1.75 35.15 0.144 7.6 13.85 14.78
12/31/2022 4:30:00 AM 1.75 35.15 0.144 7.6 14.27 14.76
12/31/2022 4:45:00 AM 1.75 35.15 0.144 7.61 14.06 14.76
12/31/2022 5:00:00 AM 1.75 35.15 0.144 7.61 14.07 14.75
12/31/2022 5:15:00 AM 1.75 35.15 0.144 7.61 13.93 14.74
12/31/2022 5:30:00 AM 1.75 35.15 0.144 7.6 14.14 14.74
12/31/2022 5:45:00 AM 1.76 35.168 0.145 7.61 13.89 14.72
12/31/2022 6:00:00 AM 1.76 35.168 0.145 7.61 13.99 14.71
12/31/2022 6:15:00 AM 1.77 35.186 0.145 7.61 14.03 14.71
12/31/2022 6:30:00 AM 1.77 35.186 0.145 7.6 14.12 14.69
12/31/2022 6:45:00 AM 1.78 35.204 0.145 7.6 14.33 14.69
12/31/2022 7:00:00 AM 1.78 35.204 0.145 7.6 14.06 14.68
12/31/2022 7:15:00 AM 1.79 35.222 0.145 7.6 14.01 14.67
12/31/2022 7:30:00 AM 1.79 35.222 0.145 7.6 14.18 14.66
12/31/2022 7:45:00 AM 1.79 35.222 0.145 7.6 14.14 14.66
12/31/2022 8:00:00 AM 1.79 35.222 0.145 7.6 13.82 14.65
12/31/2022 8:15:00 AM 1.8 35.24 0.145 7.6 14.23 14.65
12/31/2022 8:30:00 AM 1.8 35.24 0.145 7.6 13.87 14.63
12/31/2022 8:45:00 AM 1.8 35.24 0.145 7.6 14.01 14.63
12/31/2022 9:00:00 AM 1.8 35.24 0.145 7.6 14.5 14.62
12/31/2022 9:15:00 AM 1.81 35.258 0.145 7.6 14.53 14.61
12/31/2022 9:30:00 AM 1.81 35.258 0.145 7.6 14.5 14.61
12/31/2022 9:45:00 AM 1.82 35.276 0.145 7.59 14.06 14.61
12/31/2022 10:00:00 AM 1.83 35.294 0.145 7.6 13.88 14.6
12/31/2022 10:15:00 AM 1.84 35.312 0.145 7.6 14.06 14.61
12/31/2022 10:30:00 AM 1.85 35.33 0.145 7.59 14.28 14.6
12/31/2022 10:45:00 AM 1.86 35.348 0.145 7.59 14.02 14.6
12/31/2022 11:00:00 AM 1.87 35.366 0.145 7.6 14.21 14.6
12/31/2022 11:15:00 AM 1.89 35.402 0.145 7.6 14.03 14.59
12/31/2022 11:30:00 AM 1.9 35.42 0.144 7.6 13.95 14.6
12/31/2022 11:45:00 AM 1.91 35.438 0.142 7.59 14.03 14.61
12/31/2022 12:00:00 PM 1.92 35.456 0.142 7.59 14.29 14.6
12/31/2022 12:15:00 PM 1.93 35.474 0.141 7.59 14.03 14.6
12/31/2022 12:30:00 PM 1.95 35.51 0.141 7.59 13.94 14.61
12/31/2022 12:45:00 PM 1.96 35.528 0.141 7.59 14.26 14.6
12/31/2022 1:00:00 PM 1.98 35.564 0.141 7.59 13.96 14.61
12/31/2022 1:15:00 PM 1.99 35.582 0.141 7.59 14.12 14.61
12/31/2022 1:30:00 PM 2 35.6 0.141 7.59 13.9 14.6
12/31/2022 1:45:00 PM 2.01 35.618 0.141 7.59 14.06 14.6
12/31/2022 2:00:00 PM 1.89 35.402 0.148 7.53 14.71 14.79
12/31/2022 2:15:00 PM 1.94 35.492 0.147 7.5 13.58 14.7
12/31/2022 2:30:00 PM 2.03 35.654 0.144 7.55 13.95 14.64
12/31/2022 2:45:00 PM 2.06 35.708 0.143 7.57 13.97 14.6
12/31/2022 3:00:00 PM 2.07 35.726 0.143 7.58 14.21 14.6
12/31/2022 3:15:00 PM 2.08 35.744 0.143 7.59 14.03 14.6
12/31/2022 3:30:00 PM 2.09 35.762 0.143 7.59 14.6 14.59
12/31/2022 3:45:00 PM 2.1 35.78 0.143 7.59 13.96 14.58
12/31/2022 4:00:00 PM 2.11 35.798 0.143 7.6 14.51 14.59
12/31/2022 4:15:00 PM 2.12 35.816 0.143 7.59 13.97 14.58
12/31/2022 4:30:00 PM 2.13 35.834 0.143 7.6 14.23 14.5
12/31/2022 4:45:00 PM 2.13 35.834 0.143 7.59 14.22 14.55
12/31/2022 5:00:00 PM 2.14 35.852 0.143 7.6 14.05 14.55
12/31/2022 5:15:00 PM 2.15 35.87 0.142 7.6 13.94 14.54
12/31/2022 5:30:00 PM 2.16 35.888 0.142 7.6 14.18 14.54
12/31/2022 5:45:00 PM 2.17 35.906 0.142 7.59 13.98 14.53
12/31/2022 6:00:00 PM 2.18 35.924 0.142 7.59 13.97 14.52
12/31/2022 6:15:00 PM 2.19 35.942 0.142 7.6 14.14 14.52
12/31/2022 6:30:00 PM 2.2 35.96 0.141 7.59 14.12 14.51
12/31/2022 6:45:00 PM 2.2 35.96 0.141 7.59 14.1 14.51
12/31/2022 7:00:00 PM 2.21 35.978 0.14 7.59 13.92 14.5
12/31/2022 7:15:00 PM 2.21 35.978 0.139 7.59 14.33 14.49
12/31/2022 7:30:00 PM 2.22 35.996 0.14 7.59 14.01 14.49
12/31/2022 7:45:00 PM 2.22 35.996 0.14 7.58 13.99 14.48
12/31/2022 8:00:00 PM 2.23 36.014 0.141 7.58 14.03 14.48
12/31/2022 8:15:00 PM 2.24 36.032 0.141 7.58 13.98 14.47
12/31/2022 8:30:00 PM 2.25 36.05 0.14 7.59 13.89 14.47
12/31/2022 8:45:00 PM 2.26 36.068 0.139 7.59 13.93 14.46
12/31/2022 9:00:00 PM 2.27 36.086 0.139 7.58 14.2 14.46
12/31/2022 9:15:00 PM 2.28 36.104 0.139 7.58 14.09 14.46
12/31/2022 9:30:00 PM 2.29 36.122 0.139 7.59 14.21 14.47
12/31/2022 9:45:00 PM 2.3 36.14 0.138 7.58 14 14.46
12/31/2022 10:00:00 PM 2.31 36.158 0.138 7.59 13.8 14.45
12/31/2022 10:15:00 PM 2.33 36.194 0.138 7.59 14.31 14.46
12/31/2022 10:30:00 PM 2.34 36.212 0.138 7.59 14.23 14.45
12/31/2022 10:45:00 PM 2.35 36.23 0.138 7.59 14.03 14.45
12/31/2022 11:00:00 PM 2.36 36.248 0.138 7.59 14.03 14.46
12/31/2022 11:15:00 PM 2.37 36.266 0.138 7.59 13.93 14.45
12/31/2022 11:30:00 PM 2.38 36.284 0.138 7.59 14.62 14.45
12/31/2022 11:45:00 PM 2.39 36.302 0.138 7.58 14.09 14.46
1/1/2023 12:00:00 AM 2.4 36.32 0.138 7.58 14.03 14.45
1/1/2023 12:15:00 AM 2.41 36.338 0.138 7.59 14.01 14.44
1/1/2023 12:30:00 AM 2.41 36.338 0.138 7.59 14.02 14.44
1/1/2023 12:45:00 AM 2.42 36.356 0.138 7.59 14.09 14.44
1/1/2023 1:00:00 AM 2.43 36.374 0.138 7.59 14.21 14.43
1/1/2023 1:15:00 AM 2.44 36.392 0.138 7.59 14.07 14.43
1/1/2023 1:30:00 AM 2.45 36.41 0.137 7.59 14.06 14.42
1/1/2023 1:45:00 AM 2.46 36.428 0.138 7.59 14.06 14.41
1/1/2023 2:00:00 AM 2.47 36.446 0.138 7.59 14.22 14.41
1/1/2023 2:15:00 AM 2.47 36.446 0.138 7.6 14.1 14.41
1/1/2023 2:30:00 AM 2.48 36.464 0.138 7.59 14.29 14.4
1/1/2023 2:45:00 AM 2.49 36.482 0.138 7.6 14.02 14.4
1/1/2023 3:00:00 AM 2.5 36.5 0.138 7.6 14.4 14.39
1/1/2023 3:15:00 AM 2.51 36.518 0.138 7.6 14.02 14.37
1/1/2023 3:30:00 AM 2.51 36.518 0.138 7.59 14.08 14.38
1/1/2023 3:45:00 AM 2.52 36.536 0.138 7.59 13.99 14.37
1/1/2023 4:00:00 AM 2.52 36.536 0.138 7.59 14.12 14.36
1/1/2023 4:15:00 AM 2.52 36.536 0.138 7.59 13.97 14.35
1/1/2023 4:30:00 AM 2.52 36.536 0.138 7.58 14.35 14.36
1/1/2023 4:45:00 AM 2.52 36.536 0.138 7.59 13.96 14.34
1/1/2023 5:00:00 AM 2.52 36.536 0.138 7.59 14.09 14.32
1/1/2023 5:15:00 AM 2.52 36.536 0.138 7.58 14.12 14.33
1/1/2023 5:30:00 AM 2.52 36.536 0.138 7.59 13.96 14.32
1/1/2023 5:45:00 AM 2.52 36.536 0.138 7.59 14.21 14.31
1/1/2023 6:00:00 AM 2.51 36.518 0.138 7.57 14.08 14.3
1/1/2023 6:15:00 AM 2.51 36.518 0.138 7.58 14.14 14.29
1/1/2023 6:30:00 AM 2.5 36.5 0.139 7.59 13.91 14.28
1/1/2023 6:45:00 AM 2.5 36.5 0.139 7.59 14.21 14.27
1/1/2023 7:00:00 AM 2.5 36.5 0.139 7.58 13.99 14.26
1/1/2023 7:15:00 AM 2.5 36.5 0.139 7.58 14.07 14.27
1/1/2023 7:30:00 AM 2.49 36.482 0.139 7.59 13.94 14.26
1/1/2023 7:45:00 AM 2.5 36.5 0.139 7.58 14.07 14.25
1/1/2023 8:00:00 AM 2.49 36.482 0.139 7.58 14.58 14.25
1/1/2023 8:15:00 AM 2.49 36.482 0.139 7.58 13.99 14.24
1/1/2023 8:30:00 AM 2.49 36.482 0.139 7.58 14.37 14.25
1/1/2023 8:45:00 AM 2.48 36.464 0.139 7.58 14.15 14.23
1/1/2023 9:00:00 AM 2.47 36.446 0.139 7.58 14.29 14.26
1/1/2023 9:15:00 AM 2.46 36.428 0.139 7.58 14.31 14.24
1/1/2023 9:30:00 AM 2.46 36.428 0.138 7.58 14.38 14.25
1/1/2023 9:45:00 AM 2.46 36.428 0.138 7.58 14.42 14.24
1/1/2023 10:00:00 AM 2.47 36.446 0.138 7.58 14.54 14.25
1/1/2023 10:15:00 AM 2.48 36.464 0.138 7.58 14.63 14.25
1/1/2023 10:30:00 AM 2.5 36.5 0.138 7.58 14.05 14.24
1/1/2023 10:45:00 AM 2.52 36.536 0.138 7.58 14.41 14.24
1/1/2023 11:00:00 AM 2.56 36.608 0.138 7.59 14.39 14.24
1/1/2023 11:15:00 AM 2.59 36.662 0.138 7.58 14.87 14.24
1/1/2023 11:30:00 AM 2.63 36.734 0.138 7.58 14.85 14.24
1/1/2023 11:45:00 AM 2.67 36.806 0.138 7.58 14.22 14.24
1/1/2023 12:00:00 PM 2.72 36.896 0.138 7.58 14.45 14.24
1/1/2023 12:15:00 PM 2.75 36.95 0.138 7.58 15.99 14.24
1/1/2023 12:30:00 PM 2.78 37.004 0.138 7.58 14.41 14.25
1/1/2023 12:45:00 PM 2.83 37.094 0.138 7.59 15.03 14.25
1/1/2023 1:00:00 PM 2.86 37.148 0.138 7.59 14.28 14.25
1/1/2023 1:15:00 PM 2.89 37.202 0.138 7.59 14.37 14.24
1/1/2023 1:30:00 PM 2.93 37.274 0.137 7.59 14.21 14.25
1/1/2023 1:45:00 PM 2.97 37.346 0.137 7.59 14.25 14.24
1/1/2023 2:00:00 PM 3 37.4 0.137 7.59 14.76 14.24
1/1/2023 2:15:00 PM 3.03 37.454 0.137 7.59 14.43 14.25
1/1/2023 2:30:00 PM 3.05 37.49 0.137 7.59 14.4 14.25
1/1/2023 2:45:00 PM 3.09 37.562 0.136 7.59 14.56 14.24
1/1/2023 3:00:00 PM 3.1 37.58 0.136 7.59 14.82 14.24
1/1/2023 3:15:00 PM 3.12 37.616 0.136 7.59 14.48 14.24
1/1/2023 3:30:00 PM 3.13 37.634 0.135 7.59 14.1 14.26
1/1/2023 3:45:00 PM 3.15 37.67 0.135 7.59 14.18 14.24
1/1/2023 4:00:00 PM 3.16 37.688 0.135 7.59 14.4 14.26
1/1/2023 4:15:00 PM 3.16 37.688 0.134 7.59 14.17 14.25
1/1/2023 4:30:00 PM 3.16 37.688 0.134 7.59 14.38 14.24
1/1/2023 4:45:00 PM 3.14 37.652 0.133 7.59 14.29 14.26
1/1/2023 5:00:00 PM 3.13 37.634 0.133 7.58 14.8 14.25
1/1/2023 5:15:00 PM 3.12 37.616 0.133 7.59 14.92 14.25
1/1/2023 5:30:00 PM 3.11 37.598 0.133 7.59 14.77 14.25
1/1/2023 5:45:00 PM 3.09 37.562 0.132 7.59 14.47 14.25
1/1/2023 6:00:00 PM 3.08 37.544 0.131 7.59 14.34 14.24
1/1/2023 6:15:00 PM 3.07 37.526 0.131 7.59 14.37 14.25
1/1/2023 6:30:00 PM 3.07 37.526 0.131 7.59 15.04 14.25
1/1/2023 6:45:00 PM 3.07 37.526 0.131 7.59 14.59 14.25
1/1/2023 7:00:00 PM 3.1 37.58 0.134 7.59 14.88 14.4
1/1/2023 7:15:00 PM 2.85 37.13 0.142 7.49 13.55 14.52
1/1/2023 7:30:00 PM 2.91 37.238 0.136 7.5 14.07 14.43
1/1/2023 7:45:00 PM 3.03 37.454 0.13 7.56 14.7 14.33
1/1/2023 8:00:00 PM 3.08 37.544 0.129 7.57 15.14 14.26
1/1/2023 8:15:00 PM 3.11 37.598 0.129 7.58 15.02 14.24
1/1/2023 8:30:00 PM 3.12 37.616 0.129 7.59 15.43 14.24
1/1/2023 8:45:00 PM 3.14 37.652 0.128 7.59 15.89 14.24
1/1/2023 9:00:00 PM 3.16 37.688 0.128 7.59 16.07 14.24
1/1/2023 9:15:00 PM 3.18 37.724 0.128 7.59 15.15 14.22
1/1/2023 9:30:00 PM 3.2 37.76 0.127 7.59 15.13 14.24
1/1/2023 9:45:00 PM 3.21 37.778 0.127 7.59 15.25 14.23
1/1/2023 10:00:00 PM 3.23 37.814 0.127 7.59 15.03 14.23
1/1/2023 10:15:00 PM 3.24 37.832 0.127 7.59 15.28 14.22
1/1/2023 10:30:00 PM 3.26 37.868 0.127 7.59 15.02 14.23
1/1/2023 10:45:00 PM 3.27 37.886 0.127 7.59 16.58 14.23
1/1/2023 11:00:00 PM 3.27 37.886 0.127 7.59 15.53 14.23
1/1/2023 11:15:00 PM 3.28 37.904 0.127 7.59 15.9 14.22
1/1/2023 11:30:00 PM 3.29 37.922 0.127 7.59 15.61 14.21
1/1/2023 11:45:00 PM 3.29 37.922 0.127 7.59 15.23 14.21
1/2/2023 12:00:00 AM 3.29 37.922 0.127 7.6 15.46 14.2
1/2/2023 12:15:00 AM 3.29 37.922 0.127 7.59 14.92 14.2
1/2/2023 12:30:00 AM 3.29 37.922 0.127 7.59 15.79 14.2
1/2/2023 12:45:00 AM 3.29 37.922 0.127 7.59 15.09 14.2
1/2/2023 1:00:00 AM 3.29 37.922 0.127 7.59 15.54 14.18
1/2/2023 1:15:00 AM 3.28 37.904 0.127 7.59 14.99 14.19
1/2/2023 1:30:00 AM 3.28 37.904 0.127 7.59 15.04 14.18
1/2/2023 1:45:00 AM 3.28 37.904 0.128 7.59 15.3 14.17
1/2/2023 2:00:00 AM 3.23 37.814 0.135 7.58 15.61 14.17
1/2/2023 2:15:00 AM 3.02 37.436 0.14 7.49 14.22 14.41
1/2/2023 2:30:00 AM 3.13 37.634 0.134 7.49 14.44 14.36
1/2/2023 2:45:00 AM 3.24 37.832 0.129 7.55 16.65 14.23
1/2/2023 3:00:00 AM 3.26 37.868 0.128 7.57 15.91 14.15
1/2/2023 3:15:00 AM 3.25 37.85 0.129 7.57 16.1 14.12
1/2/2023 3:30:00 AM 3.25 37.85 0.129 7.57 15.99 14.12
1/2/2023 3:45:00 AM 3.24 37.832 0.129 7.57 16.39 14.11
1/2/2023 4:00:00 AM 3.23 37.814 0.129 7.56 15.54 14.11
1/2/2023 4:15:00 AM 3.22 37.796 0.129 7.57 15.98 14.1
1/2/2023 4:30:00 AM 3.22 37.796 0.129 7.57 16.11 14.09
1/2/2023 4:45:00 AM 3.21 37.778 0.13 7.57 16.61 14.1
1/2/2023 5:00:00 AM 3.21 37.778 0.13 7.56 15.26 14.1
1/2/2023 5:15:00 AM 3.21 37.778 0.13 7.56 16.02 14.09
1/2/2023 5:30:00 AM 3.21 37.778 0.13 7.57 15.73 14.07
1/2/2023 5:45:00 AM 3.2 37.76 0.13 7.56 16.36 14.08
1/2/2023 6:00:00 AM 3.2 37.76 0.13 7.56 16.27 14.07
1/2/2023 6:15:00 AM 3.2 37.76 0.13 7.56 15.93 14.07
1/2/2023 6:30:00 AM 3.2 37.76 0.13 7.56 16.45 14.04
1/2/2023 6:45:00 AM 3.2 37.76 0.131 7.55 15.84 14.05
1/2/2023 7:00:00 AM 3.2 37.76 0.13 7.55 16.43 14.05
1/2/2023 7:15:00 AM 3.2 37.76 0.131 7.55 16.34 14.05
1/2/2023 7:30:00 AM 3.2 37.76 0.131 7.55 17.17 14.04
1/2/2023 7:45:00 AM 3.2 37.76 0.131 7.55 16.1 14.04
1/2/2023 8:00:00 AM 3.2 37.76 0.131 7.55 16.48 14.03
1/2/2023 8:15:00 AM 3.21 37.778 0.131 7.55 16.2 14.03
1/2/2023 8:30:00 AM 3.21 37.778 0.131 7.55 16.14 14.02
1/2/2023 8:45:00 AM 3.21 37.778 0.131 7.55 16 14.03
1/2/2023 9:00:00 AM 3.22 37.796 0.131 7.55 16.09 14.03
1/2/2023 9:15:00 AM 3.22 37.796 0.131 7.54 17.24 14.02
1/2/2023 9:30:00 AM 3.23 37.814 0.132 7.55 16.54 14.01
1/2/2023 9:45:00 AM 3.23 37.814 0.132 7.54 16.96 14.02
1/2/2023 10:00:00 AM 3.25 37.85 0.132 7.54 16.38 14.03
1/2/2023 10:15:00 AM 3.26 37.868 0.132 7.55 16.52 14.02
1/2/2023 10:30:00 AM 3.28 37.904 0.132 7.54 16.24 14.01
1/2/2023 10:45:00 AM 3.29 37.922 0.131 7.55 16.36 14.02
1/2/2023 11:00:00 AM 3.31 37.958 0.131 7.54 16.98 14.02
1/2/2023 11:15:00 AM 3.32 37.976 0.131 7.54 16.17 14.02
1/2/2023 11:30:00 AM 3.33 37.994 0.131 7.54 16.71 14.03
1/2/2023 11:45:00 AM 3.36 38.048 0.131 7.55 16.14 14.02
1/2/2023 12:00:00 PM 3.38 38.084 0.131 7.55 15.69 14.02
1/2/2023 12:15:00 PM 3.4 38.12 0.131 7.55 16.2 14.02
1/2/2023 12:30:00 PM 3.41 38.138 0.131 7.55 17.03 14.02
1/2/2023 12:45:00 PM 3.42 38.156 0.131 7.55 15.74 14.02
1/2/2023 1:00:00 PM 3.44 38.192 0.131 7.55 16.05 14.04
1/2/2023 1:15:00 PM 3.45 38.21 0.13 7.55 16.1 14.03
1/2/2023 1:30:00 PM 3.47 38.246 0.13 7.55 15.79 14.02
1/2/2023 1:45:00 PM 3.48 38.264 0.13 7.55 15.72 14.03
1/2/2023 2:00:00 PM 3.5 38.3 0.13 7.55 16.84 14.02
1/2/2023 2:15:00 PM 3.51 38.318 0.13 7.55 16.6 14.03
1/2/2023 2:30:00 PM 3.51 38.318 0.13 7.55 15.51 14.01
1/2/2023 2:45:00 PM 3.51 38.318 0.13 7.55 17.26 14.05
1/2/2023 3:00:00 PM 3.52 38.336 0.13 7.55 16.15 14.03
1/2/2023 3:15:00 PM 3.52 38.336 0.13 7.55 15.74 14.04
1/2/2023 3:30:00 PM 3.52 38.336 0.13 7.55 16.11 14.04
1/2/2023 3:45:00 PM 3.51 38.318 0.13 7.55 17.76 14.06
1/2/2023 4:00:00 PM 3.51 38.318 0.129 7.55 17.96 14.05
1/2/2023 4:15:00 PM 3.51 38.318 0.13 7.55 19.84 14.04
1/2/2023 4:30:00 PM 3.52 38.336 0.129 7.55 17.92 14.04
1/2/2023 4:45:00 PM 3.52 38.336 0.129 7.55 17.97 14.05
1/2/2023 5:00:00 PM 3.53 38.354 0.129 7.55 18.33 14.05
1/2/2023 5:15:00 PM 3.53 38.354 0.129 7.55 18.39 14.06
1/2/2023 5:30:00 PM 3.49 38.282 0.138 7.54 17.31 14.23
1/2/2023 5:45:00 PM 3.42 38.156 0.138 7.47 16.29 14.28
1/2/2023 6:00:00 PM 3.53 38.354 0.13 7.51 19.63 14.14
1/2/2023 6:15:00 PM 3.56 38.408 0.129 7.54 18.82 14.08
1/2/2023 6:30:00 PM 3.57 38.426 0.129 7.54 18.12 14.07
1/2/2023 6:45:00 PM 3.58 38.444 0.128 7.55 20.89 14.08
1/2/2023 7:00:00 PM 3.59 38.462 0.128 7.55 19.81 14.07
1/2/2023 7:15:00 PM 3.6 38.48 0.128 7.55 20.07 14.06
1/2/2023 7:30:00 PM 3.61 38.498 0.128 7.55 19.78 14.07
1/2/2023 7:45:00 PM 3.62 38.516 0.128 7.55 20.12 14.07
1/2/2023 8:00:00 PM 3.63 38.534 0.128 7.54 20.35 14.06
1/2/2023 8:15:00 PM 3.64 38.552 0.128 7.54 22.28 14.07
1/2/2023 8:30:00 PM 3.65 38.57 0.128 7.54 20.74 14.06
1/2/2023 8:45:00 PM 3.66 38.588 0.128 7.54 18.75 14.04
1/2/2023 9:00:00 PM 3.67 38.606 0.128 7.54 18.75 14.04
1/2/2023 9:15:00 PM 3.67 38.606 0.128 7.54 19.75 14.04
1/2/2023 9:30:00 PM 3.68 38.624 0.127 7.54 18.59 14.04
1/2/2023 9:45:00 PM 3.69 38.642 0.128 7.53 20.8 14.03
1/2/2023 10:00:00 PM 3.7 38.66 0.127 7.54 20.33 14.01
1/2/2023 10:15:00 PM 3.71 38.678 0.128 7.53 19.46 14.02
1/2/2023 10:30:00 PM 3.72 38.696 0.128 7.53 17.56 14.01
1/2/2023 10:45:00 PM 3.73 38.714 0.128 7.53 17.56 14.01
1/2/2023 11:00:00 PM 3.73 38.714 0.128 7.53 20.94 14
1/2/2023 11:15:00 PM 3.74 38.732 0.128 7.53 19.68 13.99
1/2/2023 11:30:00 PM 3.75 38.75 0.128 7.53 21.79 13.98
1/2/2023 11:45:00 PM 3.77 38.786 0.128 7.52 18.67 13.98
1/3/2023 12:00:00 AM 3.78 38.804 0.128 7.52 21.07 13.97
1/3/2023 12:15:00 AM 3.79 38.822 0.128 7.52 22.63 13.96
1/3/2023 12:30:00 AM 3.8 38.84 0.128 7.52 21.59 13.94
1/3/2023 12:45:00 AM 3.81 38.858 0.128 7.52 19.21 13.94
1/3/2023 1:00:00 AM 3.82 38.876 0.128 7.52 21.87 13.94
1/3/2023 1:15:00 AM 3.83 38.894 0.128 7.52 21.88 13.93
1/3/2023 1:30:00 AM 3.84 38.912 0.128 7.52 18.26 13.92
1/3/2023 1:45:00 AM 3.84 38.912 0.128 7.51 18.06 13.9
1/3/2023 2:00:00 AM 3.85 38.93 0.128 7.51 20.04 13.9
1/3/2023 2:15:00 AM 3.67 38.606 0.138 7.47 18.58 14.24
1/3/2023 2:30:00 AM 3.72 38.696 0.137 7.4 17.82 14.11
1/3/2023 2:45:00 AM 3.86 38.948 0.129 7.46 19.83 13.96
1/3/2023 3:00:00 AM 3.88 38.984 0.128 7.49 19.28 13.88
1/3/2023 3:15:00 AM 3.89 39.002 0.128 7.49 19.26 13.88
1/3/2023 3:30:00 AM 3.9 39.02 0.128 7.5 20.77 13.87
1/3/2023 3:45:00 AM 3.9 39.02 0.128 7.49 19.76 13.86
1/3/2023 4:00:00 AM 3.91 39.038 0.128 7.49 20.2 13.85
1/3/2023 4:15:00 AM 3.91 39.038 0.128 7.49 19.87 13.83
1/3/2023 4:30:00 AM 3.92 39.056 0.128 7.49 19.65 13.82
1/3/2023 4:45:00 AM 3.93 39.074 0.128 7.49 18.25 13.81
1/3/2023 5:00:00 AM 3.93 39.074 0.128 7.49 18.58 13.81
1/3/2023 5:15:00 AM 3.94 39.092 0.128 7.49 20.78 13.8
1/3/2023 5:30:00 AM 3.94 39.092 0.128 7.48 18.36 13.8
1/3/2023 5:45:00 AM 3.95 39.11 0.128 7.48 20.5 13.79
1/3/2023 6:00:00 AM 3.96 39.128 0.128 7.48 21.64 13.79
1/3/2023 6:15:00 AM 3.96 39.128 0.127 7.48 19.49 13.78
1/3/2023 6:30:00 AM 3.97 39.146 0.127 7.48 20.49 13.78
1/3/2023 6:45:00 AM 3.97 39.146 0.127 7.48 18.21 13.78
1/3/2023 7:00:00 AM 3.98 39.164 0.127 7.48 18.67 13.76
1/3/2023 7:15:00 AM 3.99 39.182 0.127 7.48 19.83 13.76
1/3/2023 7:30:00 AM 4 39.2 0.127 7.47 18.85 13.75
1/3/2023 7:45:00 AM 4.01 39.218 0.127 7.47 19.62 13.75
1/3/2023 8:00:00 AM 4.01 39.218 0.127 7.47 22.16 13.76
1/3/2023 8:15:00 AM 4.02 39.236 0.127 7.47 21.44 13.74
1/3/2023 8:30:00 AM 4.03 39.254 0.127 7.47 22.06 13.73
1/3/2023 8:45:00 AM 4.04 39.272 0.127 7.47 19.75 13.73
1/3/2023 9:00:00 AM 4.05 39.29 0.126 7.47 19.82 13.73
1/3/2023 9:15:00 AM 4.06 39.308 0.126 7.47 20.61 13.71
1/3/2023 9:30:00 AM 4.08 39.344 0.126 7.46 20.4 13.71
1/3/2023 9:45:00 AM 4.09 39.362 0.126 7.46 21.77 13.69
1/3/2023 10:00:00 AM 4.1 39.38 0.126 7.46 19.49 13.69
1/3/2023 10:15:00 AM 4.11 39.398 0.126 7.46 19.34 13.69
1/3/2023 10:30:00 AM 4.13 39.434 0.126 7.46 19.63 13.64
1/3/2023 10:45:00 AM 4.14 39.452 0.126 7.46 21.68 13.66
1/3/2023 11:00:00 AM 4.15 39.47 0.126 7.46 21.12 13.68
1/3/2023 11:15:00 AM 4.17 39.506 0.126 7.46 21.49 13.67
1/3/2023 11:30:00 AM 4.18 39.524 0.126 7.46 19.2 13.66
1/3/2023 11:45:00 AM 4.19 39.542 0.126 7.46 20.34 13.67
1/3/2023 12:00:00 PM 4.21 39.578 0.126 7.46 20.8 13.65
1/3/2023 12:15:00 PM 4.22 39.596 0.126 7.46 20.24 13.65
1/3/2023 12:30:00 PM 4.24 39.632 0.126 7.46 21.48 13.67
1/3/2023 12:45:00 PM 4.22 39.596 0.131 7.41 20.08 13.75
1/3/2023 1:00:00 PM 4.25 39.65 0.128 7.43 19.37 13.73
1/3/2023 1:15:00 PM 4.29 39.722 0.126 7.46 19.46 13.68
1/3/2023 1:30:00 PM 4.32 39.776 0.126 7.46 19.2 13.64
1/3/2023 1:45:00 PM 4.35 39.83 0.127 7.47 21.44 13.62
1/3/2023 2:00:00 PM 4.2 39.56 0.135 7.45 18.05 13.86
1/3/2023 2:15:00 PM 4.23 39.614 0.135 7.42 18.1 13.89
1/3/2023 2:30:00 PM 4.34 39.812 0.128 7.44 20.91 13.77
1/3/2023 2:45:00 PM 4.41 39.938 0.126 7.46 19.63 13.64
1/3/2023 3:00:00 PM 4.43 39.974 0.126 7.47 22.32 13.61
1/3/2023 3:15:00 PM 4.45 40.01 0.126 7.48 19.16 13.59
1/3/2023 3:30:00 PM 4.47 40.046 0.126 7.48 19.52 13.58
1/3/2023 3:45:00 PM 4.49 40.082 0.126 7.48 23.73 13.56
1/3/2023 4:00:00 PM 4.5 40.1 0.127 7.49 22.18 13.56
1/3/2023 4:15:00 PM 4.51 40.118 0.128 7.5 20.85 13.56
1/3/2023 4:30:00 PM 4.53 40.154 0.128 7.5 22.86 13.55
1/3/2023 4:45:00 PM 4.55 40.19 0.129 7.5 31.13 13.56
1/3/2023 5:00:00 PM 4.55 40.19 0.129 7.51 23.4 13.55
1/3/2023 5:15:00 PM 4.56 40.208 0.128 7.51 31.1 13.54
1/3/2023 5:30:00 PM 4.56 40.208 0.128 7.51 30.37 13.53
1/3/2023 5:45:00 PM 4.56 40.208 0.127 7.51 31.92 13.54
1/3/2023 6:00:00 PM 4.56 40.208 0.127 7.5 33.2 13.53
1/3/2023 6:15:00 PM 4.57 40.226 0.126 7.5 31.26 13.53
1/3/2023 6:30:00 PM 4.58 40.244 0.126 7.5 32.81 13.54
1/3/2023 6:45:00 PM 4.43 39.974 0.135 7.44 24.13 13.77
1/3/2023 7:00:00 PM 4.5 40.1 0.131 7.42 25.66 13.69
1/3/2023 7:15:00 PM 4.59 40.262 0.127 7.47 32.67 13.55
1/3/2023 7:30:00 PM 4.63 40.334 0.125 7.48 33.56 13.52
1/3/2023 7:45:00 PM 4.64 40.352 0.125 7.49 33.32 13.51
1/3/2023 8:00:00 PM 4.66 40.388 0.125 7.49 36.24 13.5
1/3/2023 8:15:00 PM 4.68 40.424 0.125 7.49 34.13 13.5
1/3/2023 8:30:00 PM 4.7 40.46 0.125 7.5 34.08 13.48
1/3/2023 8:45:00 PM 4.71 40.478 0.125 7.5 32.57 13.49
1/3/2023 9:00:00 PM 4.72 40.496 0.125 7.5 32.36 13.47
1/3/2023 9:15:00 PM 4.74 40.532 0.125 7.5 32.89 13.46
1/3/2023 9:30:00 PM 4.74 40.532 0.125 7.5 31.86 13.45
1/3/2023 9:45:00 PM 4.76 40.568 0.125 7.5 31.89 13.44
1/3/2023 10:00:00 PM 4.77 40.586 0.125 7.5 35.38 13.44
1/3/2023 10:15:00 PM 4.78 40.604 0.125 7.5 32.54 13.45
1/3/2023 10:30:00 PM 4.79 40.622 0.124 7.5 34.13 13.44
1/3/2023 10:45:00 PM 4.8 40.64 0.124 7.5 34.86 13.42
1/3/2023 11:00:00 PM 4.81 40.658 0.124 7.5 36.7 13.4
1/3/2023 11:15:00 PM 4.82 40.676 0.124 7.5 34.86 13.41
1/3/2023 11:30:00 PM 4.83 40.694 0.124 7.5 34.7 13.41
1/3/2023 11:45:00 PM 4.83 40.694 0.123 7.5 44.42 13.4
1/4/2023 12:00:00 AM 4.84 40.712 0.123 7.5 34.03 13.39
1/4/2023 12:15:00 AM 4.85 40.73 0.123 7.5 36.02 13.38
1/4/2023 12:30:00 AM 4.86 40.748 0.122 7.49 34.66 13.4
1/4/2023 12:45:00 AM 4.87 40.766 0.122 7.49 35.89 13.38
1/4/2023 1:00:00 AM 4.89 40.802 0.122 7.49 37.82 13.38
1/4/2023 1:15:00 AM 4.89 40.802 0.121 7.49 34.44 13.37
1/4/2023 1:30:00 AM 4.9 40.82 0.121 7.49 33.47 13.38
1/4/2023 1:45:00 AM 4.9 40.82 0.121 7.49 34.6 13.37
1/4/2023 2:00:00 AM 4.91 40.838 0.121 7.49 34.06 13.37
1/4/2023 2:15:00 AM 4.91 40.838 0.12 7.48 31.21 13.36
1/4/2023 2:30:00 AM 4.92 40.856 0.12 7.48 36.49 13.34
1/4/2023 2:45:00 AM 4.92 40.856 0.12 7.48 37.06 13.36
1/4/2023 3:00:00 AM 4.93 40.874 0.12 7.48 34.83 13.33
1/4/2023 3:15:00 AM 4.93 40.874 0.119 7.48 37.79 13.32
1/4/2023 3:30:00 AM 4.93 40.874 0.119 7.48 37.08 13.32
1/4/2023 3:45:00 AM 4.93 40.874 0.119 7.48 34.48 13.32
1/4/2023 4:00:00 AM 4.94 40.892 0.118 7.48 34.22 13.32
1/4/2023 4:15:00 AM 4.93 40.874 0.118 7.47 34.46 13.31
1/4/2023 4:30:00 AM 4.94 40.892 0.118 7.47 32.03 13.31
1/4/2023 4:45:00 AM 4.95 40.91 0.118 7.47 35.95 13.3
1/4/2023 5:00:00 AM 4.95 40.91 0.117 7.47 36.63 13.3
1/4/2023 5:15:00 AM 4.95 40.91 0.117 7.47 34.8 13.29
1/4/2023 5:30:00 AM 4.96 40.928 0.116 7.47 35.98 13.29
1/4/2023 5:45:00 AM 4.97 40.946 0.116 7.47 38.7 13.28
1/4/2023 6:00:00 AM 4.97 40.946 0.116 7.46 33.79 13.28
1/4/2023 6:15:00 AM 4.98 40.964 0.116 7.46 34.89 13.28
1/4/2023 6:30:00 AM 4.99 40.982 0.115 7.46 35.66 13.27
1/4/2023 6:45:00 AM 5 41 0.115 7.46 34.99 13.28
1/4/2023 7:00:00 AM 5.01 41.018 0.114 7.46 37.97 13.27
1/4/2023 7:15:00 AM 5.01 41.018 0.114 7.46 36.72 13.27
1/4/2023 7:30:00 AM 5.02 41.036 0.113 7.45 36.55 13.26
1/4/2023 7:45:00 AM 5.03 41.054 0.113 7.45 42.45 13.26
1/4/2023 8:00:00 AM 5.03 41.054 0.113 7.45 39.06 13.26
1/4/2023 8:15:00 AM 5.04 41.072 0.113 7.45 35.58 13.24
1/4/2023 8:30:00 AM 5.05 41.09 0.112 7.45 35.5 13.25
1/4/2023 8:45:00 AM 5.05 41.09 0.112 7.45 33.5 13.24
1/4/2023 9:00:00 AM 5.07 41.126 0.112 7.44 36.29 13.25
1/4/2023 9:15:00 AM 5.07 41.126 0.112 7.45 32.57 13.27
1/4/2023 9:30:00 AM 5.08 41.144 0.111 7.45 37.8 13.26
1/4/2023 9:45:00 AM 5.09 41.162 0.111 7.45 36.87 13.26
1/4/2023 10:00:00 AM 5.1 41.18 0.111 7.44 36.46 13.26
1/4/2023 10:15:00 AM 5.11 41.198 0.111 7.44 35.52 13.25
1/4/2023 10:30:00 AM 5.12 41.216 0.111 7.44 39.53 13.27
1/4/2023 10:45:00 AM 5.14 41.252 0.111 7.44 36.75 13.25
1/4/2023 11:00:00 AM 5.15 41.27 0.111 7.44 39.32 13.24
1/4/2023 11:15:00 AM 5.16 41.288 0.111 7.44 38.32 13.27
1/4/2023 11:30:00 AM 5.17 41.306 0.111 7.44 39.34 13.24
1/4/2023 11:45:00 AM 5.18 41.324 0.111 7.45 39.02 13.24
1/4/2023 12:00:00 PM 5.2 41.36 0.111 7.44 40.98 13.24
1/4/2023 12:15:00 PM 5.21 41.378 0.111 7.45 38.62 13.24
1/4/2023 12:30:00 PM 5.22 41.396 0.111 7.45 35.72 13.22
1/4/2023 12:45:00 PM 5.23 41.414 0.111 7.45 33.7 13.21
1/4/2023 1:00:00 PM 5.24 41.432 0.116 7.45 33.13 13.27
1/4/2023 1:15:00 PM 5.07 41.126 0.126 7.39 27.26 13.52
1/4/2023 1:30:00 PM 5.21 41.378 0.115 7.4 32.91 13.37
1/4/2023 1:45:00 PM 5.27 41.486 0.113 7.43 35.57 13.25
1/4/2023 2:00:00 PM 5.3 41.54 0.112 7.44 39.99 13.22
1/4/2023 2:15:00 PM 5.31 41.558 0.111 7.44 39.57 13.21
1/4/2023 2:30:00 PM 5.33 41.594 0.111 7.44 39.44 13.21
1/4/2023 2:45:00 PM 5.35 41.63 0.111 7.44 39.3 13.19
1/4/2023 3:00:00 PM 5.36 41.648 0.111 7.44 36.52 13.2
1/4/2023 3:15:00 PM 5.38 41.684 0.111 7.44 37.27 13.19
1/4/2023 3:30:00 PM 5.39 41.702 0.111 7.44 40.84 13.19
1/4/2023 3:45:00 PM 5.4 41.72 0.111 7.44 44.25 13.19
1/4/2023 4:00:00 PM 5.41 41.738 0.11 7.44 40.76 13.17
1/4/2023 4:15:00 PM 5.43 41.774 0.11 7.44 36.97 13.17
1/4/2023 4:30:00 PM 5.44 41.792 0.11 7.44 41.46 13.16
1/4/2023 4:45:00 PM 5.46 41.828 0.109 7.44 35.91 13.16
1/4/2023 5:00:00 PM 5.47 41.846 0.109 7.43 38.95 13.14
1/4/2023 5:15:00 PM 5.49 41.882 0.108 7.43 43.66 13.14
1/4/2023 5:30:00 PM 5.51 41.918 0.108 7.43 40.18 13.13
1/4/2023 5:45:00 PM 5.53 41.954 0.107 7.43 64.5 13.13
1/4/2023 6:00:00 PM 5.55 41.99 0.107 7.42 42.83 13.12
1/4/2023 6:15:00 PM 5.57 42.026 0.107 7.42 42.59 13.11
1/4/2023 6:30:00 PM 5.58 42.044 0.106 7.42 41.89 13.1
1/4/2023 6:45:00 PM 5.6 42.08 0.106 7.43 32.64 13.08
1/4/2023 7:00:00 PM 5.61 42.098 0.105 7.42 32.09 13.07
1/4/2023 7:15:00 PM 5.62 42.116 0.105 7.42 32.51 13.07
1/4/2023 7:30:00 PM 5.64 42.152 0.104 7.42 38.13 13.05
1/4/2023 7:45:00 PM 5.66 42.188 0.104 7.41 39.03 13.05
1/4/2023 8:00:00 PM 5.68 42.224 0.103 7.4 37.8 13.05
1/4/2023 8:15:00 PM 5.7 42.26 0.103 7.4 39.59 13.03
1/4/2023 8:30:00 PM 5.71 42.278 0.102 7.4 41.34 13.03
1/4/2023 8:45:00 PM 5.73 42.314 0.102 7.4 39.34 13.01
1/4/2023 9:00:00 PM 5.74 42.332 0.101 7.39 43.18 13.02
1/4/2023 9:15:00 PM 5.76 42.368 0.101 7.39 37.73 12.99
1/4/2023 9:30:00 PM 5.77 42.386 0.101 7.39 35.56 13
1/4/2023 9:45:00 PM 5.78 42.404 0.101 7.39 41 12.99
1/4/2023 10:00:00 PM 5.8 42.44 0.1 7.38 38.66 13
1/4/2023 10:15:00 PM 5.82 42.476 0.1 7.38 43.6 12.97
1/4/2023 10:30:00 PM 5.83 42.494 0.099 7.37 48.11 12.98
1/4/2023 10:45:00 PM 5.84 42.512 0.099 7.37 60.57 13
1/4/2023 11:00:00 PM 5.86 42.548 0.099 7.37 47.98 12.96
1/4/2023 11:15:00 PM 5.87 42.566 0.099 7.36 45.43 12.95
1/4/2023 11:30:00 PM 5.88 42.584 0.099 7.36 47.15 12.95
1/4/2023 11:45:00 PM 5.9 42.62 0.099 7.36 44.56 12.94
1/5/2023 12:00:00 AM 5.91 42.638 0.098 7.36 40.76 12.94
1/5/2023 12:15:00 AM 5.91 42.638 0.098 7.36 44.44 12.93
1/5/2023 12:30:00 AM 5.92 42.656 0.098 7.36 39.31 12.92
1/5/2023 12:45:00 AM 5.94 42.692 0.098 7.35 38.46 12.92
1/5/2023 1:00:00 AM 5.95 42.71 0.098 7.35 35.81 12.91
1/5/2023 1:15:00 AM 5.96 42.728 0.098 7.35 38.07 12.9
1/5/2023 1:30:00 AM 5.96 42.728 0.098 7.34 37.58 12.89
1/5/2023 1:45:00 AM 5.97 42.746 0.098 7.34 41.61 12.88
1/5/2023 2:00:00 AM 5.98 42.764 0.097 7.34 42.33 12.88
1/5/2023 2:15:00 AM 5.8 42.44 0.113 7.35 34.31 13.18
1/5/2023 2:30:00 AM 5.64 42.152 0.118 7.29 29.46 13.31
1/5/2023 2:45:00 AM 5.94 42.692 0.1 7.31 39.54 12.99
1/5/2023 3:00:00 AM 6.01 42.818 0.097 7.33 39.16 12.88
1/5/2023 3:15:00 AM 6.03 42.854 0.096 7.33 43.6 12.87
1/5/2023 3:30:00 AM 6.04 42.872 0.096 7.33 44.68 12.86
1/5/2023 3:45:00 AM 6.05 42.89 0.101 7.32 43.25 12.84
1/5/2023 4:00:00 AM 6.06 42.908 0.096 7.32 44.54 12.85
1/5/2023 4:15:00 AM 6.06 42.908 0.096 7.32 42.09 12.85
1/5/2023 4:30:00 AM 6.07 42.926 0.096 7.32 45.01 12.84
1/5/2023 4:45:00 AM 6.08 42.944 0.095 7.32 47.74 12.84
1/5/2023 5:00:00 AM 6.09 42.962 0.095 7.32 40.58 12.83
1/5/2023 5:15:00 AM 6.1 42.98 0.095 7.32 43.25 12.83
1/5/2023 5:30:00 AM 6.11 42.998 0.095 7.32 44.71 12.81
1/5/2023 5:45:00 AM 6.12 43.016 0.095 7.31 44.76 12.82
1/5/2023 6:00:00 AM 6.12 43.016 0.095 7.32 37.13 12.81
1/5/2023 6:15:00 AM 6.12 43.016 0.094 7.31 49.12 12.81
1/5/2023 6:30:00 AM 6.13 43.034 0.094 7.31 44.39 12.8
1/5/2023 6:45:00 AM 6.13 43.034 0.094 7.31 42.57 12.81
1/5/2023 7:00:00 AM 6.14 43.052 0.094 7.31 46.43 12.79
1/5/2023 7:15:00 AM 6.14 43.052 0.094 7.31 40.95 12.79
1/5/2023 7:30:00 AM 6.14 43.052 0.094 7.31 44.76 12.79
1/5/2023 7:45:00 AM 6.14 43.052 0.094 7.3 43.54 12.79
1/5/2023 8:00:00 AM 6.15 43.07 0.094 7.3 43.49 12.78
1/5/2023 8:15:00 AM 6.15 43.07 0.093 7.3 45.08 12.77
1/5/2023 8:30:00 AM 6.16 43.088 0.093 7.3 44.6 12.77
1/5/2023 8:45:00 AM 6.16 43.088 0.093 7.3 51.6 12.76
1/5/2023 9:00:00 AM 6.17 43.106 0.093 7.3 45.01 12.76
1/5/2023 9:15:00 AM 6.17 43.106 0.093 7.3 58.06 12.75
1/5/2023 9:30:00 AM 6.18 43.124 0.093 7.29 39.77 12.76
1/5/2023 9:45:00 AM 6.19 43.142 0.093 7.3 45.06 12.76
1/5/2023 10:00:00 AM 6.2 43.16 0.093 7.29 46.2 12.75
1/5/2023 10:15:00 AM 6.22 43.196 0.093 7.29 45.59 12.75
1/5/2023 10:30:00 AM 6.23 43.214 0.093 7.29 44.32 12.76
1/5/2023 10:45:00 AM 6.25 43.25 0.093 7.29 46.22 12.76
1/5/2023 11:00:00 AM 6.27 43.286 0.093 7.29 47.22 12.75
1/5/2023 11:15:00 AM 6.28 43.304 0.099 7.28 41.81 12.76
1/5/2023 11:30:00 AM 6.32 43.376 0.093 7.3 43.64 12.74
1/5/2023 11:45:00 AM 6.34 43.412 0.092 7.29 43.22 12.74
1/5/2023 12:00:00 PM 6.36 43.448 0.092 7.3 40.54 12.73
1/5/2023 12:15:00 PM 6.39 43.502 0.092 7.3 41.08 12.73
1/5/2023 12:30:00 PM 6.42 43.556 0.092 7.3 40.51 12.74
1/5/2023 12:45:00 PM 6.44 43.592 0.092 7.29 42.45 12.73
1/5/2023 1:00:00 PM 6.32 43.376 0.103 7.3 37.86 12.93
1/5/2023 1:15:00 PM 6.1 42.98 0.109 7.25 29.92 13.13
1/5/2023 1:30:00 PM 6.43 43.574 0.095 7.27 40.38 12.84
1/5/2023 1:45:00 PM 6.51 43.718 0.093 7.29 39.1 12.74
1/5/2023 2:00:00 PM 6.53 43.754 0.093 7.29 38.77 12.74
1/5/2023 2:15:00 PM 6.55 43.79 0.093 7.29 46.6 12.72
1/5/2023 2:30:00 PM 6.57 43.826 0.093 7.29 44.82 12.73
1/5/2023 2:45:00 PM 6.58 43.844 0.093 7.3 43.17 12.72
1/5/2023 3:00:00 PM 6.58 43.844 0.093 7.3 42.86 12.71
1/5/2023 3:15:00 PM 6.56 43.808 0.093 7.3 41.55 12.72
1/5/2023 3:30:00 PM 6.55 43.79 0.093 7.3 43.93 12.7
1/5/2023 3:45:00 PM 6.56 43.808 0.093 7.3 44.19 12.72
1/5/2023 4:00:00 PM 6.56 43.808 0.093 7.3 44.16 12.72
1/5/2023 4:15:00 PM 6.57 43.826 0.093 7.3 42.99 12.72
1/5/2023 4:30:00 PM 6.59 43.862 0.093 7.3 42.73 12.7
1/5/2023 4:45:00 PM 6.61 43.898 0.093 7.3 43.57 12.71
1/5/2023 5:00:00 PM 6.61 43.898 0.093 7.3 43.82 12.71
1/5/2023 5:15:00 PM 6.62 43.916 0.093 7.3 39.21 12.71
1/5/2023 5:30:00 PM 6.63 43.934 0.093 7.3 43.89 12.71
1/5/2023 5:45:00 PM 6.63 43.934 0.094 7.3 42.8 12.72
1/5/2023 6:00:00 PM 6.64 43.952 0.094 7.3 42.09 12.71
1/5/2023 6:15:00 PM 6.65 43.97 0.094 7.3 39.91 12.7
1/5/2023 6:30:00 PM 6.66 43.988 0.094 7.3 45.76 12.7
1/5/2023 6:45:00 PM 6.66 43.988 0.094 7.31 39.83 12.69
1/5/2023 7:00:00 PM 6.67 44.006 0.094 7.31 40.71 12.7
1/5/2023 7:15:00 PM 6.68 44.024 0.094 7.3 41.2 12.7
1/5/2023 7:30:00 PM 6.69 44.042 0.094 7.31 40.73 12.7
1/5/2023 7:45:00 PM 6.7 44.06 0.095 7.31 37.95 12.69
1/5/2023 8:00:00 PM 6.71 44.078 0.095 7.32 44.97 12.71
1/5/2023 8:15:00 PM 6.55 43.79 0.104 7.32 35.84 12.9
1/5/2023 8:30:00 PM 6.44 43.592 0.106 7.25 31.67 13.03
1/5/2023 8:45:00 PM 6.65 43.97 0.097 7.27 35.65 12.8
1/5/2023 9:00:00 PM 6.71 44.078 0.096 7.3 41.01 12.7
1/5/2023 9:15:00 PM 6.72 44.096 0.095 7.31 38.84 12.7
1/5/2023 9:30:00 PM 6.72 44.096 0.096 7.31 37.3 12.7
1/5/2023 9:45:00 PM 6.73 44.114 0.096 7.31 33.75 12.66
1/5/2023 10:00:00 PM 6.73 44.114 0.096 7.32 39.06 12.64
1/5/2023 10:15:00 PM 6.73 44.114 0.096 7.32 40.34 12.65
1/5/2023 10:30:00 PM 6.74 44.132 0.096 7.32 38.64 12.65
1/5/2023 10:45:00 PM 6.74 44.132 0.096 7.32 34.74 12.65
1/5/2023 11:00:00 PM 6.74 44.132 0.096 7.32 37.32 12.65
1/5/2023 11:15:00 PM 6.75 44.15 0.096 7.32 38.46 12.66
1/5/2023 11:30:00 PM 6.75 44.15 0.097 7.32 36.77 12.66
1/5/2023 11:45:00 PM 6.75 44.15 0.097 7.32 36.33 12.64
1/6/2023 12:00:00 AM 6.76 44.168 0.097 7.32 33.55 12.65
1/6/2023 12:15:00 AM 6.76 44.168 0.097 7.32 33.1 12.59
1/6/2023 12:30:00 AM 6.76 44.168 0.097 7.32 36.5 12.63
1/6/2023 12:45:00 AM 6.75 44.15 0.097 7.32 34.73 12.64
1/6/2023 1:00:00 AM 6.75 44.15 0.099 7.31 36.32 12.71
1/6/2023 1:15:00 AM 6.74 44.132 0.097 7.32 37.29 12.65
1/6/2023 1:30:00 AM 6.73 44.114 0.097 7.32 39.61 12.65
1/6/2023 1:45:00 AM 6.73 44.114 0.097 7.32 34.31 12.65
1/6/2023 2:00:00 AM 6.72 44.096 0.097 7.32 39.4 12.64
1/6/2023 2:15:00 AM 6.72 44.096 0.097 7.32 39.98 12.64
1/6/2023 2:30:00 AM 6.72 44.096 0.097 7.32 38.49 12.64
1/6/2023 2:45:00 AM 6.71 44.078 0.097 7.32 39.19 12.64
1/6/2023 3:00:00 AM 6.71 44.078 0.097 7.32 39.52 12.62
1/6/2023 3:15:00 AM 6.71 44.078 0.097 7.32 38.14 12.65
1/6/2023 3:30:00 AM 6.7 44.06 0.097 7.32 37.88 12.64
1/6/2023 3:45:00 AM 6.7 44.06 0.098 7.32 38.67 12.63
1/6/2023 4:00:00 AM 6.7 44.06 0.098 7.32 40.41 12.64
1/6/2023 4:15:00 AM 6.69 44.042 0.099 7.31 37.05 12.7
1/6/2023 4:30:00 AM 6.69 44.042 0.098 7.31 41.64 12.64
1/6/2023 4:45:00 AM 6.68 44.024 0.098 7.31 38.09 12.62
1/6/2023 5:00:00 AM 6.68 44.024 0.098 7.32 40.47 12.64
1/6/2023 5:15:00 AM 6.68 44.024 0.098 7.32 42.67 12.63
1/6/2023 5:30:00 AM 6.68 44.024 0.098 7.31 42.38 12.62
1/6/2023 5:45:00 AM 6.68 44.024 0.098 7.31 42.36 12.64
1/6/2023 6:00:00 AM 6.68 44.024 0.098 7.32 42.25 12.62
1/6/2023 6:15:00 AM 6.68 44.024 0.099 7.32 39.07 12.62
1/6/2023 6:30:00 AM 6.68 44.024 0.099 7.32 37.45 12.63
1/6/2023 6:45:00 AM 6.68 44.024 0.099 7.32 36.19 12.64
1/6/2023 7:00:00 AM 6.67 44.006 0.099 7.32 41.89 12.62
1/6/2023 7:15:00 AM 6.67 44.006 0.099 7.32 40.58 12.61
1/6/2023 7:30:00 AM 6.66 43.988 0.099 7.32 38.07 12.62
1/6/2023 7:45:00 AM 6.66 43.988 0.099 7.32 39.6 12.63
1/6/2023 8:00:00 AM 6.65 43.97 0.099 7.32 40.5 12.63
1/6/2023 8:15:00 AM 6.65 43.97 0.099 7.32 36.9 12.63
1/6/2023 8:30:00 AM 6.65 43.97 0.099 7.32 40.31 12.62
1/6/2023 8:45:00 AM 6.64 43.952 0.099 7.32 37.39 12.63
1/6/2023 9:00:00 AM 6.64 43.952 0.1 7.32 41.61 12.69
1/6/2023 9:15:00 AM 6.64 43.952 0.1 7.32 35.86 12.64
1/6/2023 9:30:00 AM 6.63 43.934 0.1 7.33 41.86 12.63
1/6/2023 9:45:00 AM 6.63 43.934 0.099 7.33 38 12.65
1/6/2023 10:00:00 AM 6.63 43.934 0.1 7.33 40.17 12.65
1/6/2023 10:15:00 AM 6.63 43.934 0.1 7.33 38.62 12.66
1/6/2023 10:30:00 AM 6.63 43.934 0.1 7.33 39.42 12.64
1/6/2023 10:45:00 AM 6.63 43.934 0.1 7.33 40.19 12.66
1/6/2023 11:00:00 AM 6.63 43.934 0.1 7.34 36.08 12.66
1/6/2023 11:15:00 AM 6.64 43.952 0.1 7.34 33.69 12.65
1/6/2023 11:30:00 AM 6.64 43.952 0.1 7.34 34.91 12.64
1/6/2023 11:45:00 AM 6.64 43.952 0.1 7.34 37.82 12.63
1/6/2023 12:00:00 PM 6.64 43.952 0.1 7.34 35.88 12.63
1/6/2023 12:15:00 PM 6.64 43.952 0.1 7.34 36.96 12.63
1/6/2023 12:30:00 PM 6.64 43.952 0.1 7.34 36.48 12.63
1/6/2023 12:45:00 PM 6.64 43.952 0.1 7.34 36.13 12.68
1/6/2023 1:00:00 PM 6.65 43.97 0.1 7.34 38.71 12.66
1/6/2023 1:15:00 PM 6.66 43.988 0.1 7.34 38.97 12.67
1/6/2023 1:30:00 PM 6.65 43.97 0.1 7.34 40.91 12.68
1/6/2023 1:45:00 PM 6.65 43.97 0.099 7.34 36.19 12.69
1/6/2023 2:00:00 PM 6.65 43.97 0.099 7.34 34.85 12.66
1/6/2023 2:15:00 PM 6.65 43.97 0.099 7.35 30.11 12.69
1/6/2023 2:30:00 PM 6.41 43.538 0.116 7.35 26.62 13.11
1/6/2023 2:45:00 PM 6.61 43.898 0.11 7.32 27.05 12.99
1/6/2023 3:00:00 PM 6.65 43.97 0.1 7.35 32.74 12.73
1/6/2023 3:15:00 PM 6.65 43.97 0.099 7.35 30.87 12.72
1/6/2023 3:30:00 PM 6.65 43.97 0.099 7.35 31.35 12.7
1/6/2023 3:45:00 PM 6.63 43.934 0.099 7.35 34.4 12.7
1/6/2023 4:00:00 PM 6.62 43.916 0.099 7.35 31.33 12.7
1/6/2023 4:15:00 PM 6.61 43.898 0.099 7.36 30.51 12.72
1/6/2023 4:30:00 PM 6.59 43.862 0.099 7.36 32.48 12.71
1/6/2023 4:45:00 PM 6.58 43.844 0.099 7.36 33.41 12.71
1/6/2023 5:00:00 PM 6.56 43.808 0.099 7.36 30.69 12.71
1/6/2023 5:15:00 PM 6.55 43.79 0.099 7.36 34.89 12.73
1/6/2023 5:30:00 PM 6.54 43.772 0.099 7.36 33.24 12.75
1/6/2023 5:45:00 PM 6.53 43.754 0.099 7.37 33.33 12.75
1/6/2023 6:00:00 PM 6.53 43.754 0.099 7.37 33.58 12.74
1/6/2023 6:15:00 PM 6.52 43.736 0.099 7.37 32.61 12.74
1/6/2023 6:30:00 PM 6.51 43.718 0.099 7.37 33.45 12.76
1/6/2023 6:45:00 PM 6.5 43.7 0.099 7.37 36.73 12.77
1/6/2023 7:00:00 PM 6.49 43.682 0.099 7.37 30.89 12.75
1/6/2023 7:15:00 PM 6.48 43.664 0.099 7.37 33.96 12.74
1/6/2023 7:30:00 PM 6.48 43.664 0.099 7.37 31.38 12.75
1/6/2023 7:45:00 PM 6.47 43.646 0.099 7.37 29.08 12.74
1/6/2023 8:00:00 PM 6.46 43.628 0.099 7.37 32.53 12.72
1/6/2023 8:15:00 PM 6.45 43.61 0.099 7.37 34.4 12.72
1/6/2023 8:30:00 PM 6.45 43.61 0.1 7.37 30.56 12.74
1/6/2023 8:45:00 PM 6.44 43.592 0.1 7.38 32.32 12.74
1/6/2023 9:00:00 PM 6.43 43.574 0.1 7.37 31.61 12.75
1/6/2023 9:15:00 PM 6.41 43.538 0.1 7.37 35.28 12.79
1/6/2023 9:30:00 PM 6.4 43.52 0.099 7.38 32.68 12.8
1/6/2023 9:45:00 PM 6.39 43.502 0.099 7.38 34.24 12.8
1/6/2023 10:00:00 PM 6.38 43.484 0.1 7.38 32.26 12.8
1/6/2023 10:15:00 PM 6.37 43.466 0.099 7.38 31.92 12.81
1/6/2023 10:30:00 PM 6.36 43.448 0.1 7.38 33.15 12.82
1/6/2023 10:45:00 PM 6.35 43.43 0.1 7.38 32.58 12.82
1/6/2023 11:00:00 PM 6.34 43.412 0.099 7.38 31.69 12.81
1/6/2023 11:15:00 PM 6.33 43.394 0.099 7.38 33.72 12.82
1/6/2023 11:30:00 PM 6.32 43.376 0.1 7.38 32.71 12.82
1/6/2023 11:45:00 PM 6.31 43.358 0.099 7.38 33.72 12.83
1/7/2023 12:00:00 AM 6.3 43.34 0.1 7.39 30.6 12.83
1/7/2023 12:15:00 AM 6.29 43.322 0.1 7.39 34.61 12.83
1/7/2023 12:30:00 AM 6.28 43.304 0.1 7.39 33.66 12.84
1/7/2023 12:45:00 AM 6.27 43.286 0.1 7.39 32.71 12.85
1/7/2023 1:00:00 AM 6.26 43.268 0.1 7.39 33.73 12.85
1/7/2023 1:15:00 AM 6.25 43.25 0.1 7.39 34.56 12.82
1/7/2023 1:30:00 AM 6.23 43.214 0.1 7.39 33.25 12.84
1/7/2023 1:45:00 AM 6.22 43.196 0.1 7.38 31.65 12.86
1/7/2023 2:00:00 AM 6.21 43.178 0.1 7.39 33.65 12.85
1/7/2023 2:15:00 AM 6.2 43.16 0.1 7.39 33.85 12.87
1/7/2023 2:30:00 AM 6.26 43.268 0.11 7.33 26.57 13.18
1/7/2023 2:45:00 AM 6.28 43.304 0.106 7.3 24.38 13.1
1/7/2023 3:00:00 AM 6.19 43.142 0.101 7.36 27.83 12.88
1/7/2023 3:15:00 AM 6.17 43.106 0.1 7.37 27.6 12.86
1/7/2023 3:30:00 AM 6.15 43.07 0.1 7.38 30.21 12.86
1/7/2023 3:45:00 AM 6.14 43.052 0.1 7.38 30.61 12.86
1/7/2023 4:00:00 AM 6.13 43.034 0.1 7.39 30.68 12.88
1/7/2023 4:15:00 AM 6.12 43.016 0.1 7.39 30.99 12.89
1/7/2023 4:30:00 AM 6.11 42.998 0.1 7.39 31.71 12.88
1/7/2023 4:45:00 AM 6.1 42.98 0.101 7.39 30.05 12.88
1/7/2023 5:00:00 AM 6.09 42.962 0.101 7.39 31.18 12.89
1/7/2023 5:15:00 AM 6.08 42.944 0.101 7.39 30.67 12.9
1/7/2023 5:30:00 AM 6.07 42.926 0.101 7.39 29.19 12.88
1/7/2023 5:45:00 AM 6.06 42.908 0.101 7.39 29.39 12.9
1/7/2023 6:00:00 AM 6.07 42.926 0.101 7.39 27.63 12.89
1/7/2023 6:15:00 AM 6.04 42.872 0.101 7.39 28.85 12.87
1/7/2023 6:30:00 AM 6.03 42.854 0.101 7.39 32.25 12.89
1/7/2023 6:45:00 AM 6.02 42.836 0.101 7.39 29.64 12.9
1/7/2023 7:00:00 AM 6.01 42.818 0.101 7.39 28.93 12.91
1/7/2023 7:15:00 AM 6 42.8 0.101 7.39 29.78 12.89
1/7/2023 7:30:00 AM 5.99 42.782 0.101 7.39 30.29 12.92
1/7/2023 7:45:00 AM 5.98 42.764 0.101 7.39 28.61 12.89
1/7/2023 8:00:00 AM 5.97 42.746 0.101 7.39 29.08 12.89
1/7/2023 8:15:00 AM 5.96 42.728 0.101 7.39 29.36 12.91
1/7/2023 8:30:00 AM 5.95 42.71 0.101 7.39 29.42 12.93
1/7/2023 8:45:00 AM 5.94 42.692 0.101 7.39 29.42 12.91
1/7/2023 9:00:00 AM 5.93 42.674 0.101 7.39 29.62 12.91
1/7/2023 9:15:00 AM 5.94 42.692 0.102 7.39 28 12.92
1/7/2023 9:30:00 AM 5.92 42.656 0.102 7.39 30.17 12.94
1/7/2023 9:45:00 AM 5.91 42.638 0.102 7.4 31.61 12.96
1/7/2023 10:00:00 AM 5.91 42.638 0.102 7.4 30.72 12.96
1/7/2023 10:15:00 AM 5.91 42.638 0.102 7.4 30.82 12.97
1/7/2023 10:30:00 AM 5.91 42.638 0.102 7.4 30.96 12.97
1/7/2023 10:45:00 AM 6.07 42.926 0.11 7.39 26.55 13.16
1/7/2023 11:00:00 AM 6.13 43.034 0.111 7.31 24.62 13.23
1/7/2023 11:15:00 AM 5.96 42.728 0.103 7.36 31.44 13.02
1/7/2023 11:30:00 AM 5.93 42.674 0.102 7.38 32.75 12.98
1/7/2023 11:45:00 AM 5.93 42.674 0.102 7.39 29.89 12.99
1/7/2023 12:00:00 PM 5.92 42.656 0.102 7.4 28.93 12.97
1/7/2023 12:15:00 PM 5.91 42.638 0.102 7.4 28.28 12.98
1/7/2023 12:30:00 PM 5.91 42.638 0.102 7.4 28.49 12.97
1/7/2023 12:45:00 PM 5.91 42.638 0.103 7.4 28.65 13
1/7/2023 1:00:00 PM 5.92 42.656 0.103 7.4 28.26 12.99
1/7/2023 1:15:00 PM 5.92 42.656 0.102 7.4 29.09 13
1/7/2023 1:30:00 PM 5.92 42.656 0.102 7.4 30.1 13.02
1/7/2023 1:45:00 PM 5.92 42.656 0.103 7.4 29.12 13.02
1/7/2023 2:00:00 PM 5.92 42.656 0.103 7.41 29.92 13.03
1/7/2023 2:15:00 PM 5.92 42.656 0.103 7.41 30.59 13.03
1/7/2023 2:30:00 PM 5.92 42.656 0.103 7.41 31.76 13.04
1/7/2023 2:45:00 PM 5.91 42.638 0.103 7.41 33.18 13.04
1/7/2023 3:00:00 PM 5.91 42.638 0.103 7.41 31.88 13.04
1/7/2023 3:15:00 PM 5.91 42.638 0.103 7.41 33.76 13.04
1/7/2023 3:30:00 PM 5.91 42.638 0.103 7.41 28.7 13.05
1/7/2023 3:45:00 PM 5.91 42.638 0.103 7.41 30.32 13.04
1/7/2023 4:00:00 PM 5.9 42.62 0.103 7.41 31.91 13.05
1/7/2023 4:15:00 PM 5.9 42.62 0.103 7.41 31.11 13.07
1/7/2023 4:30:00 PM 5.89 42.602 0.103 7.41 31.46 13.07
1/7/2023 4:45:00 PM 5.89 42.602 0.103 7.41 30.12 13.04
1/7/2023 5:00:00 PM 5.89 42.602 0.103 7.41 28.74 13.06
1/7/2023 5:15:00 PM 5.89 42.602 0.103 7.41 29.87 13.03
1/7/2023 5:30:00 PM 5.88 42.584 0.103 7.41 32.66 13.07
1/7/2023 5:45:00 PM 6.01 42.818 0.11 7.41 29.37 13.2
1/7/2023 6:00:00 PM 6.06 42.908 0.112 7.33 25.73 13.29
1/7/2023 6:15:00 PM 5.9 42.62 0.105 7.36 31.07 13.14
1/7/2023 6:30:00 PM 5.85 42.53 0.103 7.4 32.65 13.09
1/7/2023 6:45:00 PM 5.84 42.512 0.103 7.41 29.84 13.1
1/7/2023 7:00:00 PM 5.83 42.494 0.103 7.41 30.23 13.1
1/7/2023 7:15:00 PM 5.82 42.476 0.103 7.41 31.68 13.1
1/7/2023 7:30:00 PM 5.82 42.476 0.103 7.42 30.16 13.12
1/7/2023 7:45:00 PM 5.81 42.458 0.103 7.42 31.61 13.11
1/7/2023 8:00:00 PM 5.8 42.44 0.104 7.42 32.2 13.12
1/7/2023 8:15:00 PM 5.8 42.44 0.104 7.42 30.48 13.13
1/7/2023 8:30:00 PM 5.79 42.422 0.104 7.42 29.54 13.13
1/7/2023 8:45:00 PM 5.78 42.404 0.104 7.42 30.97 13.13
1/7/2023 9:00:00 PM 5.78 42.404 0.104 7.42 30.77 13.12
1/7/2023 9:15:00 PM 5.77 42.386 0.104 7.42 31.24 13.14
1/7/2023 9:30:00 PM 5.77 42.386 0.104 7.42 29.59 13.13
1/7/2023 9:45:00 PM 5.77 42.386 0.104 7.42 30.27 13.13
1/7/2023 10:00:00 PM 5.77 42.386 0.104 7.42 31.49 13.13
1/7/2023 10:15:00 PM 5.76 42.368 0.104 7.43 31.29 13.14
1/7/2023 10:30:00 PM 5.76 42.368 0.104 7.43 30.97 13.14
1/7/2023 10:45:00 PM 5.75 42.35 0.104 7.43 31.12 13.15
1/7/2023 11:00:00 PM 5.74 42.332 0.104 7.43 30.68 13.15
1/7/2023 11:15:00 PM 5.73 42.314 0.103 7.43 32.31 13.15
1/7/2023 11:30:00 PM 5.72 42.296 0.103 7.43 32.32 13.15
1/7/2023 11:45:00 PM 5.71 42.278 0.103 7.43 31.7 13.15
1/8/2023 12:00:00 AM 5.71 42.278 0.103 7.43 31.31 13.15
1/8/2023 12:15:00 AM 5.7 42.26 0.103 7.43 31.24 13.14
1/8/2023 12:30:00 AM 5.69 42.242 0.103 7.43 31.38 13.14
1/8/2023 12:45:00 AM 5.68 42.224 0.103 7.43 31.83 13.16
1/8/2023 1:00:00 AM 5.67 42.206 0.103 7.43 33.12 13.16
1/8/2023 1:15:00 AM 5.66 42.188 0.103 7.43 31.88 13.17
1/8/2023 1:30:00 AM 5.65 42.17 0.103 7.43 30.82 13.13
1/8/2023 1:45:00 AM 5.64 42.152 0.103 7.43 31.13 13.15
1/8/2023 2:00:00 AM 5.63 42.134 0.103 7.43 29.61 13.17
1/8/2023 2:15:00 AM 5.62 42.116 0.103 7.43 31.24 13.15
1/8/2023 2:30:00 AM 5.61 42.098 0.103 7.43 31.01 13.16
1/8/2023 2:45:00 AM 5.6 42.08 0.103 7.42 30.14 13.16
1/8/2023 3:00:00 AM 5.59 42.062 0.103 7.42 31.64 13.14
1/8/2023 3:15:00 AM 5.58 42.044 0.103 7.42 30.37 13.15
1/8/2023 3:30:00 AM 5.57 42.026 0.103 7.43 31.1 13.16
1/8/2023 3:45:00 AM 5.56 42.008 0.103 7.42 31.26 13.15
1/8/2023 4:00:00 AM 5.55 41.99 0.103 7.43 30.14 13.16
1/8/2023 4:15:00 AM 5.54 41.972 0.103 7.42 30.1 13.17
1/8/2023 4:30:00 AM 5.53 41.954 0.103 7.42 30.4 13.15
1/8/2023 4:45:00 AM 5.52 41.936 0.103 7.42 31.02 13.16
1/8/2023 5:00:00 AM 5.51 41.918 0.103 7.42 31.76 13.15
1/8/2023 5:15:00 AM 5.49 41.882 0.103 7.42 30.99 13.17
1/8/2023 5:30:00 AM 5.49 41.882 0.103 7.42 30.61 13.16
1/8/2023 5:45:00 AM 5.48 41.864 0.103 7.42 31.13 13.17
1/8/2023 6:00:00 AM 5.47 41.846 0.103 7.42 31.48 13.17
1/8/2023 6:15:00 AM 5.46 41.828 0.103 7.42 31.17 13.15
1/8/2023 6:30:00 AM 5.46 41.828 0.103 7.42 32.41 13.18
1/8/2023 6:45:00 AM 5.45 41.81 0.103 7.42 31.22 13.16
1/8/2023 7:00:00 AM 5.44 41.792 0.103 7.42 32.11 13.18
1/8/2023 7:15:00 AM 5.43 41.774 0.104 7.42 32.26 13.16
1/8/2023 7:30:00 AM 5.42 41.756 0.104 7.42 32.67 13.17
1/8/2023 7:45:00 AM 5.4 41.72 0.104 7.42 32.2 13.2
1/8/2023 8:00:00 AM 5.39 41.702 0.104 7.41 33.13 13.19
1/8/2023 8:15:00 AM 5.38 41.684 0.104 7.42 32.63 13.19
1/8/2023 8:30:00 AM 5.37 41.666 0.104 7.42 32.44 13.21
1/8/2023 8:45:00 AM 5.36 41.648 0.104 7.42 33.36 13.2
1/8/2023 9:00:00 AM 5.35 41.63 0.104 7.42 32.88 13.21
1/8/2023 9:15:00 AM 5.35 41.63 0.104 7.42 32.76 13.23
1/8/2023 9:30:00 AM 5.34 41.612 0.104 7.42 32.92 13.2
1/8/2023 9:45:00 AM 5.33 41.594 0.105 7.42 33.41 13.21
1/8/2023 10:00:00 AM 5.33 41.594 0.105 7.42 33.48 13.19
1/8/2023 10:15:00 AM 5.34 41.612 0.105 7.42 33.64 13.24
1/8/2023 10:30:00 AM 5.34 41.612 0.105 7.42 33.59 13.22
1/8/2023 10:45:00 AM 5.34 41.612 0.105 7.42 34.08 13.2
1/8/2023 11:00:00 AM 5.35 41.63 0.105 7.43 33.5 13.23
1/8/2023 11:15:00 AM 5.35 41.63 0.105 7.43 33.49 13.2
1/8/2023 11:30:00 AM 5.36 41.648 0.105 7.43 34.97 13.25
1/8/2023 11:45:00 AM 5.37 41.666 0.106 7.43 33.78 13.25
1/8/2023 12:00:00 PM 5.38 41.684 0.106 7.43 34.73 13.24
1/8/2023 12:15:00 PM 5.38 41.684 0.106 7.43 34.14 13.25
1/8/2023 12:30:00 PM 5.38 41.684 0.106 7.43 34.23 13.26
1/8/2023 12:45:00 PM 5.4 41.72 0.106 7.43 34.58 13.26
1/8/2023 1:00:00 PM 5.42 41.756 0.106 7.43 37.87 13.28
1/8/2023 1:15:00 PM 5.44 41.792 0.106 7.43 34.96 13.28
1/8/2023 1:30:00 PM 5.45 41.81 0.106 7.43 35.48 13.3
1/8/2023 1:45:00 PM 5.46 41.828 0.107 7.43 34.96 13.29
1/8/2023 2:00:00 PM 5.46 41.828 0.107 7.43 34.7 13.3
1/8/2023 2:15:00 PM 5.46 41.828 0.107 7.44 35.63 13.3
1/8/2023 2:30:00 PM 5.47 41.846 0.107 7.44 37.01 13.31
1/8/2023 2:45:00 PM 5.47 41.846 0.107 7.44 35.27 13.3
1/8/2023 3:00:00 PM 5.47 41.846 0.107 7.44 35.16 13.32
1/8/2023 3:15:00 PM 5.48 41.864 0.107 7.45 35.18 13.31
1/8/2023 3:30:00 PM 5.47 41.846 0.108 7.45 35.27 13.32
1/8/2023 3:45:00 PM 5.47 41.846 0.108 7.44 35.12 13.32
1/8/2023 4:00:00 PM 5.46 41.828 0.108 7.45 35.73 13.31
1/8/2023 4:15:00 PM 5.45 41.81 0.108 7.45 35.57 13.33
1/8/2023 4:30:00 PM 5.44 41.792 0.108 7.45 35.45 13.33
1/8/2023 4:45:00 PM 5.44 41.792 0.108 7.44 35.64 13.34
1/8/2023 5:00:00 PM 5.43 41.774 0.108 7.44 36.45 13.32
1/8/2023 5:15:00 PM 5.42 41.756 0.108 7.44 36.21 13.35
1/8/2023 5:30:00 PM 5.41 41.738 0.108 7.45 36.19 13.34
1/8/2023 5:45:00 PM 5.4 41.72 0.108 7.45 36.74 13.36
1/8/2023 6:00:00 PM 5.38 41.684 0.108 7.45 36.76 13.36
1/8/2023 6:15:00 PM 5.36 41.648 0.108 7.45 38.2 13.38
1/8/2023 6:30:00 PM 5.35 41.63 0.108 7.45 37.92 13.37
1/8/2023 6:45:00 PM 5.34 41.612 0.108 7.45 37.28 13.37
1/8/2023 7:00:00 PM 5.34 41.612 0.108 7.46 37.6 13.38
1/8/2023 7:15:00 PM 5.34 41.612 0.109 7.46 38.02 13.4
1/8/2023 7:30:00 PM 5.33 41.594 0.109 7.46 39.24 13.37
1/8/2023 7:45:00 PM 5.32 41.576 0.109 7.46 21.13 13.39
1/8/2023 8:00:00 PM 5.31 41.558 0.109 7.46 21.06 13.38
1/8/2023 8:15:00 PM 5.3 41.54 0.109 7.46 22.18 13.4
1/8/2023 8:30:00 PM 5.29 41.522 0.109 7.46 21.31 13.39
1/8/2023 8:45:00 PM 5.28 41.504 0.109 7.46 21.82 13.4
1/8/2023 9:00:00 PM 5.55 41.99 0.116 7.41 19.96 13.41
1/8/2023 9:15:00 PM 5.48 41.864 0.115 7.36 19.33 13.29
1/8/2023 9:30:00 PM 5.33 41.594 0.11 7.42 21.41 13.41
1/8/2023 9:45:00 PM 5.27 41.486 0.109 7.44 21.49 13.41
1/8/2023 10:00:00 PM 5.24 41.432 0.109 7.45 22.47 13.41
1/8/2023 10:15:00 PM 5.23 41.414 0.11 7.46 23.2 13.41
1/8/2023 10:30:00 PM 5.22 41.396 0.11 7.45 23.51 13.42
1/8/2023 10:45:00 PM 5.21 41.378 0.11 7.46 22.68 13.4
1/8/2023 11:00:00 PM 5.2 41.36 0.11 7.46 22.97 13.42
1/8/2023 11:15:00 PM 5.18 41.324 0.11 7.46 22.47 13.42
1/8/2023 11:30:00 PM 5.16 41.288 0.11 7.46 21.86 13.42
1/8/2023 11:45:00 PM 5.14 41.252 0.11 7.46 22.46 13.41
1/9/2023 12:00:00 AM 5.13 41.234 0.11 7.46 22.75 13.43
1/9/2023 12:15:00 AM 5.11 41.198 0.11 7.46 22.85 13.42
1/9/2023 12:30:00 AM 5.1 41.18 0.11 7.47 22.83 13.43
1/9/2023 12:45:00 AM 5.09 41.162 0.11 7.47 22.26 13.43
1/9/2023 1:00:00 AM 5.08 41.144 0.11 7.47 22.32 13.41
1/9/2023 1:15:00 AM 5.07 41.126 0.11 7.47 22.26 13.43
1/9/2023 1:30:00 AM 5.06 41.108 0.111 7.47 22.35 13.43
1/9/2023 1:45:00 AM 5.05 41.09 0.111 7.46 22.58 13.41
1/9/2023 2:00:00 AM 5.04 41.072 0.111 7.47 23.65 13.41
1/9/2023 2:15:00 AM 5.3 41.54 0.118 7.45 19.71 13.55
1/9/2023 2:30:00 AM 5.32 41.576 0.118 7.37 18.79 13.52
1/9/2023 2:45:00 AM 5.1 41.18 0.112 7.38 21.72 13.4
1/9/2023 3:00:00 AM 5.03 41.054 0.111 7.43 21.76 13.4
1/9/2023 3:15:00 AM 5 41 0.111 7.43 21.39 13.38
1/9/2023 3:30:00 AM 4.99 40.982 0.111 7.44 21.06 13.39
1/9/2023 3:45:00 AM 4.98 40.964 0.111 7.45 22.09 13.4
1/9/2023 4:00:00 AM 4.97 40.946 0.111 7.45 21.49 13.41
1/9/2023 4:15:00 AM 4.96 40.928 0.111 7.46 23.07 13.41
1/9/2023 4:30:00 AM 4.94 40.892 0.112 7.46 21.87 13.41
1/9/2023 4:45:00 AM 4.93 40.874 0.112 7.46 21.74 13.4
1/9/2023 5:00:00 AM 4.91 40.838 0.112 7.46 22.16 13.39
1/9/2023 5:15:00 AM 4.9 40.82 0.112 7.46 20.97 13.4
1/9/2023 5:30:00 AM 4.89 40.802 0.112 7.46 21.37 13.41
1/9/2023 5:45:00 AM 4.87 40.766 0.112 7.46 21.85 13.41
1/9/2023 6:00:00 AM 4.85 40.73 0.112 7.46 21.98 13.41
1/9/2023 6:15:00 AM 4.83 40.694 0.112 7.46 22.43 13.41
1/9/2023 6:30:00 AM 4.81 40.658 0.112 7.47 21.84 13.41
1/9/2023 6:45:00 AM 4.78 40.604 0.112 7.46 23.21 13.42
1/9/2023 7:00:00 AM 4.76 40.568 0.112 7.46 22.04 13.41
1/9/2023 7:15:00 AM 4.74 40.532 0.112 7.46 21.78 13.42
1/9/2023 7:30:00 AM 4.72 40.496 0.112 7.46 22.28 13.42
1/9/2023 7:45:00 AM 4.71 40.478 0.113 7.46 22.42 13.42
1/9/2023 8:00:00 AM 4.69 40.442 0.113 7.46 22.33 13.42
1/9/2023 8:15:00 AM 4.68 40.424 0.113 7.46 21.94 13.42
1/9/2023 8:30:00 AM 4.67 40.406 0.113 7.45 21.88 13.38
1/9/2023 8:45:00 AM 4.66 40.388 0.113 7.46 22.7 13.43
1/9/2023 9:00:00 AM 4.64 40.352 0.113 7.46 23.05 13.44
1/9/2023 9:15:00 AM 4.63 40.334 0.113 7.47 22.59 13.44
1/9/2023 9:30:00 AM 4.63 40.334 0.113 7.47 22.48 13.45
1/9/2023 9:45:00 AM 4.63 40.334 0.113 7.47 22.04 13.46
1/9/2023 10:00:00 AM 4.63 40.334 0.114 7.47 22.53 13.46
1/9/2023 10:15:00 AM 4.62 40.316 0.114 7.47 22.39 13.47
1/9/2023 10:30:00 AM 4.63 40.334 0.114 7.47 22.76 13.47
1/9/2023 10:45:00 AM 4.69 40.442 0.114 7.47 22.59 13.49
1/9/2023 11:00:00 AM 5.01 41.018 0.121 7.43 20.44 13.69
1/9/2023 11:15:00 AM 4.84 40.712 0.116 7.4 21.31 13.55
1/9/2023 11:30:00 AM 4.69 40.442 0.114 7.45 22.61 13.49
1/9/2023 11:45:00 AM 4.69 40.442 0.114 7.46 23.26 13.5
1/9/2023 12:00:00 PM 4.7 40.46 0.114 7.47 24 13.5
1/9/2023 12:15:00 PM 4.72 40.496 0.113 7.47 22.66 13.51
1/9/2023 12:30:00 PM 4.75 40.55 0.113 7.48 22.92 13.52
1/9/2023 12:45:00 PM 4.77 40.586 0.113 7.48 22.93 13.53
1/9/2023 1:00:00 PM 4.79 40.622 0.113 7.48 22.54 13.54
1/9/2023 1:15:00 PM 4.81 40.658 0.113 7.48 22.2 13.54
1/9/2023 1:30:00 PM 4.83 40.694 0.113 7.48 22.91 13.55
1/9/2023 1:45:00 PM 4.86 40.748 0.113 7.48 22.84 13.55
1/9/2023 2:00:00 PM 4.9 40.82 0.113 7.48 22.86 13.56
1/9/2023 2:15:00 PM 4.91 40.838 0.113 7.49 22.46 13.56
1/9/2023 2:30:00 PM 4.93 40.874 0.113 7.49 23.11 13.57
1/9/2023 2:45:00 PM 4.94 40.892 0.113 7.49 22.94 13.57
1/9/2023 3:00:00 PM 4.95 40.91 0.113 7.49 22.8 13.58
1/9/2023 3:15:00 PM 4.95 40.91 0.113 7.49 22.63 13.58
1/9/2023 3:30:00 PM 4.95 40.91 0.113 7.49 22.72 13.59
1/9/2023 3:45:00 PM 4.94 40.892 0.113 7.49 23.1 13.6
1/9/2023 4:00:00 PM 4.95 40.91 0.113 7.49 22.58 13.56
1/9/2023 4:15:00 PM 4.95 40.91 0.114 7.49 22.44 13.57
1/9/2023 4:30:00 PM 4.95 40.91 0.114 7.49 22.73 13.58
1/9/2023 4:45:00 PM 4.94 40.892 0.114 7.5 23.35 13.58
1/9/2023 5:00:00 PM 4.92 40.856 0.114 7.5 22.85 13.59
1/9/2023 5:15:00 PM 4.9 40.82 0.114 7.5 21.96 13.61
1/9/2023 5:30:00 PM 4.89 40.802 0.114 7.5 21.95 13.53
1/9/2023 5:45:00 PM 4.87 40.766 0.114 7.5 22.08 13.59
1/9/2023 6:00:00 PM 4.84 40.712 0.114 7.5 21.98 13.59
1/9/2023 6:15:00 PM 4.82 40.676 0.114 7.5 21.86 13.6
1/9/2023 6:30:00 PM 4.8 40.64 0.114 7.5 21.96 13.61
1/9/2023 6:45:00 PM 4.78 40.604 0.114 7.5 22.26 13.59
1/9/2023 7:00:00 PM 4.76 40.568 0.114 7.5 22.04 13.61
1/9/2023 7:15:00 PM 4.74 40.532 0.114 7.5 22.3 13.62
1/9/2023 7:30:00 PM 4.73 40.514 0.115 7.5 22.05 13.61
1/9/2023 7:45:00 PM 4.72 40.496 0.115 7.5 22.04 13.63
1/9/2023 8:00:00 PM 4.7 40.46 0.115 7.5 21.86 13.62
1/9/2023 8:15:00 PM 4.69 40.442 0.115 7.5 22.68 13.62
1/9/2023 8:30:00 PM 4.68 40.424 0.115 7.5 22.94 13.62
1/9/2023 8:45:00 PM 4.67 40.406 0.115 7.5 22.71 13.63
1/9/2023 9:00:00 PM 4.66 40.388 0.115 7.5 22.85 13.62
1/9/2023 9:15:00 PM 4.65 40.37 0.115 7.51 22.03 13.64
1/9/2023 9:30:00 PM 4.65 40.37 0.115 7.5 22.45 13.64
1/9/2023 9:45:00 PM 4.64 40.352 0.115 7.51 22.38 13.64
1/9/2023 10:00:00 PM 4.64 40.352 0.116 7.51 22.65 13.65
1/9/2023 10:15:00 PM 4.63 40.334 0.116 7.51 22.05 13.65
1/9/2023 10:30:00 PM 4.62 40.316 0.116 7.51 22.7 13.64
1/9/2023 10:45:00 PM 4.62 40.316 0.116 7.49 23.31 13.63
1/9/2023 11:00:00 PM 4.62 40.316 0.116 7.5 22.51 13.62
1/9/2023 11:15:00 PM 4.6 40.28 0.116 7.5 21.12 13.63
1/9/2023 11:30:00 PM 4.59 40.262 0.116 7.51 21.36 13.63
1/9/2023 11:45:00 PM 4.58 40.244 0.116 7.51 20.88 13.63
1/10/2023 12:00:00 AM 4.57 40.226 0.116 7.5 20.5 13.62
1/10/2023 12:15:00 AM 4.56 40.208 0.117 7.51 20.26 13.63
1/10/2023 12:30:00 AM 4.56 40.208 0.117 7.51 20.3 13.62
1/10/2023 12:45:00 AM 4.55 40.19 0.117 7.51 20.94 13.62
1/10/2023 1:00:00 AM 4.54 40.172 0.117 7.51 19.9 13.61
1/10/2023 1:15:00 AM 4.53 40.154 0.117 7.51 20.36 13.62
1/10/2023 1:30:00 AM 4.52 40.136 0.118 7.51 20.28 13.61
1/10/2023 1:45:00 AM 4.73 40.514 0.122 7.51 19.75 13.67
1/10/2023 2:00:00 AM 4.72 40.496 0.122 7.45 18.66 13.67
1/10/2023 2:15:00 AM 4.59 40.262 0.119 7.43 18.87 13.64
1/10/2023 2:30:00 AM 4.51 40.118 0.118 7.48 20.83 13.59
1/10/2023 2:45:00 AM 4.48 40.064 0.118 7.49 19.96 13.6
1/10/2023 3:00:00 AM 4.47 40.046 0.118 7.5 20.41 13.59
1/10/2023 3:15:00 AM 4.46 40.028 0.118 7.5 20.12 13.59
1/10/2023 3:30:00 AM 4.45 40.01 0.118 7.5 20.33 13.58
1/10/2023 3:45:00 AM 4.44 39.992 0.118 7.5 20.66 13.58
1/10/2023 4:00:00 AM 4.43 39.974 0.118 7.5 20.44 13.58
1/10/2023 4:15:00 AM 4.42 39.956 0.119 7.5 20.82 13.58
1/10/2023 4:30:00 AM 4.41 39.938 0.119 7.5 20.7 13.58
1/10/2023 4:45:00 AM 4.4 39.92 0.119 7.5 21.1 13.58
1/10/2023 5:00:00 AM 4.39 39.902 0.119 7.5 21.05 13.59
1/10/2023 5:15:00 AM 4.37 39.866 0.119 7.5 20.29 13.57
1/10/2023 5:30:00 AM 4.36 39.848 0.119 7.5 20.75 13.58
1/10/2023 5:45:00 AM 4.35 39.83 0.119 7.5 20.14 13.59
1/10/2023 6:00:00 AM 4.34 39.812 0.119 7.49 20.33 13.56
1/10/2023 6:15:00 AM 4.33 39.794 0.119 7.5 19.98 13.57
1/10/2023 6:30:00 AM 4.32 39.776 0.119 7.5 20.63 13.57
1/10/2023 6:45:00 AM 4.31 39.758 0.119 7.49 20.56 13.57
1/10/2023 7:00:00 AM 4.3 39.74 0.119 7.49 20.23 13.52
1/10/2023 7:15:00 AM 4.29 39.722 0.119 7.49 20 13.57
1/10/2023 7:30:00 AM 4.28 39.704 0.119 7.49 19.83 13.53
1/10/2023 7:45:00 AM 4.27 39.686 0.119 7.49 20.37 13.57
1/10/2023 8:00:00 AM 4.25 39.65 0.119 7.49 20.14 13.57
1/10/2023 8:15:00 AM 4.24 39.632 0.119 7.49 19.97 13.56
1/10/2023 8:30:00 AM 4.24 39.632 0.119 7.49 20.44 13.56
1/10/2023 8:45:00 AM 4.23 39.614 0.119 7.49 20.15 13.57
1/10/2023 9:00:00 AM 4.23 39.614 0.119 7.49 20.52 13.58
1/10/2023 9:15:00 AM 4.22 39.596 0.12 7.49 20.4 13.55
1/10/2023 9:30:00 AM 4.22 39.596 0.119 7.48 20.33 13.56
1/10/2023 9:45:00 AM 4.22 39.596 0.12 7.48 20.1 13.58
1/10/2023 10:00:00 AM 4.22 39.596 0.12 7.48 20.45 13.59
1/10/2023 10:15:00 AM 4.22 39.596 0.12 7.49 20.33 13.58
1/10/2023 10:30:00 AM 4.22 39.596 0.12 7.48 20.06 13.61
1/10/2023 10:45:00 AM 4.22 39.596 0.12 7.49 19.82 13.61
1/10/2023 11:00:00 AM 4.22 39.596 0.12 7.49 20 13.61
1/10/2023 11:15:00 AM 4.22 39.596 0.12 7.49 19.85 13.61
1/10/2023 11:30:00 AM 4.22 39.596 0.12 7.49 20.49 13.63
1/10/2023 11:45:00 AM 4.23 39.614 0.12 7.49 20.73 13.63
1/10/2023 12:00:00 PM 4.22 39.596 0.12 7.49 20.41 13.62
1/10/2023 12:15:00 PM 4.23 39.614 0.12 7.48 20.46 13.65
1/10/2023 12:30:00 PM 4.23 39.614 0.12 7.49 20.62 13.62
1/10/2023 12:45:00 PM 4.23 39.614 0.12 7.49 19.88 13.65
1/10/2023 1:00:00 PM 4.24 39.632 0.12 7.49 20.1 13.66
1/10/2023 1:15:00 PM 4.24 39.632 0.12 7.49 20.11 13.68
1/10/2023 1:30:00 PM 4.25 39.65 0.121 7.5 20.45 13.68
1/10/2023 1:45:00 PM 4.26 39.668 0.121 7.48 20.06 13.69
1/10/2023 2:00:00 PM 4.26 39.668 0.121 7.49 20.2 13.68
1/10/2023 2:15:00 PM 4.27 39.686 0.121 7.5 20.12 13.69
1/10/2023 2:30:00 PM 4.27 39.686 0.121 7.5 20.61 13.7
1/10/2023 2:45:00 PM 4.27 39.686 0.121 7.51 20.3 13.68
1/10/2023 3:00:00 PM 4.27 39.686 0.121 7.51 20.57 13.69
1/10/2023 3:15:00 PM 4.27 39.686 0.121 7.51 20.96 13.71
1/10/2023 3:30:00 PM 4.27 39.686 0.121 7.51 20.48 13.73
1/10/2023 3:45:00 PM 4.27 39.686 0.121 7.51 20.45 13.73
1/10/2023 4:00:00 PM 4.27 39.686 0.121 7.5 20.69 13.71
1/10/2023 4:15:00 PM 4.25 39.65 0.121 7.51 21.31 13.76
1/10/2023 4:30:00 PM 4.25 39.65 0.121 7.52 20.41 13.76
1/10/2023 4:45:00 PM 4.25 39.65 0.121 7.52 21.48 13.75
1/10/2023 5:00:00 PM 4.27 39.686 0.122 7.52 20.96 13.73
1/10/2023 5:15:00 PM 4.25 39.65 0.122 7.52 20.57 13.74
1/10/2023 5:30:00 PM 4.25 39.65 0.122 7.52 21.35 13.75
1/10/2023 5:45:00 PM 4.24 39.632 0.122 7.52 20.5 13.75
1/10/2023 6:00:00 PM 4.24 39.632 0.122 7.53 20.78 13.76
1/10/2023 6:15:00 PM 4.23 39.614 0.122 7.53 20.63 13.77
1/10/2023 6:30:00 PM 4.23 39.614 0.122 7.53 20.85 13.78
1/10/2023 6:45:00 PM 4.22 39.596 0.122 7.53 21.23 13.78
1/10/2023 7:00:00 PM 4.22 39.596 0.122 7.53 21.85 13.79
1/10/2023 7:15:00 PM 4.21 39.578 0.122 7.53 21.45 13.8
1/10/2023 7:30:00 PM 4.21 39.578 0.122 7.53 20.83 13.81
1/10/2023 7:45:00 PM 4.21 39.578 0.123 7.53 20.93 13.81
1/10/2023 8:00:00 PM 4.49 40.082 0.127 7.53 21.97 13.85
1/10/2023 8:15:00 PM 4.4 39.92 0.126 7.45 20.55 13.82
1/10/2023 8:30:00 PM 4.26 39.668 0.123 7.47 19.67 13.78
1/10/2023 8:45:00 PM 4.2 39.56 0.123 7.51 20.45 13.79
1/10/2023 9:00:00 PM 4.2 39.56 0.123 7.52 20.66 13.8
1/10/2023 9:15:00 PM 4.19 39.542 0.123 7.52 20.04 13.8
1/10/2023 9:30:00 PM 4.19 39.542 0.123 7.52 20.66 13.81
1/10/2023 9:45:00 PM 4.18 39.524 0.123 7.53 20.72 13.81
1/10/2023 10:00:00 PM 4.18 39.524 0.123 7.53 20.21 13.81
1/10/2023 10:15:00 PM 4.17 39.506 0.124 7.53 19.7 13.8
1/10/2023 10:30:00 PM 4.17 39.506 0.124 7.53 19.89 13.82
1/10/2023 10:45:00 PM 4.16 39.488 0.124 7.53 19.65 13.82
1/10/2023 11:00:00 PM 4.16 39.488 0.124 7.53 20.4 13.8
1/10/2023 11:15:00 PM 4.15 39.47 0.124 7.53 20.34 13.81
1/10/2023 11:30:00 PM 4.14 39.452 0.124 7.53 20.15 13.81
1/10/2023 11:45:00 PM 4.13 39.434 0.125 7.53 20.77 13.8
1/11/2023 12:00:00 AM 4.13 39.434 0.125 7.53 19.73 13.8
1/11/2023 12:15:00 AM 4.12 39.416 0.125 7.53 19.71 13.81
1/11/2023 12:30:00 AM 4.11 39.398 0.125 7.53 20.62 13.81
1/11/2023 12:45:00 AM 4.1 39.38 0.125 7.53 20.07 13.81
1/11/2023 1:00:00 AM 4.09 39.362 0.125 7.53 20.21 13.8
1/11/2023 1:15:00 AM 4.09 39.362 0.125 7.53 20.17 13.8
1/11/2023 1:30:00 AM 4.08 39.344 0.125 7.52 19.7 13.8
1/11/2023 1:45:00 AM 4.39 39.902 0.133 7.48 19.49 14.01
1/11/2023 2:00:00 AM 4.29 39.722 0.131 7.4 19.15 13.93
1/11/2023 2:15:00 AM 4.11 39.398 0.126 7.46 20.23 13.8
1/11/2023 2:30:00 AM 4.07 39.326 0.125 7.49 20.6 13.79
1/11/2023 2:45:00 AM 4.06 39.308 0.125 7.51 20.48 13.78
1/11/2023 3:00:00 AM 4.05 39.29 0.125 7.51 20.62 13.78
1/11/2023 3:15:00 AM 4.04 39.272 0.125 7.52 20.72 13.78
1/11/2023 3:30:00 AM 4.04 39.272 0.125 7.52 20.53 13.77
1/11/2023 3:45:00 AM 4.04 39.272 0.125 7.52 20.25 13.77
1/11/2023 4:00:00 AM 4.03 39.254 0.125 7.52 20.53 13.77
1/11/2023 4:15:00 AM 4.02 39.236 0.125 7.52 21.25 13.76
1/11/2023 4:30:00 AM 4.01 39.218 0.125 7.52 21.02 13.76
1/11/2023 4:45:00 AM 4.01 39.218 0.125 7.52 21.04 13.76
1/11/2023 5:00:00 AM 4 39.2 0.125 7.52 20.92 13.76
1/11/2023 5:15:00 AM 3.99 39.182 0.125 7.52 20.97 13.76
1/11/2023 5:30:00 AM 3.99 39.182 0.126 7.52 20.59 13.75
1/11/2023 5:45:00 AM 3.98 39.164 0.126 7.52 20.15 13.75
1/11/2023 6:00:00 AM 3.98 39.164 0.126 7.52 20.23 13.73
1/11/2023 6:15:00 AM 3.97 39.146 0.126 7.52 20.26 13.75
1/11/2023 6:30:00 AM 3.96 39.128 0.126 7.52 20.45 13.74
1/11/2023 6:45:00 AM 3.96 39.128 0.126 7.52 20.01 13.75
1/11/2023 7:00:00 AM 3.95 39.11 0.126 7.52 20.25 13.74
1/11/2023 7:15:00 AM 3.94 39.092 0.126 7.51 20.23 13.74
1/11/2023 7:30:00 AM 3.93 39.074 0.126 7.51 20.42 13.75
1/11/2023 7:45:00 AM 3.92 39.056 0.126 7.51 20.12 13.75
1/11/2023 8:00:00 AM 3.91 39.038 0.126 7.51 19.96 13.74
1/11/2023 8:15:00 AM 3.9 39.02 0.126 7.51 19.85 13.73
1/11/2023 8:30:00 AM 3.89 39.002 0.126 7.51 20.32 13.73
1/11/2023 8:45:00 AM 3.88 38.984 0.126 7.51 20.32 13.73
1/11/2023 9:00:00 AM 3.87 38.966 0.126 7.51 20.51 13.74
1/11/2023 9:15:00 AM 3.87 38.966 0.126 7.51 20.42 13.74
1/11/2023 9:30:00 AM 3.86 38.948 0.126 7.51 20.42 13.76
1/11/2023 9:45:00 AM 3.86 38.948 0.126 7.51 20.45 13.76
1/11/2023 10:00:00 AM 3.86 38.948 0.127 7.51 20.28 13.76
1/11/2023 10:15:00 AM 3.87 38.966 0.127 7.51 20.06 13.77
1/11/2023 10:30:00 AM 3.87 38.966 0.127 7.51 20.22 13.79
1/11/2023 10:45:00 AM 3.88 38.984 0.127 7.51 20.43 13.79
1/11/2023 11:00:00 AM 4.14 39.452 0.133 7.47 20.26 13.88
1/11/2023 11:15:00 AM 4.1 39.38 0.132 7.42 20.02 13.85
1/11/2023 11:30:00 AM 3.97 39.146 0.127 7.47 20.74 13.85
1/11/2023 11:45:00 AM 3.95 39.11 0.127 7.49 21.11 13.82
1/11/2023 12:00:00 PM 3.95 39.11 0.127 7.5 21.39 13.81
1/11/2023 12:15:00 PM 3.96 39.128 0.127 7.51 21.03 13.82
1/11/2023 12:30:00 PM 3.98 39.164 0.127 7.51 21.87 13.83
1/11/2023 12:45:00 PM 4 39.2 0.127 7.52 21.89 13.84
1/11/2023 1:00:00 PM 4.02 39.236 0.127 7.52 21.54 13.84
1/11/2023 1:15:00 PM 4.04 39.272 0.127 7.52 21.34 13.84
1/11/2023 1:30:00 PM 4.06 39.308 0.127 7.52 21.2 13.85
1/11/2023 1:45:00 PM 4.08 39.344 0.127 7.52 21.2 13.86
1/11/2023 2:00:00 PM 4.1 39.38 0.127 7.52 21.38 13.87
1/11/2023 2:15:00 PM 4.12 39.416 0.127 7.53 21.28 13.87
1/11/2023 2:30:00 PM 4.14 39.452 0.127 7.53 21.5 13.88
1/11/2023 2:45:00 PM 4.15 39.47 0.127 7.53 21.62 13.88
1/11/2023 3:00:00 PM 4.16 39.488 0.127 7.53 21.36 13.89
1/11/2023 3:15:00 PM 4.17 39.506 0.127 7.53 21.69 13.9
1/11/2023 3:30:00 PM 4.18 39.524 0.127 7.53 21.56 13.9
1/11/2023 3:45:00 PM 4.18 39.524 0.127 7.54 21.51 13.91
1/11/2023 4:00:00 PM 4.18 39.524 0.127 7.54 21.84 13.91
1/11/2023 4:15:00 PM 4.18 39.524 0.127 7.54 22.02 13.92
1/11/2023 4:30:00 PM 4.17 39.506 0.127 7.54 21.43 13.92
1/11/2023 4:45:00 PM 4.17 39.506 0.127 7.54 21.75 13.93
1/11/2023 5:00:00 PM 4.16 39.488 0.127 7.54 21.34 13.93
1/11/2023 5:15:00 PM 4.16 39.488 0.128 7.55 21.38 13.93
1/11/2023 5:30:00 PM 4.16 39.488 0.128 7.55 21.42 13.94
1/11/2023 5:45:00 PM 4.15 39.47 0.128 7.55 21.7 13.93
1/11/2023 6:00:00 PM 4.14 39.452 0.128 7.55 21.3 13.94
1/11/2023 6:15:00 PM 4.13 39.434 0.128 7.55 21.36 13.94
1/11/2023 6:30:00 PM 4.12 39.416 0.128 7.55 22.03 13.93
1/11/2023 6:45:00 PM 4.11 39.398 0.128 7.55 21.46 13.95
1/11/2023 7:00:00 PM 4.11 39.398 0.128 7.55 21.32 13.93
1/11/2023 7:15:00 PM 4.1 39.38 0.128 7.55 21.24 13.93
1/11/2023 7:30:00 PM 4.09 39.362 0.128 7.55 21.7 13.95
1/11/2023 7:45:00 PM 4.08 39.344 0.128 7.55 21.79 13.94
1/11/2023 8:00:00 PM 4.08 39.344 0.128 7.55 21.36 13.95
1/11/2023 8:15:00 PM 4.07 39.326 0.129 7.56 21.9 13.95
1/11/2023 8:30:00 PM 4.07 39.326 0.129 7.55 21.48 13.95
1/11/2023 8:45:00 PM 4.06 39.308 0.129 7.56 21.59 13.95
1/11/2023 9:00:00 PM 4.06 39.308 0.129 7.56 21.65 13.95
1/11/2023 9:15:00 PM 4.06 39.308 0.129 7.56 21.61 13.95
1/11/2023 9:30:00 PM 4.06 39.308 0.128 7.56 21.55 13.95
1/11/2023 9:45:00 PM 4.06 39.308 0.128 7.56 21.81 13.95
1/11/2023 10:00:00 PM 4.06 39.308 0.128 7.56 22.11 13.96
1/11/2023 10:15:00 PM 4.07 39.326 0.128 7.56 21.5 13.96
1/11/2023 10:30:00 PM 4.07 39.326 0.128 7.56 21.87 13.95
1/11/2023 10:45:00 PM 4.08 39.344 0.128 7.56 21.42 13.95
1/11/2023 11:00:00 PM 4.08 39.344 0.128 7.56 21.39 13.95
1/11/2023 11:15:00 PM 4.09 39.362 0.128 7.56 21.47 13.94
1/11/2023 11:30:00 PM 4.1 39.38 0.129 7.56 21.53 13.95
1/11/2023 11:45:00 PM 4.1 39.38 0.129 7.56 21.29 13.95
1/12/2023 12:00:00 AM 4.11 39.398 0.129 7.56 21.56 13.94
1/12/2023 12:15:00 AM 4.11 39.398 0.129 7.56 22.06 13.93
1/12/2023 12:30:00 AM 4.12 39.416 0.129 7.56 21.67 13.93
1/12/2023 12:45:00 AM 4.12 39.416 0.129 7.56 21.53 13.93
1/12/2023 1:00:00 AM 4.12 39.416 0.129 7.56 21.8 13.92
1/12/2023 1:15:00 AM 4.13 39.434 0.129 7.56 21.63 13.92
1/12/2023 1:30:00 AM 4.13 39.434 0.129 7.56 22.17 13.91
1/12/2023 1:45:00 AM 4.13 39.434 0.129 7.56 21.48 13.9
1/12/2023 2:00:00 AM 4.13 39.434 0.129 7.56 21.86 13.9
1/12/2023 2:15:00 AM 4.27 39.686 0.135 7.5 23.26 14.01
1/12/2023 2:30:00 AM 4.22 39.596 0.134 7.45 22.38 13.96
1/12/2023 2:45:00 AM 4.15 39.47 0.13 7.5 22.86 13.89
1/12/2023 3:00:00 AM 4.13 39.434 0.13 7.53 21.3 13.88
1/12/2023 3:15:00 AM 4.13 39.434 0.13 7.55 21.11 13.87
1/12/2023 3:30:00 AM 4.12 39.416 0.13 7.55 21.57 13.86
1/12/2023 3:45:00 AM 4.12 39.416 0.13 7.55 21.7 13.87
1/12/2023 4:00:00 AM 4.12 39.416 0.13 7.55 21.29 13.86
1/12/2023 4:15:00 AM 4.11 39.398 0.13 7.55 21.38 13.85
1/12/2023 4:30:00 AM 4.11 39.398 0.13 7.55 21.51 13.85
1/12/2023 4:45:00 AM 4.1 39.38 0.13 7.55 21.26 13.84
1/12/2023 5:00:00 AM 4.1 39.38 0.13 7.55 21.24 13.84
1/12/2023 5:15:00 AM 4.09 39.362 0.13 7.55 21.59 13.83
1/12/2023 5:30:00 AM 4.08 39.344 0.13 7.55 21.53 13.84
1/12/2023 5:45:00 AM 4.08 39.344 0.13 7.55 21.4 13.82
1/12/2023 6:00:00 AM 4.07 39.326 0.13 7.55 21.58 13.8
1/12/2023 6:15:00 AM 4.07 39.326 0.13 7.55 21.1 13.81
1/12/2023 6:30:00 AM 4.06 39.308 0.13 7.55 21.25 13.81
1/12/2023 6:45:00 AM 4.06 39.308 0.13 7.55 21.54 13.8
1/12/2023 7:00:00 AM 4.05 39.29 0.13 7.55 21.04 13.8
1/12/2023 7:15:00 AM 4.04 39.272 0.13 7.55 21.4 13.79
1/12/2023 7:30:00 AM 4.04 39.272 0.13 7.54 21.61 13.79
1/12/2023 7:45:00 AM 4.03 39.254 0.13 7.54 21.6 13.79
1/12/2023 8:00:00 AM 4.03 39.254 0.13 7.54 20.98 13.78
1/12/2023 8:15:00 AM 4.02 39.236 0.13 7.54 21.6 13.78
1/12/2023 8:30:00 AM 4.02 39.236 0.13 7.54 21.64 13.78
1/12/2023 8:45:00 AM 4.01 39.218 0.13 7.54 21.41 13.78
1/12/2023 9:00:00 AM 4.01 39.218 0.131 7.54 21.09 13.77
1/12/2023 9:15:00 AM 4.01 39.218 0.131 7.54 21.26 13.77
1/12/2023 9:30:00 AM 4.02 39.236 0.13 7.54 21.49 13.76
1/12/2023 9:45:00 AM 4.02 39.236 0.13 7.53 21.49 13.76
1/12/2023 10:00:00 AM 4.02 39.236 0.131 7.54 21.22 13.77
1/12/2023 10:15:00 AM 4.23 39.614 0.135 7.54 21.68 13.97
1/12/2023 10:30:00 AM 4.18 39.524 0.137 7.49 30.25 14.15
1/12/2023 10:45:00 AM 4.11 39.398 0.133 7.48 23.11 14.01
1/12/2023 11:00:00 AM 4.04 39.272 0.131 7.51 22.04 13.8
1/12/2023 11:15:00 AM 4.03 39.254 0.13 7.52 21.41 13.77
1/12/2023 11:30:00 AM 4.03 39.254 0.131 7.52 21.14 13.77
1/12/2023 11:45:00 AM 4.03 39.254 0.13 7.53 20.47 13.77
1/12/2023 12:00:00 PM 4.04 39.272 0.13 7.53 20.23 13.77
1/12/2023 12:15:00 PM 4.04 39.272 0.131 7.53 20.57 13.77
1/12/2023 12:30:00 PM 4.05 39.29 0.131 7.53 20.89 13.76
1/12/2023 12:45:00 PM 4.06 39.308 0.131 7.53 20.53 13.76
1/12/2023 1:00:00 PM 4.06 39.308 0.131 7.53 20.45 13.77
1/12/2023 1:15:00 PM 4.07 39.326 0.131 7.53 20.93 13.76
1/12/2023 1:30:00 PM 4.07 39.326 0.131 7.53 20.51 13.77
1/12/2023 1:45:00 PM 4.08 39.344 0.131 7.53 20.42 13.77
1/12/2023 2:00:00 PM 4.09 39.362 0.131 7.53 20.53 13.78
1/12/2023 2:15:00 PM 4.09 39.362 0.131 7.53 20.47 13.78
1/12/2023 2:30:00 PM 4.09 39.362 0.131 7.53 20.5 13.77
1/12/2023 2:45:00 PM 4.1 39.38 0.131 7.53 20.82 13.78
1/12/2023 3:00:00 PM 4.11 39.398 0.131 7.53 20.57 13.78
1/12/2023 3:15:00 PM 4.11 39.398 0.131 7.53 20.65 13.78
1/12/2023 3:30:00 PM 4.11 39.398 0.131 7.53 20.75 13.79
1/12/2023 3:45:00 PM 4.11 39.398 0.131 7.53 20.66 13.76
1/12/2023 4:00:00 PM 4.12 39.416 0.131 7.53 20.65 13.79
1/12/2023 4:15:00 PM 4.12 39.416 0.131 7.53 20.82 13.78
1/12/2023 4:30:00 PM 4.12 39.416 0.131 7.53 20.82 13.79
1/12/2023 4:45:00 PM 4.12 39.416 0.13 7.53 20.94 13.79
1/12/2023 5:00:00 PM 4.13 39.434 0.13 7.53 20.77 13.78
1/12/2023 5:15:00 PM 4.13 39.434 0.13 7.53 20.94 13.78
1/12/2023 5:30:00 PM 4.13 39.434 0.13 7.53 20.57 13.79
1/12/2023 5:45:00 PM 4.13 39.434 0.13 7.53 20.55 13.78
1/12/2023 6:00:00 PM 4.14 39.452 0.13 7.53 20.94 13.78
1/12/2023 6:15:00 PM 4.14 39.452 0.13 7.53 20.44 13.77
1/12/2023 6:30:00 PM 4.14 39.452 0.13 7.53 20.91 13.78
1/12/2023 6:45:00 PM 4.14 39.452 0.13 7.53 20.53 13.77
1/12/2023 7:00:00 PM 4.15 39.47 0.13 7.53 20.6 13.78
1/12/2023 7:15:00 PM 4.15 39.47 0.13 7.53 21.15 13.76
1/12/2023 7:30:00 PM 4.15 39.47 0.13 7.53 21.08 13.77
1/12/2023 7:45:00 PM 4.16 39.488 0.131 7.53 21.19 13.77
1/12/2023 8:00:00 PM 4.16 39.488 0.131 7.53 21 13.76
1/12/2023 8:15:00 PM 4.17 39.506 0.131 7.53 21.13 13.77
1/12/2023 8:30:00 PM 4.17 39.506 0.131 7.53 20.72 13.76
1/12/2023 8:45:00 PM 4.18 39.524 0.131 7.53 21.13 13.77
1/12/2023 9:00:00 PM 4.19 39.542 0.131 7.54 20.56 13.75
1/12/2023 9:15:00 PM 4.19 39.542 0.131 7.53 21.15 13.75
1/12/2023 9:30:00 PM 4.2 39.56 0.131 7.53 20.98 13.76
1/12/2023 9:45:00 PM 4.21 39.578 0.131 7.54 20.92 13.75
1/12/2023 10:00:00 PM 4.21 39.578 0.131 7.54 21.59 13.75
1/12/2023 10:15:00 PM 4.22 39.596 0.131 7.53 20.95 13.76
1/12/2023 10:30:00 PM 4.23 39.614 0.131 7.54 21.3 13.75
1/12/2023 10:45:00 PM 4.23 39.614 0.131 7.54 21.26 13.72
1/12/2023 11:00:00 PM 4.24 39.632 0.131 7.54 21.45 13.5
1/12/2023 11:15:00 PM 4.25 39.65 0.131 7.54 20.96 13.57
1/12/2023 11:30:00 PM 4.26 39.668 0.132 7.54 21.33 13.54
1/12/2023 11:45:00 PM 4.27 39.686 0.132 7.54 21 13.72
1/13/2023 12:00:00 AM 4.28 39.704 0.133 7.55 21.47 13.64
1/13/2023 12:15:00 AM 4.29 39.722 0.134 7.55 21.44 13.67
1/13/2023 12:30:00 AM 4.3 39.74 0.134 7.55 21.7 13.66
1/13/2023 12:45:00 AM 4.31 39.758 0.134 7.56 22.42 13.7
1/13/2023 1:00:00 AM 4.32 39.776 0.135 7.56 21.73 13.64
1/13/2023 1:15:00 AM 4.33 39.794 0.135 7.56 21.9 13.19
1/13/2023 1:30:00 AM 4.33 39.794 0.135 7.56 22.8 13.65
1/13/2023 1:45:00 AM 4.33 39.794 0.135 7.56 21.87 13.62
1/13/2023 2:00:00 AM 4.34 39.812 0.134 7.56 21.83 13.69
1/13/2023 2:15:00 AM 4.42 39.956 0.139 7.56 23.34 13.81
1/13/2023 2:30:00 AM 4.39 39.902 0.139 7.47 24 13.77
1/13/2023 2:45:00 AM 4.37 39.866 0.134 7.49 23.39 13.72
1/13/2023 3:00:00 AM 4.35 39.83 0.133 7.52 22.98 13.69
1/13/2023 3:15:00 AM 4.35 39.83 0.133 7.53 22.88 13.67
1/13/2023 3:30:00 AM 4.36 39.848 0.132 7.54 24.03 13.67
1/13/2023 3:45:00 AM 4.36 39.848 0.132 7.54 23.89 13.67
1/13/2023 4:00:00 AM 4.36 39.848 0.132 7.54 24.14 13.66
1/13/2023 4:15:00 AM 4.37 39.866 0.133 7.54 24.07 13.65
1/13/2023 4:30:00 AM 4.37 39.866 0.133 7.54 24.08 13.65
1/13/2023 4:45:00 AM 4.38 39.884 0.133 7.54 24.06 13.63
1/13/2023 5:00:00 AM 4.38 39.884 0.133 7.54 24.47 13.61
1/13/2023 5:15:00 AM 4.39 39.902 0.133 7.54 24.59 13.61
1/13/2023 5:30:00 AM 4.39 39.902 0.133 7.54 24.39 13.61
1/13/2023 5:45:00 AM 4.4 39.92 0.133 7.54 24.36 13.6
1/13/2023 6:00:00 AM 4.41 39.938 0.133 7.54 24.65 13.6
1/13/2023 6:15:00 AM 4.41 39.938 0.133 7.54 24.99 13.59
1/13/2023 6:30:00 AM 4.42 39.956 0.133 7.54 24.27 13.57
1/13/2023 6:45:00 AM 4.43 39.974 0.133 7.54 24.79 13.58
1/13/2023 7:00:00 AM 4.44 39.992 0.134 7.54 24.38 13.56
1/13/2023 7:15:00 AM 4.44 39.992 0.134 7.54 25.2 13.56
1/13/2023 7:30:00 AM 4.45 40.01 0.134 7.54 24.94 13.54
1/13/2023 7:45:00 AM 4.46 40.028 0.134 7.54 24.92 13.54
1/13/2023 8:00:00 AM 4.47 40.046 0.135 7.55 25.14 13.54
1/13/2023 8:15:00 AM 4.48 40.064 0.135 7.55 25.66 13.52
1/13/2023 8:30:00 AM 4.49 40.082 0.136 7.55 25.54 13.51
1/13/2023 8:45:00 AM 4.5 40.1 0.136 7.56 25.8 13.51
1/13/2023 9:00:00 AM 4.51 40.118 0.136 7.56 25.79 13.49
1/13/2023 9:15:00 AM 4.51 40.118 0.137 7.56 26.1 13.49
1/13/2023 9:30:00 AM 4.52 40.136 0.137 7.56 27.25 13.49
1/13/2023 9:45:00 AM 4.53 40.154 0.137 7.56 27.79 13.47
1/13/2023 10:00:00 AM 4.53 40.154 0.136 7.57 27.18 13.49
1/13/2023 10:15:00 AM 4.54 40.172 0.137 7.57 26.84 13.48
1/13/2023 10:30:00 AM 4.55 40.19 0.136 7.57 26.47 13.47
1/13/2023 10:45:00 AM 4.56 40.208 0.136 7.56 27.87 13.47
1/13/2023 11:00:00 AM 4.58 40.244 0.135 7.56 28.24 13.47
1/13/2023 11:15:00 AM 4.61 40.298 0.14 7.53 24.65 13.62
1/13/2023 11:30:00 AM 4.6 40.28 0.138 7.5 25.41 13.59
1/13/2023 11:45:00 AM 4.61 40.298 0.135 7.54 27.4 13.48
1/13/2023 12:00:00 PM 4.62 40.316 0.134 7.55 28.25 13.46
1/13/2023 12:15:00 PM 4.64 40.352 0.134 7.55 27.02 13.46
1/13/2023 12:30:00 PM 4.66 40.388 0.133 7.55 27.69 13.46
1/13/2023 12:45:00 PM 4.67 40.406 0.133 7.55 29.38 13.46
1/13/2023 1:00:00 PM 4.68 40.424 0.133 7.55 28.98 13.46
1/13/2023 1:15:00 PM 4.69 40.442 0.132 7.55 27.42 13.47
1/13/2023 1:30:00 PM 4.69 40.442 0.132 7.55 27.98 13.46
1/13/2023 1:45:00 PM 4.69 40.442 0.132 7.55 27.79 13.44
1/13/2023 2:00:00 PM 4.7 40.46 0.132 7.55 27.82 13.46
1/13/2023 2:15:00 PM 4.71 40.478 0.132 7.55 27.52 13.46
1/13/2023 2:30:00 PM 4.73 40.514 0.131 7.55 27.94 13.48
1/13/2023 2:45:00 PM 4.74 40.532 0.131 7.56 27.66 13.48
1/13/2023 3:00:00 PM 4.75 40.55 0.131 7.55 27.92 13.46
1/13/2023 3:15:00 PM 4.75 40.55 0.131 7.55 28.39 13.46
1/13/2023 3:30:00 PM 4.75 40.55 0.131 7.55 28.79 13.47
1/13/2023 3:45:00 PM 4.76 40.568 0.13 7.56 27.56 13.45
1/13/2023 4:00:00 PM 4.76 40.568 0.13 7.56 28.2 13.44
1/13/2023 4:15:00 PM 4.75 40.55 0.13 7.55 27.91 13.46
1/13/2023 4:30:00 PM 4.76 40.568 0.129 7.55 28.81 13.45
1/13/2023 4:45:00 PM 4.76 40.568 0.129 7.55 28.67 13.44
1/13/2023 5:00:00 PM 4.77 40.586 0.129 7.55 28.27 13.44
1/13/2023 5:15:00 PM 4.77 40.586 0.128 7.55 28.34 13.45
1/13/2023 5:30:00 PM 4.77 40.586 0.128 7.55 29.37 13.43
1/13/2023 5:45:00 PM 4.76 40.568 0.127 7.55 28.58 13.43
1/13/2023 6:00:00 PM 4.81 40.658 0.132 7.54 29.16 13.54
1/13/2023 6:15:00 PM 4.73 40.514 0.138 7.49 25.48 13.62
1/13/2023 6:30:00 PM 4.7 40.46 0.129 7.49 26.46 13.55
1/13/2023 6:45:00 PM 4.66 40.388 0.126 7.53 28.31 13.44
1/13/2023 7:00:00 PM 4.64 40.352 0.125 7.54 28.18 13.43
1/13/2023 7:15:00 PM 4.61 40.298 0.125 7.54 28.75 13.43
1/13/2023 7:30:00 PM 4.6 40.28 0.125 7.54 28.63 13.44
1/13/2023 7:45:00 PM 4.58 40.244 0.124 7.54 28.06 13.43
1/13/2023 8:00:00 PM 4.57 40.226 0.124 7.54 28.61 13.43
1/13/2023 8:15:00 PM 4.56 40.208 0.123 7.54 29.97 13.44
1/13/2023 8:30:00 PM 4.56 40.208 0.123 7.54 29.47 13.43
1/13/2023 8:45:00 PM 4.56 40.208 0.122 7.54 28.6 13.44
1/13/2023 9:00:00 PM 4.56 40.208 0.122 7.54 29.12 13.45
1/13/2023 9:15:00 PM 4.56 40.208 0.121 7.54 29.95 13.44
1/13/2023 9:30:00 PM 4.56 40.208 0.121 7.54 29.84 13.45
1/13/2023 9:45:00 PM 4.56 40.208 0.121 7.54 31.08 13.46
1/13/2023 10:00:00 PM 4.55 40.19 0.12 7.54 31.53 13.46
1/13/2023 10:15:00 PM 4.55 40.19 0.12 7.53 30.5 13.46
1/13/2023 10:30:00 PM 4.54 40.172 0.12 7.53 30.16 13.47
1/13/2023 10:45:00 PM 4.53 40.154 0.12 7.53 30.89 13.46
1/13/2023 11:00:00 PM 4.53 40.154 0.12 7.53 29.76 13.48
1/13/2023 11:15:00 PM 4.52 40.136 0.12 7.53 30.39 13.48
1/13/2023 11:30:00 PM 4.51 40.118 0.119 7.53 29.55 13.49
1/13/2023 11:45:00 PM 4.5 40.1 0.119 7.53 29.79 13.49
1/14/2023 12:00:00 AM 4.48 40.064 0.118 7.53 30.69 13.49
1/14/2023 12:15:00 AM 4.47 40.046 0.118 7.53 30.44 13.5
1/14/2023 12:30:00 AM 4.46 40.028 0.118 7.53 28.77 13.46
1/14/2023 12:45:00 AM 4.44 39.992 0.118 7.53 30.46 13.49
1/14/2023 1:00:00 AM 4.43 39.974 0.118 7.53 30.46 13.51
1/14/2023 1:15:00 AM 4.41 39.938 0.118 7.53 29.73 13.51
1/14/2023 1:30:00 AM 4.4 39.92 0.118 7.53 29.59 13.52
1/14/2023 1:45:00 AM 4.39 39.902 0.118 7.53 28.84 13.51
1/14/2023 2:00:00 AM 4.37 39.866 0.118 7.53 30.61 13.51
1/14/2023 2:15:00 AM 4.46 40.028 0.134 7.53 28.59 13.79
1/14/2023 2:30:00 AM 4.48 40.064 0.133 7.46 26.23 13.77
1/14/2023 2:45:00 AM 4.39 39.902 0.12 7.49 27.19 13.58
1/14/2023 3:00:00 AM 4.34 39.812 0.117 7.51 28.84 13.53
1/14/2023 3:15:00 AM 4.32 39.776 0.117 7.52 28.18 13.52
1/14/2023 3:30:00 AM 4.3 39.74 0.117 7.52 27.62 13.52
1/14/2023 3:45:00 AM 4.29 39.722 0.117 7.52 28.72 13.5
1/14/2023 4:00:00 AM 4.27 39.686 0.117 7.52 27.39 13.52
1/14/2023 4:15:00 AM 4.26 39.668 0.117 7.52 28.5 13.51
1/14/2023 4:30:00 AM 4.25 39.65 0.117 7.52 28.01 13.52
1/14/2023 4:45:00 AM 4.23 39.614 0.117 7.52 27.44 13.53
1/14/2023 5:00:00 AM 4.21 39.578 0.117 7.52 27.82 13.52
1/14/2023 5:15:00 AM 4.19 39.542 0.117 7.52 28.58 13.52
1/14/2023 5:30:00 AM 4.18 39.524 0.117 7.52 27.6 13.51
1/14/2023 5:45:00 AM 4.17 39.506 0.117 7.52 27.33 13.52
1/14/2023 6:00:00 AM 4.16 39.488 0.117 7.52 27.94 13.51
1/14/2023 6:15:00 AM 4.14 39.452 0.117 7.51 27.16 13.51
1/14/2023 6:30:00 AM 4.13 39.434 0.117 7.51 26.95 13.52
1/14/2023 6:45:00 AM 4.12 39.416 0.117 7.51 27.29 13.52
1/14/2023 7:00:00 AM 4.1 39.38 0.117 7.51 27.23 13.53
1/14/2023 7:15:00 AM 4.09 39.362 0.117 7.51 26.94 13.53
1/14/2023 7:30:00 AM 4.07 39.326 0.117 7.51 27.1 13.53
1/14/2023 7:45:00 AM 4.06 39.308 0.117 7.51 26.68 13.53
1/14/2023 8:00:00 AM 4.05 39.29 0.117 7.51 26.71 13.53
1/14/2023 8:15:00 AM 4.03 39.254 0.117 7.51 26.89 13.53
1/14/2023 8:30:00 AM 4.01 39.218 0.117 7.51 27.82 13.54
1/14/2023 8:45:00 AM 3.99 39.182 0.117 7.5 26.93 13.55
1/14/2023 9:00:00 AM 3.98 39.164 0.118 7.51 27.25 13.56
1/14/2023 9:15:00 AM 3.96 39.128 0.118 7.51 27.2 13.56
1/14/2023 9:30:00 AM 3.95 39.11 0.118 7.51 27.27 13.56
1/14/2023 9:45:00 AM 3.94 39.092 0.118 7.51 27.46 13.56
1/14/2023 10:00:00 AM 3.93 39.074 0.118 7.51 27.22 13.57
1/14/2023 10:15:00 AM 3.92 39.056 0.118 7.51 26.65 13.57
1/14/2023 10:30:00 AM 3.91 39.038 0.118 7.51 26.84 13.58
1/14/2023 10:45:00 AM 3.9 39.02 0.118 7.51 27.05 13.58
1/14/2023 11:00:00 AM 3.89 39.002 0.119 7.51 27.98 13.59
1/14/2023 11:15:00 AM 3.88 38.984 0.119 7.51 27.66 13.6
1/14/2023 11:30:00 AM 3.88 38.984 0.12 7.51 27.57 13.59
1/14/2023 11:45:00 AM 3.87 38.966 0.12 7.51 26.98 13.61
1/14/2023 12:00:00 PM 3.87 38.966 0.12 7.51 27.18 13.61
1/14/2023 12:15:00 PM 3.86 38.948 0.12 7.51 27.16 13.6
1/14/2023 12:30:00 PM 3.86 38.948 0.12 7.51 26.81 13.62
1/14/2023 12:45:00 PM 3.86 38.948 0.121 7.51 26.7 13.64
1/14/2023 1:00:00 PM 3.86 38.948 0.121 7.51 26.87 13.63
1/14/2023 1:15:00 PM 3.86 38.948 0.121 7.51 27.09 13.63
1/14/2023 1:30:00 PM 3.86 38.948 0.121 7.51 27.32 13.67
1/14/2023 1:45:00 PM 3.86 38.948 0.121 7.51 26.64 13.66
1/14/2023 2:00:00 PM 3.85 38.93 0.121 7.51 26.94 13.65
1/14/2023 2:15:00 PM 3.85 38.93 0.122 7.51 26.83 13.67
1/14/2023 2:30:00 PM 3.85 38.93 0.122 7.52 27.11 13.65
1/14/2023 2:45:00 PM 3.85 38.93 0.122 7.52 26.62 13.69
1/14/2023 3:00:00 PM 3.85 38.93 0.122 7.52 26.3 13.69
1/14/2023 3:15:00 PM 3.85 38.93 0.122 7.52 26.88 13.7
1/14/2023 3:30:00 PM 3.85 38.93 0.122 7.52 26.42 13.72
1/14/2023 3:45:00 PM 3.83 38.894 0.123 7.52 27.03 13.72
1/14/2023 4:00:00 PM 3.82 38.876 0.123 7.53 26.85 13.73
1/14/2023 4:15:00 PM 3.82 38.876 0.122 7.53 27.04 13.73
1/14/2023 4:30:00 PM 3.81 38.858 0.122 7.53 27.29 13.74
1/14/2023 4:45:00 PM 3.81 38.858 0.123 7.53 26.45 13.77
1/14/2023 5:00:00 PM 3.79 38.822 0.123 7.53 26.74 13.77
1/14/2023 5:15:00 PM 3.78 38.804 0.123 7.53 26.83 13.77
1/14/2023 5:30:00 PM 3.76 38.768 0.123 7.53 27.1 13.78
1/14/2023 5:45:00 PM 3.75 38.75 0.123 7.53 26.87 13.79
1/14/2023 6:00:00 PM 3.74 38.732 0.123 7.54 26.69 13.78
1/14/2023 6:15:00 PM 3.72 38.696 0.123 7.54 26.28 13.8
1/14/2023 6:30:00 PM 3.71 38.678 0.123 7.54 26.96 13.81
1/14/2023 6:45:00 PM 3.7 38.66 0.123 7.54 26.27 13.81
1/14/2023 7:00:00 PM 3.67 38.606 0.123 7.54 26.18 13.82
1/14/2023 7:15:00 PM 3.65 38.57 0.123 7.54 26.74 13.83
1/14/2023 7:30:00 PM 3.63 38.534 0.123 7.54 26.65 13.84
1/14/2023 7:45:00 PM 3.62 38.516 0.123 7.55 26.39 13.85
1/14/2023 8:00:00 PM 3.6 38.48 0.124 7.54 26.51 13.85
1/14/2023 8:15:00 PM 3.6 38.48 0.124 7.54 26.39 13.86
1/14/2023 8:30:00 PM 3.58 38.444 0.124 7.54 26.37 13.85
1/14/2023 8:45:00 PM 3.56 38.408 0.123 7.55 26.51 13.86
1/14/2023 9:00:00 PM 3.54 38.372 0.124 7.55 26.8 13.87
1/14/2023 9:15:00 PM 3.53 38.354 0.123 7.54 26.66 13.87
1/14/2023 9:30:00 PM 3.51 38.318 0.123 7.55 26.18 13.88
1/14/2023 9:45:00 PM 3.5 38.3 0.123 7.55 26.16 13.89
1/14/2023 10:00:00 PM 3.49 38.282 0.123 7.55 26.7 13.9
1/14/2023 10:15:00 PM 3.47 38.246 0.123 7.55 26.78 13.89
1/14/2023 10:30:00 PM 3.46 38.228 0.123 7.55 26.2 13.91
1/14/2023 10:45:00 PM 3.44 38.192 0.123 7.55 26.07 13.91
1/14/2023 11:00:00 PM 3.43 38.174 0.123 7.55 26.05 13.92
1/14/2023 11:15:00 PM 3.42 38.156 0.123 7.55 26.25 13.93
1/14/2023 11:30:00 PM 3.41 38.138 0.123 7.55 26.46 13.93
1/14/2023 11:45:00 PM 3.39 38.102 0.123 7.55 26.72 13.94
1/15/2023 12:00:00 AM 3.37 38.066 0.123 7.55 26.79 13.94
1/15/2023 12:15:00 AM 3.36 38.048 0.123 7.56 26.12 13.95
1/15/2023 12:30:00 AM 3.35 38.03 0.123 7.56 25.89 13.95
1/15/2023 12:45:00 AM 3.35 38.03 0.123 7.55 26.13 13.95
1/15/2023 1:00:00 AM 3.34 38.012 0.123 7.56 25.85 13.95
1/15/2023 1:15:00 AM 3.33 37.994 0.123 7.56 26.29 13.95
1/15/2023 1:30:00 AM 3.32 37.976 0.123 7.56 25.95 13.95
1/15/2023 1:45:00 AM 3.31 37.958 0.123 7.55 26.19 13.95
1/15/2023 2:00:00 AM 3.3 37.94 0.123 7.55 26.07 13.96
1/15/2023 2:15:00 AM 3.3 37.94 0.123 7.55 26.22 13.95
1/15/2023 2:30:00 AM 3.29 37.922 0.123 7.55 26.11 13.95
1/15/2023 2:45:00 AM 3.28 37.904 0.123 7.55 26.11 13.96
1/15/2023 3:00:00 AM 3.28 37.904 0.123 7.55 25.77 13.96
1/15/2023 3:15:00 AM 3.27 37.886 0.123 7.55 25.79 13.95
1/15/2023 3:30:00 AM 3.26 37.868 0.123 7.54 25.83 13.94
1/15/2023 3:45:00 AM 3.25 37.85 0.123 7.54 25.93 13.95
1/15/2023 4:00:00 AM 3.24 37.832 0.123 7.54 25.89 13.95
1/15/2023 4:15:00 AM 3.23 37.814 0.123 7.54 25.75 13.95
1/15/2023 4:30:00 AM 3.21 37.778 0.123 7.54 25.69 13.95
1/15/2023 4:45:00 AM 3.2 37.76 0.123 7.54 25.93 13.95
1/15/2023 5:00:00 AM 3.19 37.742 0.124 7.54 25.89 13.95
1/15/2023 5:15:00 AM 3.19 37.742 0.124 7.54 25.78 13.96
1/15/2023 5:30:00 AM 3.18 37.724 0.124 7.55 25.98 13.95
1/15/2023 5:45:00 AM 3.17 37.706 0.124 7.54 25.47 13.94
1/15/2023 6:00:00 AM 3.15 37.67 0.124 7.55 25.79 13.95
1/15/2023 6:15:00 AM 3.14 37.652 0.124 7.54 25.64 13.95
1/15/2023 6:30:00 AM 3.13 37.634 0.124 7.55 25.52 13.95
1/15/2023 6:45:00 AM 3.11 37.598 0.125 7.55 25.57 13.95
1/15/2023 7:00:00 AM 3.09 37.562 0.125 7.54 25.64 13.96
1/15/2023 7:15:00 AM 3.07 37.526 0.125 7.54 25.55 13.96
1/15/2023 7:30:00 AM 3.05 37.49 0.125 7.54 25.74 13.96
1/15/2023 7:45:00 AM 3.02 37.436 0.125 7.54 25.67 13.97
1/15/2023 8:00:00 AM 3.01 37.418 0.125 7.55 25.66 13.97
1/15/2023 8:15:00 AM 2.98 37.364 0.125 7.54 25.9 13.98
1/15/2023 8:30:00 AM 2.97 37.346 0.125 7.54 25.91 13.98
1/15/2023 8:45:00 AM 2.95 37.31 0.125 7.54 25.7 13.98
1/15/2023 9:00:00 AM 2.94 37.292 0.125 7.53 26.13 13.99
1/15/2023 9:15:00 AM 2.93 37.274 0.125 7.53 26.04 14
1/15/2023 9:30:00 AM 2.91 37.238 0.125 7.54 25.45 14
1/15/2023 9:45:00 AM 2.9 37.22 0.125 7.54 25.62 14.01
1/15/2023 10:00:00 AM 2.89 37.202 0.125 7.53 25.73 14.01
1/15/2023 10:15:00 AM 2.87 37.166 0.125 7.52 27.03 14.03
1/15/2023 10:30:00 AM 2.86 37.148 0.125 7.52 25.96 14.03
1/15/2023 10:45:00 AM 2.86 37.148 0.125 7.52 26.78 14.05
1/15/2023 11:00:00 AM 2.86 37.148 0.126 7.52 25.97 14.06
1/15/2023 11:15:00 AM 2.88 37.184 0.126 7.52 26.23 14.07
1/15/2023 11:30:00 AM 2.9 37.22 0.126 7.52 26.12 14.07
1/15/2023 11:45:00 AM 2.92 37.256 0.126 7.52 26.72 14.07
1/15/2023 12:00:00 PM 2.95 37.31 0.126 7.52 26.38 14.09
1/15/2023 12:15:00 PM 2.98 37.364 0.126 7.52 26.5 14.09
1/15/2023 12:30:00 PM 3.14 37.652 0.128 7.52 28.23 14.11
1/15/2023 12:45:00 PM 3.38 38.084 0.136 7.49 24.94 14.11
1/15/2023 1:00:00 PM 3.32 37.976 0.132 7.45 24.77 14.15
1/15/2023 1:15:00 PM 3.15 37.67 0.127 7.49 25.86 14.14
1/15/2023 1:30:00 PM 3.13 37.634 0.127 7.51 25.65 14.14
1/15/2023 1:45:00 PM 3.15 37.67 0.127 7.52 26.03 14.14
1/15/2023 2:00:00 PM 3.18 37.724 0.127 7.52 26.55 14.13
1/15/2023 2:15:00 PM 3.2 37.76 0.127 7.52 25.95 14.15
1/15/2023 2:30:00 PM 3.22 37.796 0.127 7.52 26.41 14.16
1/15/2023 2:45:00 PM 3.23 37.814 0.128 7.53 25.98 14.17
1/15/2023 3:00:00 PM 3.25 37.85 0.128 7.53 25.82 14.17
1/15/2023 3:15:00 PM 3.25 37.85 0.127 7.53 25.52 14.19
1/15/2023 3:30:00 PM 3.25 37.85 0.127 7.53 26.46 14.21
1/15/2023 3:45:00 PM 3.25 37.85 0.127 7.53 25.67 14.21
1/15/2023 4:00:00 PM 3.24 37.832 0.128 7.53 26.31 14.21
1/15/2023 4:15:00 PM 3.23 37.814 0.128 7.54 25.76 14.22
1/15/2023 4:30:00 PM 3.21 37.778 0.128 7.54 26.22 14.23
1/15/2023 4:45:00 PM 3.2 37.76 0.128 7.54 25.7 14.23
1/15/2023 5:00:00 PM 3.18 37.724 0.128 7.54 26.12 14.24
1/15/2023 5:15:00 PM 3.16 37.688 0.128 7.54 25.91 14.23
1/15/2023 5:30:00 PM 3.15 37.67 0.128 7.54 25.75 14.25
1/15/2023 5:45:00 PM 3.13 37.634 0.128 7.54 25.98 14.25
1/15/2023 6:00:00 PM 3.4 38.12 0.139 7.54 25.05 14.41
1/15/2023 6:15:00 PM 3.38 38.084 0.138 7.44 24.05 14.35
1/15/2023 6:30:00 PM 3.19 37.742 0.13 7.46 25.46 14.26
1/15/2023 6:45:00 PM 3.06 37.508 0.128 7.5 25.91 14.26
1/15/2023 7:00:00 PM 3.04 37.472 0.128 7.52 25.69 14.27
1/15/2023 7:15:00 PM 3.02 37.436 0.128 7.52 26.05 14.28
1/15/2023 7:30:00 PM 3 37.4 0.128 7.53 26.09 14.28
1/15/2023 7:45:00 PM 2.98 37.364 0.128 7.53 26.49 14.28
1/15/2023 8:00:00 PM 2.96 37.328 0.128 7.53 26.11 14.3
1/15/2023 8:15:00 PM 2.95 37.31 0.128 7.54 26.2 14.3
1/15/2023 8:30:00 PM 2.94 37.292 0.128 7.54 26.05 14.31
1/15/2023 8:45:00 PM 2.94 37.292 0.128 7.54 25.86 14.32
1/15/2023 9:00:00 PM 2.93 37.274 0.128 7.54 25.8 14.32
1/15/2023 9:15:00 PM 2.93 37.274 0.128 7.54 25.71 14.31
1/15/2023 9:30:00 PM 2.93 37.274 0.129 7.54 25.99 14.33
1/15/2023 9:45:00 PM 2.92 37.256 0.129 7.54 25.76 14.33
1/15/2023 10:00:00 PM 2.92 37.256 0.129 7.54 26.42 14.33
1/15/2023 10:15:00 PM 2.91 37.238 0.129 7.54 25.8 14.33
1/15/2023 10:30:00 PM 2.91 37.238 0.129 7.54 25.58 14.34
1/15/2023 10:45:00 PM 2.91 37.238 0.129 7.54 25.51 14.33
1/15/2023 11:00:00 PM 2.91 37.238 0.129 7.54 25.62 14.34
1/15/2023 11:15:00 PM 2.91 37.238 0.129 7.54 25.83 14.33
1/15/2023 11:30:00 PM 2.91 37.238 0.13 7.54 26.22 14.34
1/15/2023 11:45:00 PM 2.9 37.22 0.13 7.55 26.44 14.34
1/16/2023 12:00:00 AM 2.89 37.202 0.13 7.55 25.26 14.33
1/16/2023 12:15:00 AM 2.89 37.202 0.13 7.54 26.26 14.33
1/16/2023 12:30:00 AM 2.87 37.166 0.13 7.54 25.82 14.33
1/16/2023 12:45:00 AM 2.86 37.148 0.13 7.55 25.64 14.33
1/16/2023 1:00:00 AM 2.84 37.112 0.13 7.54 25.73 14.33
1/16/2023 1:15:00 AM 2.83 37.094 0.13 7.55 25.78 14.33
1/16/2023 1:30:00 AM 2.81 37.058 0.13 7.55 25.38 14.32
1/16/2023 1:45:00 AM 2.8 37.04 0.131 7.55 25.75 14.33
1/16/2023 2:00:00 AM 2.79 37.022 0.131 7.54 25.6 14.32
1/16/2023 2:15:00 AM 2.77 36.986 0.131 7.54 25.28 14.32
1/16/2023 2:30:00 AM 2.75 36.95 0.131 7.54 25.84 14.31
1/16/2023 2:45:00 AM 2.96 37.328 0.138 7.54 25.56 14.39
1/16/2023 3:00:00 AM 2.99 37.382 0.139 7.43 24.78 14.37
1/16/2023 3:15:00 AM 2.8 37.04 0.133 7.47 25.69 14.34
1/16/2023 3:30:00 AM 2.7 36.86 0.13 7.5 25.52 14.31
1/16/2023 3:45:00 AM 2.66 36.788 0.131 7.52 25.58 14.31
1/16/2023 4:00:00 AM 2.64 36.752 0.131 7.52 25.25 14.31
1/16/2023 4:15:00 AM 2.61 36.698 0.131 7.53 25.55 14.29
1/16/2023 4:30:00 AM 2.59 36.662 0.131 7.53 25.83 14.3
1/16/2023 4:45:00 AM 2.57 36.626 0.131 7.53 26.23 14.29
1/16/2023 5:00:00 AM 2.55 36.59 0.131 7.53 26.24 14.29
1/16/2023 5:15:00 AM 2.54 36.572 0.131 7.53 25.65 14.3
1/16/2023 5:30:00 AM 2.53 36.554 0.131 7.53 25.91 14.29
1/16/2023 5:45:00 AM 2.51 36.518 0.131 7.53 25.77 14.3
1/16/2023 6:00:00 AM 2.5 36.5 0.131 7.53 25.79 14.3
1/16/2023 6:15:00 AM 2.48 36.464 0.132 7.52 25.33 14.29
1/16/2023 6:30:00 AM 2.45 36.41 0.132 7.52 25.57 14.28
1/16/2023 6:45:00 AM 2.42 36.356 0.132 7.52 25.7 14.3
1/16/2023 7:00:00 AM 2.4 36.32 0.132 7.52 25.33 14.29
1/16/2023 7:15:00 AM 2.38 36.284 0.132 7.52 25.24 14.28
1/16/2023 7:30:00 AM 2.36 36.248 0.132 7.52 26.19 14.3
1/16/2023 7:45:00 AM 2.35 36.23 0.132 7.52 25.39 14.3
1/16/2023 8:00:00 AM 2.33 36.194 0.132 7.52 25.82 14.31
1/16/2023 8:15:00 AM 2.31 36.158 0.132 7.52 25.47 14.32
1/16/2023 8:30:00 AM 2.3 36.14 0.132 7.52 25.92 14.31
1/16/2023 8:45:00 AM 2.27 36.086 0.132 7.52 26.05 14.32
1/16/2023 9:00:00 AM 2.25 36.05 0.133 7.52 25.37 14.32
1/16/2023 9:15:00 AM 2.24 36.032 0.133 7.52 25.8 14.33
1/16/2023 9:30:00 AM 2.23 36.014 0.133 7.52 25.7 14.34
1/16/2023 9:45:00 AM 2.23 36.014 0.133 7.52 25.68 14.34
1/16/2023 10:00:00 AM 2.23 36.014 0.133 7.52 26.1 14.34
1/16/2023 10:15:00 AM 2.24 36.032 0.133 7.52 26.15 14.34
1/16/2023 10:30:00 AM 2.25 36.05 0.133 7.52 26.39 14.34
1/16/2023 10:45:00 AM 2.26 36.068 0.133 7.52 26.23 14.36
1/16/2023 11:00:00 AM 2.27 36.086 0.133 7.52 25.6 14.36
1/16/2023 11:15:00 AM 2.29 36.122 0.134 7.52 26.27 14.37
1/16/2023 11:30:00 AM 2.32 36.176 0.134 7.52 26.16 14.39
1/16/2023 11:45:00 AM 2.35 36.23 0.134 7.52 26.15 14.39
1/16/2023 12:00:00 PM 2.38 36.284 0.134 7.52 26.53 14.38
1/16/2023 12:15:00 PM 2.41 36.338 0.134 7.53 26.41 14.38
1/16/2023 12:30:00 PM 2.45 36.41 0.134 7.53 25.65 14.38
1/16/2023 12:45:00 PM 2.48 36.464 0.135 7.53 26.06 14.42
1/16/2023 1:00:00 PM 2.51 36.518 0.135 7.53 26.43 14.42
1/16/2023 1:15:00 PM 2.55 36.59 0.135 7.53 25.53 14.43
1/16/2023 1:30:00 PM 2.58 36.644 0.135 7.53 25.68 14.44
1/16/2023 1:45:00 PM 2.61 36.698 0.135 7.53 25.87 14.45